id=602121 time=20.05.2019 10:01:40 Vmax=6.5 Vmin=5.7 Vmid=5.9 Napr=185 uakb=14.1 usb=14.42 temp=15.18 hum=47.55 prs=994 Log=219584 Err=0
id=602120 time=20.05.2019 10:00:29 Vmax=6.3 Vmin=5.5 Vmid=5.9 Napr=186 uakb=14.12 usb=14.42 temp=15.2 hum=47.45 prs=994.02 Log=219583 Err=0
id=602119 time=20.05.2019 09:59:18 Vmax=6.6 Vmin=5.7 Vmid=6.1 Napr=188 uakb=14.12 usb=14.42 temp=15.21 hum=47.27 prs=994.01 Log=219582 Err=0
id=602118 time=20.05.2019 09:58:08 Vmax=6.8 Vmin=5.8 Vmid=6.3 Napr=189 uakb=14.12 usb=14.42 temp=15.22 hum=47.02 prs=993.98 Log=219581 Err=0
id=602117 time=20.05.2019 09:56:58 Vmax=7 Vmin=5.8 Vmid=6.5 Napr=191 uakb=14.12 usb=14.42 temp=15.2 hum=46.89 prs=993.97 Log=219580 Err=0
id=602116 time=20.05.2019 09:55:47 Vmax=7.1 Vmin=5.8 Vmid=6.4 Napr=192 uakb=14.1 usb=14.42 temp=15.16 hum=47.07 prs=993.94 Log=219579 Err=0
id=602115 time=20.05.2019 09:54:37 Vmax=6.2 Vmin=5.4 Vmid=5.8 Napr=193 uakb=14.12 usb=14.42 temp=15.11 hum=47.44 prs=993.94 Log=219578 Err=0
id=602114 time=20.05.2019 09:53:26 Vmax=6.9 Vmin=5.1 Vmid=6.1 Napr=194 uakb=14.12 usb=14.42 temp=15.03 hum=47.6 prs=993.95 Log=219577 Err=0
id=602113 time=20.05.2019 09:52:16 Vmax=6.5 Vmin=5.7 Vmid=6.1 Napr=193 uakb=14.12 usb=14.42 temp=14.99 hum=47.58 prs=994.01 Log=219576 Err=0
id=602112 time=20.05.2019 09:51:07 Vmax=6.3 Vmin=5.5 Vmid=5.7 Napr=195 uakb=14.12 usb=14.4 temp=15 hum=47.69 prs=994.01 Log=219575 Err=0
id=602111 time=20.05.2019 09:49:57 Vmax=5.8 Vmin=4.8 Vmid=5.5 Napr=197 uakb=14.12 usb=14.42 temp=15.04 hum=47.61 prs=994.01 Log=219574 Err=0
id=602110 time=20.05.2019 09:48:45 Vmax=5.9 Vmin=5.4 Vmid=5.6 Napr=195 uakb=14.1 usb=14.42 temp=15.11 hum=47.59 prs=993.99 Log=219573 Err=0
id=602109 time=20.05.2019 09:47:34 Vmax=5.9 Vmin=5.2 Vmid=5.5 Napr=196 uakb=14.12 usb=14.4 temp=15.2 hum=47.62 prs=993.98 Log=219572 Err=0
id=602108 time=20.05.2019 09:46:24 Vmax=6.2 Vmin=4.2 Vmid=5.4 Napr=197 uakb=14.12 usb=14.42 temp=15.3 hum=47.84 prs=993.98 Log=219571 Err=0
id=602107 time=20.05.2019 09:45:14 Vmax=5.6 Vmin=4.1 Vmid=5 Napr=200 uakb=14.1 usb=14.42 temp=15.4 hum=48.14 prs=993.98 Log=219570 Err=0
id=602106 time=20.05.2019 09:44:03 Vmax=6.3 Vmin=5 Vmid=5.7 Napr=199 uakb=14.12 usb=14.4 temp=15.46 hum=48.48 prs=994.02 Log=219569 Err=0
id=602105 time=20.05.2019 09:42:53 Vmax=5.5 Vmin=4.9 Vmid=5.2 Napr=196 uakb=14.12 usb=14.42 temp=15.48 hum=49.28 prs=994.01 Log=219568 Err=0
id=602104 time=20.05.2019 09:41:43 Vmax=6.3 Vmin=4.3 Vmid=5.4 Napr=200 uakb=14.1 usb=14.42 temp=15.45 hum=50.04 prs=993.97 Log=219567 Err=0
id=602103 time=20.05.2019 09:40:32 Vmax=5 Vmin=4.3 Vmid=4.7 Napr=201 uakb=14.1 usb=14.42 temp=15.43 hum=50.81 prs=993.98 Log=219566 Err=0
id=602102 time=20.05.2019 09:39:23 Vmax=5.8 Vmin=4.2 Vmid=4.8 Napr=198 uakb=14.12 usb=14.42 temp=15.42 hum=50.98 prs=994.02 Log=219565 Err=0
id=602101 time=20.05.2019 09:38:12 Vmax=4.8 Vmin=3.4 Vmid=4.1 Napr=199 uakb=14.12 usb=14.42 temp=15.42 hum=51.24 prs=994.08 Log=219564 Err=0
id=602100 time=20.05.2019 09:37:01 Vmax=4.4 Vmin=3.6 Vmid=4 Napr=197 uakb=14.1 usb=14.4 temp=15.43 hum=51.31 prs=994.09 Log=219563 Err=0
id=602099 time=20.05.2019 09:35:50 Vmax=4.6 Vmin=3.4 Vmid=3.9 Napr=200 uakb=14.1 usb=14.42 temp=15.44 hum=51.54 prs=994.06 Log=219562 Err=0
id=602098 time=20.05.2019 09:34:42 Vmax=4.2 Vmin=3 Vmid=3.6 Napr=205 uakb=14.12 usb=14.42 temp=15.47 hum=51.6 prs=994.04 Log=219561 Err=0
id=602097 time=20.05.2019 09:33:31 Vmax=3.4 Vmin=2.3 Vmid=2.7 Napr=203 uakb=14.12 usb=14.42 temp=15.55 hum=51.58 prs=994.01 Log=219560 Err=0
id=602096 time=20.05.2019 09:32:20 Vmax=3 Vmin=2.1 Vmid=2.6 Napr=206 uakb=14.12 usb=14.42 temp=15.68 hum=51.61 prs=994.02 Log=219559 Err=0
id=602095 time=20.05.2019 09:31:09 Vmax=3.3 Vmin=2.7 Vmid=2.9 Napr=203 uakb=14.1 usb=14.42 temp=15.8 hum=51.52 prs=993.96 Log=219558 Err=0
id=602094 time=20.05.2019 09:29:59 Vmax=3.5 Vmin=2.8 Vmid=3.3 Napr=196 uakb=14.1 usb=14.42 temp=15.94 hum=51.14 prs=993.97 Log=219557 Err=0
id=602093 time=20.05.2019 09:28:50 Vmax=4.8 Vmin=3.3 Vmid=4.3 Napr=188 uakb=14.12 usb=14.42 temp=16.05 hum=50.63 prs=993.97 Log=219556 Err=0
id=602092 time=20.05.2019 09:27:40 Vmax=5.5 Vmin=4.6 Vmid=4.8 Napr=181 uakb=14.1 usb=14.4 temp=16.14 hum=50.48 prs=993.95 Log=219555 Err=0
id=602091 time=20.05.2019 09:26:28 Vmax=5 Vmin=4.6 Vmid=4.7 Napr=177 uakb=14.12 usb=14.42 temp=16.19 hum=50.64 prs=993.93 Log=219554 Err=0
id=602090 time=20.05.2019 09:25:18 Vmax=4.9 Vmin=4.3 Vmid=4.4 Napr=168 uakb=14.1 usb=14.42 temp=16.19 hum=50.31 prs=993.83 Log=219553 Err=0
id=602089 time=20.05.2019 09:24:07 Vmax=5.2 Vmin=4.9 Vmid=5 Napr=160 uakb=14.12 usb=14.42 temp=16.16 hum=49.78 prs=993.69 Log=219552 Err=0
id=602088 time=20.05.2019 09:22:58 Vmax=5.9 Vmin=5 Vmid=5.5 Napr=155 uakb=14.12 usb=14.42 temp=16.13 hum=49.31 prs=993.66 Log=219551 Err=0
id=602087 time=20.05.2019 09:21:47 Vmax=6.1 Vmin=4.9 Vmid=5.5 Napr=149 uakb=14.12 usb=14.42 temp=16.12 hum=49.61 prs=993.59 Log=219550 Err=0
id=602086 time=20.05.2019 09:20:36 Vmax=5.2 Vmin=4.1 Vmid=4.4 Napr=142 uakb=14.12 usb=14.42 temp=16.08 hum=49.92 prs=993.54 Log=219549 Err=0
id=602085 time=20.05.2019 09:19:26 Vmax=4.2 Vmin=3.5 Vmid=3.7 Napr=136 uakb=14.1 usb=14.42 temp=16.04 hum=49.99 prs=993.55 Log=219548 Err=0
id=602084 time=20.05.2019 09:18:16 Vmax=5 Vmin=3.9 Vmid=4.1 Napr=132 uakb=14.12 usb=14.42 temp=16 hum=49.69 prs=993.55 Log=219547 Err=0
id=602083 time=20.05.2019 09:15:57 Vmax=5 Vmin=4.3 Vmid=4.7 Napr=136 uakb=14.12 usb=14.42 temp=15.96 hum=49.24 prs=993.56 Log=219545 Err=0
id=602082 time=20.05.2019 09:14:45 Vmax=4.3 Vmin=3.7 Vmid=4 Napr=130 uakb=14.12 usb=14.42 temp=15.94 hum=49.14 prs=993.52 Log=219544 Err=0
id=602081 time=20.05.2019 09:13:35 Vmax=5.6 Vmin=3.9 Vmid=4.6 Napr=132 uakb=14.12 usb=14.42 temp=15.89 hum=48.8 prs=993.55 Log=219543 Err=0
id=602080 time=20.05.2019 09:12:26 Vmax=4.7 Vmin=3.9 Vmid=4.2 Napr=133 uakb=14.12 usb=14.42 temp=15.87 hum=48.96 prs=993.58 Log=219542 Err=0
id=602079 time=20.05.2019 09:11:14 Vmax=5 Vmin=3.6 Vmid=4 Napr=133 uakb=14.12 usb=14.42 temp=15.87 hum=49.35 prs=993.56 Log=219541 Err=0
id=602078 time=20.05.2019 09:10:03 Vmax=4.3 Vmin=4 Vmid=4.1 Napr=126 uakb=14.12 usb=14.42 temp=15.84 hum=48.6 prs=993.51 Log=219540 Err=0
id=602077 time=20.05.2019 09:08:54 Vmax=5 Vmin=4.2 Vmid=4.6 Napr=121 uakb=14.1 usb=14.42 temp=15.79 hum=48.51 prs=993.46 Log=219539 Err=0
id=602076 time=20.05.2019 09:07:43 Vmax=5.2 Vmin=4 Vmid=4.8 Napr=119 uakb=14.1 usb=14.42 temp=15.73 hum=48.45 prs=993.45 Log=219538 Err=0
id=602075 time=20.05.2019 09:05:24 Vmax=4.8 Vmin=4.1 Vmid=4.4 Napr=120 uakb=14.12 usb=14.42 temp=15.64 hum=48.46 prs=993.44 Log=219536 Err=0
id=602074 time=20.05.2019 09:04:15 Vmax=4.6 Vmin=4.3 Vmid=4.4 Napr=118 uakb=14.12 usb=14.42 temp=15.59 hum=48.28 prs=993.46 Log=219535 Err=0
id=602073 time=20.05.2019 09:03:03 Vmax=5.6 Vmin=4.4 Vmid=5 Napr=120 uakb=14.12 usb=14.42 temp=15.53 hum=47.73 prs=993.51 Log=219534 Err=0
id=602072 time=20.05.2019 09:01:53 Vmax=5.1 Vmin=4.3 Vmid=4.8 Napr=119 uakb=14.12 usb=14.42 temp=15.5 hum=48.25 prs=993.51 Log=219533 Err=0
id=602071 time=20.05.2019 09:00:42 Vmax=5.2 Vmin=4.9 Vmid=5 Napr=117 uakb=14.12 usb=14.4 temp=15.47 hum=47.69 prs=993.49 Log=219532 Err=0
id=602070 time=20.05.2019 08:59:31 Vmax=5.6 Vmin=4.8 Vmid=5.1 Napr=116 uakb=14.12 usb=14.42 temp=15.43 hum=47.36 prs=993.48 Log=219531 Err=0
id=602069 time=20.05.2019 08:58:22 Vmax=5.6 Vmin=4.7 Vmid=5 Napr=117 uakb=14.12 usb=14.42 temp=15.39 hum=46.7 prs=993.48 Log=219530 Err=0
id=602068 time=20.05.2019 08:57:11 Vmax=5 Vmin=4.1 Vmid=4.6 Napr=115 uakb=14.14 usb=14.42 temp=15.34 hum=46 prs=993.42 Log=219529 Err=0
id=602067 time=20.05.2019 08:56:01 Vmax=6.1 Vmin=4.8 Vmid=5.4 Napr=110 uakb=14.12 usb=14.42 temp=15.3 hum=45.41 prs=993.4 Log=219528 Err=0
id=602066 time=20.05.2019 08:54:50 Vmax=5 Vmin=3.7 Vmid=4.4 Napr=110 uakb=14.12 usb=14.42 temp=15.26 hum=45.59 prs=993.4 Log=219527 Err=0
id=602065 time=20.05.2019 08:53:40 Vmax=5.5 Vmin=4.6 Vmid=5 Napr=109 uakb=14.1 usb=14.42 temp=15.21 hum=45.43 prs=993.37 Log=219526 Err=0
id=602064 time=20.05.2019 08:52:30 Vmax=5.6 Vmin=4.4 Vmid=4.9 Napr=109 uakb=14.14 usb=14.42 temp=15.16 hum=45.43 prs=993.35 Log=219525 Err=0
id=602063 time=20.05.2019 08:51:19 Vmax=6.1 Vmin=4.7 Vmid=5.5 Napr=106 uakb=14.12 usb=14.42 temp=15.11 hum=45.44 prs=993.32 Log=219524 Err=0
id=602062 time=20.05.2019 08:50:09 Vmax=5.6 Vmin=4.8 Vmid=5.1 Napr=107 uakb=14.12 usb=14.42 temp=15.05 hum=45.7 prs=993.35 Log=219523 Err=0
id=602061 time=20.05.2019 08:49:00 Vmax=5.9 Vmin=3.6 Vmid=4.8 Napr=104 uakb=14.12 usb=14.42 temp=15 hum=45.99 prs=993.3 Log=219522 Err=0
id=602060 time=20.05.2019 08:47:48 Vmax=5.5 Vmin=4.4 Vmid=4.9 Napr=106 uakb=14.12 usb=14.4 temp=14.93 hum=46.05 prs=993.31 Log=219521 Err=0
id=602059 time=20.05.2019 08:46:38 Vmax=4.6 Vmin=3.3 Vmid=3.7 Napr=103 uakb=14.12 usb=14.42 temp=14.86 hum=46.14 prs=993.33 Log=219520 Err=0
id=602058 time=20.05.2019 08:45:28 Vmax=5.7 Vmin=4.2 Vmid=5 Napr=103 uakb=14.12 usb=14.42 temp=14.81 hum=46.13 prs=993.32 Log=219519 Err=0
id=602057 time=20.05.2019 08:44:18 Vmax=5.2 Vmin=3.7 Vmid=4.3 Napr=103 uakb=14.12 usb=14.42 temp=14.76 hum=46.33 prs=993.37 Log=219518 Err=0
id=602056 time=20.05.2019 08:43:07 Vmax=5.9 Vmin=4.4 Vmid=4.9 Napr=105 uakb=14.12 usb=14.42 temp=14.71 hum=46.34 prs=993.39 Log=219517 Err=0
id=602055 time=20.05.2019 08:41:57 Vmax=4.7 Vmin=3.7 Vmid=4 Napr=106 uakb=14.12 usb=14.42 temp=14.67 hum=46.58 prs=993.43 Log=219516 Err=0
id=602054 time=20.05.2019 08:40:47 Vmax=5.1 Vmin=4.1 Vmid=4.6 Napr=107 uakb=14.12 usb=14.42 temp=14.61 hum=46.56 prs=993.46 Log=219515 Err=0
id=602053 time=20.05.2019 08:39:39 Vmax=5.4 Vmin=4.3 Vmid=4.8 Napr=104 uakb=14.12 usb=14.42 temp=14.56 hum=46.57 prs=993.5 Log=219514 Err=0
id=602052 time=20.05.2019 08:38:26 Vmax=5.5 Vmin=4.3 Vmid=5 Napr=108 uakb=14.12 usb=14.42 temp=14.53 hum=46.63 prs=993.53 Log=219513 Err=0
id=602051 time=20.05.2019 08:37:16 Vmax=5.4 Vmin=3.7 Vmid=4.4 Napr=109 uakb=14.12 usb=14.42 temp=14.49 hum=46.57 prs=993.54 Log=219512 Err=0
id=602050 time=20.05.2019 08:36:06 Vmax=6.1 Vmin=4.8 Vmid=5.5 Napr=110 uakb=14.12 usb=14.42 temp=14.5 hum=46.4 prs=993.52 Log=219511 Err=0
id=602049 time=20.05.2019 08:34:55 Vmax=5.9 Vmin=4.6 Vmid=4.9 Napr=110 uakb=14.12 usb=14.42 temp=14.49 hum=46.45 prs=993.52 Log=219510 Err=0
id=602048 time=20.05.2019 08:33:46 Vmax=5.6 Vmin=4.8 Vmid=5.1 Napr=106 uakb=14.12 usb=14.42 temp=14.47 hum=46.5 prs=993.51 Log=219509 Err=0
id=602047 time=20.05.2019 08:32:35 Vmax=5.9 Vmin=4.2 Vmid=5.2 Napr=106 uakb=14.12 usb=14.42 temp=14.45 hum=46.53 prs=993.5 Log=219508 Err=0
id=602046 time=20.05.2019 08:31:25 Vmax=6.1 Vmin=4.6 Vmid=5.1 Napr=104 uakb=14.12 usb=14.42 temp=14.41 hum=46.76 prs=993.47 Log=219507 Err=0
id=602045 time=20.05.2019 08:30:14 Vmax=4.9 Vmin=4.1 Vmid=4.4 Napr=106 uakb=14.12 usb=14.42 temp=14.37 hum=46.79 prs=993.48 Log=219506 Err=0
id=602044 time=20.05.2019 08:29:06 Vmax=6.1 Vmin=3.7 Vmid=4.8 Napr=107 uakb=14.12 usb=14.42 temp=14.33 hum=46.9 prs=993.47 Log=219505 Err=0
id=602043 time=20.05.2019 08:27:53 Vmax=5.4 Vmin=3.2 Vmid=4.1 Napr=107 uakb=14.14 usb=14.42 temp=14.27 hum=47.15 prs=993.51 Log=219504 Err=0
id=602042 time=20.05.2019 08:26:44 Vmax=5.5 Vmin=3.3 Vmid=4.4 Napr=106 uakb=14.12 usb=14.42 temp=14.19 hum=47.35 prs=993.48 Log=219503 Err=0
id=602041 time=20.05.2019 08:25:33 Vmax=6.4 Vmin=3.9 Vmid=5.2 Napr=111 uakb=14.12 usb=14.42 temp=14.15 hum=47.31 prs=993.45 Log=219502 Err=0
id=602040 time=20.05.2019 08:24:23 Vmax=5.2 Vmin=4.6 Vmid=4.9 Napr=110 uakb=14.14 usb=14.42 temp=14.1 hum=47.6 prs=993.44 Log=219501 Err=0
id=602039 time=20.05.2019 08:23:13 Vmax=5.6 Vmin=4.2 Vmid=4.9 Napr=106 uakb=14.12 usb=14.42 temp=14.04 hum=47.7 prs=993.45 Log=219500 Err=0
id=602038 time=20.05.2019 08:22:03 Vmax=5.2 Vmin=3.6 Vmid=4.4 Napr=104 uakb=14.12 usb=14.42 temp=13.97 hum=47.87 prs=993.41 Log=219499 Err=0
id=602037 time=20.05.2019 08:20:52 Vmax=6.6 Vmin=4.2 Vmid=5 Napr=107 uakb=14.12 usb=14.42 temp=13.91 hum=47.96 prs=993.44 Log=219498 Err=0
id=602036 time=20.05.2019 08:19:42 Vmax=6.2 Vmin=4.6 Vmid=5.1 Napr=104 uakb=14.12 usb=14.42 temp=13.86 hum=47.98 prs=993.47 Log=219497 Err=0
id=602035 time=20.05.2019 08:18:32 Vmax=6.5 Vmin=4.3 Vmid=5.4 Napr=102 uakb=14.14 usb=14.42 temp=13.82 hum=48.38 prs=993.49 Log=219496 Err=0
id=602034 time=20.05.2019 08:17:22 Vmax=5.5 Vmin=4.2 Vmid=4.8 Napr=103 uakb=14.12 usb=14.42 temp=13.75 hum=48.36 prs=993.51 Log=219495 Err=0
id=602033 time=20.05.2019 08:16:11 Vmax=5.4 Vmin=4.3 Vmid=4.7 Napr=109 uakb=14.12 usb=14.42 temp=13.69 hum=48.7 prs=993.53 Log=219494 Err=0
id=602032 time=20.05.2019 08:15:00 Vmax=5.1 Vmin=4.1 Vmid=4.7 Napr=111 uakb=14.1 usb=14.42 temp=13.61 hum=48.78 prs=993.55 Log=219493 Err=0
id=602031 time=20.05.2019 08:13:51 Vmax=5.9 Vmin=4.4 Vmid=5 Napr=106 uakb=14.12 usb=14.42 temp=13.52 hum=49.04 prs=993.58 Log=219492 Err=0
id=602030 time=20.05.2019 08:12:40 Vmax=6.3 Vmin=4.4 Vmid=5.5 Napr=103 uakb=14.12 usb=14.42 temp=13.45 hum=49.19 prs=993.59 Log=219491 Err=0
id=602029 time=20.05.2019 08:11:30 Vmax=6.6 Vmin=4.3 Vmid=5.6 Napr=106 uakb=14.12 usb=14.42 temp=13.39 hum=49.44 prs=993.61 Log=219490 Err=0
id=602028 time=20.05.2019 08:10:20 Vmax=6.2 Vmin=4.6 Vmid=5.4 Napr=103 uakb=14.12 usb=14.42 temp=13.31 hum=49.63 prs=993.59 Log=219489 Err=0
id=602027 time=20.05.2019 08:09:10 Vmax=6.2 Vmin=5 Vmid=5.6 Napr=107 uakb=14.14 usb=14.42 temp=13.24 hum=49.86 prs=993.62 Log=219488 Err=0
id=602026 time=20.05.2019 08:07:59 Vmax=5.7 Vmin=4.8 Vmid=5.2 Napr=108 uakb=14.12 usb=14.42 temp=13.18 hum=49.81 prs=993.63 Log=219487 Err=0
id=602025 time=20.05.2019 08:06:50 Vmax=7 Vmin=5.4 Vmid=6.1 Napr=107 uakb=14.12 usb=14.42 temp=13.13 hum=49.88 prs=993.64 Log=219486 Err=0
id=602024 time=20.05.2019 08:05:39 Vmax=6.4 Vmin=5.7 Vmid=5.9 Napr=108 uakb=14.12 usb=14.44 temp=13.09 hum=50.12 prs=993.67 Log=219485 Err=0
id=602023 time=20.05.2019 08:04:29 Vmax=6.9 Vmin=4 Vmid=5.4 Napr=108 uakb=14.12 usb=14.42 temp=13.06 hum=50.28 prs=993.71 Log=219484 Err=0
id=602022 time=20.05.2019 08:03:19 Vmax=6.6 Vmin=4.8 Vmid=5.8 Napr=105 uakb=14.12 usb=14.44 temp=13 hum=50.49 prs=993.74 Log=219483 Err=0
id=602021 time=20.05.2019 08:02:08 Vmax=5.4 Vmin=3.6 Vmid=4.7 Napr=107 uakb=14.14 usb=14.42 temp=12.94 hum=50.71 prs=993.75 Log=219482 Err=0
id=602020 time=20.05.2019 08:00:57 Vmax=6.8 Vmin=4.3 Vmid=5.4 Napr=108 uakb=14.14 usb=14.42 temp=12.88 hum=50.8 prs=993.72 Log=219481 Err=0
id=602019 time=20.05.2019 07:59:47 Vmax=6.4 Vmin=5 Vmid=5.7 Napr=108 uakb=14.12 usb=14.42 temp=12.82 hum=50.9 prs=993.72 Log=219480 Err=0
id=602018 time=20.05.2019 07:58:37 Vmax=6.5 Vmin=3.5 Vmid=5 Napr=107 uakb=14.12 usb=14.42 temp=12.76 hum=50.87 prs=993.72 Log=219479 Err=0
id=602017 time=20.05.2019 07:57:27 Vmax=6.5 Vmin=5.4 Vmid=5.8 Napr=108 uakb=14.12 usb=14.44 temp=12.68 hum=51.26 prs=993.73 Log=219478 Err=0
id=602016 time=20.05.2019 07:56:18 Vmax=5.5 Vmin=4.4 Vmid=5.1 Napr=105 uakb=14.12 usb=14.42 temp=12.59 hum=51.67 prs=993.78 Log=219477 Err=0
id=602015 time=20.05.2019 07:55:07 Vmax=6.4 Vmin=5 Vmid=5.7 Napr=106 uakb=14.12 usb=14.42 temp=12.52 hum=51.85 prs=993.78 Log=219476 Err=0
id=602014 time=20.05.2019 07:53:56 Vmax=6.3 Vmin=5 Vmid=5.7 Napr=106 uakb=14.12 usb=14.42 temp=12.46 hum=52.09 prs=993.81 Log=219475 Err=0
id=602013 time=20.05.2019 07:52:46 Vmax=6.1 Vmin=5 Vmid=5.5 Napr=106 uakb=14.12 usb=14.42 temp=12.41 hum=52.22 prs=993.83 Log=219474 Err=0
id=602012 time=20.05.2019 07:51:36 Vmax=6.8 Vmin=5.6 Vmid=6.2 Napr=106 uakb=14.12 usb=14.42 temp=12.37 hum=52.29 prs=993.82 Log=219473 Err=0
id=602011 time=20.05.2019 07:50:26 Vmax=7 Vmin=5 Vmid=6.1 Napr=106 uakb=14.12 usb=14.44 temp=12.33 hum=52.33 prs=993.83 Log=219472 Err=0
id=602010 time=20.05.2019 07:49:16 Vmax=6.8 Vmin=5.5 Vmid=6.1 Napr=105 uakb=14.12 usb=14.42 temp=12.29 hum=52.49 prs=993.84 Log=219471 Err=0
id=602009 time=20.05.2019 07:48:06 Vmax=6.3 Vmin=4.8 Vmid=5.7 Napr=109 uakb=14.12 usb=14.42 temp=12.25 hum=52.58 prs=993.84 Log=219470 Err=0
id=602008 time=20.05.2019 07:46:55 Vmax=6.8 Vmin=5.1 Vmid=5.9 Napr=107 uakb=14.12 usb=14.42 temp=12.21 hum=52.79 prs=993.81 Log=219469 Err=0
id=602007 time=20.05.2019 07:45:47 Vmax=6.3 Vmin=4.9 Vmid=5.5 Napr=107 uakb=14.12 usb=14.42 temp=12.15 hum=52.9 prs=993.84 Log=219468 Err=0
id=602006 time=20.05.2019 07:44:35 Vmax=6.6 Vmin=5.1 Vmid=5.9 Napr=103 uakb=14.14 usb=14.42 temp=12.11 hum=53.02 prs=993.84 Log=219467 Err=0
id=602005 time=20.05.2019 07:43:25 Vmax=7.3 Vmin=5.4 Vmid=6.2 Napr=104 uakb=14.12 usb=14.42 temp=12.07 hum=53.05 prs=993.86 Log=219466 Err=0
id=602004 time=20.05.2019 07:42:15 Vmax=6.9 Vmin=4.7 Vmid=5.7 Napr=109 uakb=14.12 usb=14.42 temp=12.03 hum=53.16 prs=993.84 Log=219465 Err=0
id=602003 time=20.05.2019 07:41:04 Vmax=6.4 Vmin=4.9 Vmid=5.8 Napr=110 uakb=14.12 usb=14.42 temp=11.99 hum=53.25 prs=993.85 Log=219464 Err=0
id=602002 time=20.05.2019 07:39:54 Vmax=6.1 Vmin=5 Vmid=5.5 Napr=110 uakb=14.12 usb=14.42 temp=11.94 hum=53.44 prs=993.9 Log=219463 Err=0
id=602001 time=20.05.2019 07:38:44 Vmax=7.1 Vmin=5.9 Vmid=6.5 Napr=109 uakb=14.12 usb=14.42 temp=11.95 hum=53.39 prs=993.85 Log=219462 Err=0
id=602000 time=20.05.2019 07:37:35 Vmax=6.4 Vmin=4.3 Vmid=5.5 Napr=106 uakb=14.12 usb=14.42 temp=11.92 hum=53.82 prs=993.91 Log=219461 Err=0
id=601999 time=20.05.2019 07:36:23 Vmax=6.9 Vmin=5.4 Vmid=5.9 Napr=106 uakb=14.1 usb=14.44 temp=11.86 hum=53.8 prs=993.89 Log=219460 Err=0
id=601998 time=20.05.2019 07:35:13 Vmax=6.4 Vmin=4.4 Vmid=5.2 Napr=106 uakb=14.12 usb=14.42 temp=11.8 hum=54.08 prs=993.96 Log=219459 Err=0
id=601997 time=20.05.2019 07:34:03 Vmax=6.9 Vmin=5.4 Vmid=6.2 Napr=109 uakb=14.1 usb=14.42 temp=11.76 hum=53.94 prs=993.94 Log=219458 Err=0
id=601996 time=20.05.2019 07:32:55 Vmax=7 Vmin=6.1 Vmid=6.4 Napr=110 uakb=14.12 usb=14.44 temp=11.74 hum=54.39 prs=993.92 Log=219457 Err=0
id=601995 time=20.05.2019 07:31:43 Vmax=7.3 Vmin=5.4 Vmid=5.8 Napr=105 uakb=14.12 usb=14.42 temp=11.69 hum=54.66 prs=993.94 Log=219456 Err=0
id=601994 time=20.05.2019 07:30:32 Vmax=6.8 Vmin=5.7 Vmid=6.3 Napr=107 uakb=14.12 usb=14.44 temp=11.65 hum=54.55 prs=993.93 Log=219455 Err=0
id=601993 time=20.05.2019 07:29:22 Vmax=6.9 Vmin=4.6 Vmid=5.6 Napr=107 uakb=14.12 usb=14.42 temp=11.59 hum=54.81 prs=993.95 Log=219454 Err=0
id=601992 time=20.05.2019 07:28:12 Vmax=6.9 Vmin=5.6 Vmid=6.2 Napr=108 uakb=14.1 usb=14.44 temp=11.55 hum=54.75 prs=993.9 Log=219453 Err=0
id=601991 time=20.05.2019 07:27:02 Vmax=6.8 Vmin=5.5 Vmid=6.1 Napr=110 uakb=14.1 usb=14.42 temp=11.49 hum=55.17 prs=993.92 Log=219452 Err=0
id=601990 time=20.05.2019 07:25:52 Vmax=6.6 Vmin=4.7 Vmid=5.5 Napr=105 uakb=14.1 usb=14.42 temp=11.43 hum=55.22 prs=993.96 Log=219451 Err=0
id=601989 time=20.05.2019 07:24:41 Vmax=7.2 Vmin=4.9 Vmid=5.6 Napr=110 uakb=14.1 usb=14.4 temp=11.36 hum=55.57 prs=993.92 Log=219450 Err=0
id=601988 time=20.05.2019 07:23:31 Vmax=7.1 Vmin=4.3 Vmid=5.9 Napr=107 uakb=14.08 usb=14.38 temp=11.31 hum=55.56 prs=993.93 Log=219449 Err=0
id=601987 time=20.05.2019 07:22:21 Vmax=7 Vmin=5 Vmid=6.2 Napr=107 uakb=14.06 usb=14.28 temp=11.26 hum=55.83 prs=993.95 Log=219448 Err=0
id=601986 time=20.05.2019 07:21:11 Vmax=6.5 Vmin=5.4 Vmid=5.8 Napr=109 uakb=14.04 usb=14.36 temp=11.21 hum=56.16 prs=993.92 Log=219447 Err=0
id=601985 time=20.05.2019 07:20:00 Vmax=6.5 Vmin=5 Vmid=6.1 Napr=108 uakb=14.04 usb=14.36 temp=11.16 hum=56.03 prs=993.96 Log=219446 Err=0
id=601984 time=20.05.2019 07:18:51 Vmax=6.9 Vmin=6.1 Vmid=6.5 Napr=105 uakb=14.02 usb=14.34 temp=11.14 hum=56.4 prs=993.95 Log=219445 Err=0
id=601983 time=20.05.2019 07:17:40 Vmax=7.6 Vmin=6.4 Vmid=6.9 Napr=107 uakb=14.02 usb=14.32 temp=11.09 hum=56.49 prs=993.98 Log=219444 Err=0
id=601982 time=20.05.2019 07:16:35 Vmax=7.2 Vmin=5 Vmid=6.1 Napr=107 uakb=14 usb=14.32 temp=11.02 hum=56.91 prs=993.99 Log=219443 Err=0
id=601981 time=20.05.2019 07:15:20 Vmax=6.4 Vmin=4.4 Vmid=5.7 Napr=107 uakb=14 usb=14.3 temp=10.95 hum=57.51 prs=994.01 Log=219442 Err=0
id=601980 time=20.05.2019 07:14:10 Vmax=7 Vmin=5.2 Vmid=5.9 Napr=109 uakb=13.98 usb=14.1 temp=10.88 hum=57.66 prs=993.96 Log=219441 Err=0
id=601979 time=20.05.2019 07:13:00 Vmax=6.9 Vmin=5.7 Vmid=6.1 Napr=104 uakb=13.94 usb=13.94 temp=10.81 hum=57.51 prs=994.01 Log=219440 Err=0
id=601978 time=20.05.2019 07:11:49 Vmax=6.8 Vmin=5.2 Vmid=6.1 Napr=104 uakb=13.94 usb=14.26 temp=10.74 hum=57.94 prs=993.99 Log=219439 Err=0
id=601977 time=20.05.2019 07:10:40 Vmax=6.6 Vmin=5 Vmid=5.9 Napr=106 uakb=13.92 usb=14.24 temp=10.67 hum=58.13 prs=994.01 Log=219438 Err=0
id=601976 time=20.05.2019 07:09:29 Vmax=6.4 Vmin=5.5 Vmid=5.8 Napr=106 uakb=13.92 usb=14.22 temp=10.59 hum=58.61 prs=994.02 Log=219437 Err=0
id=601975 time=20.05.2019 07:08:19 Vmax=7.1 Vmin=4.9 Vmid=5.8 Napr=109 uakb=13.9 usb=14.2 temp=10.52 hum=58.96 prs=994.04 Log=219436 Err=0
id=601974 time=20.05.2019 07:07:09 Vmax=6.2 Vmin=4.8 Vmid=5.5 Napr=106 uakb=13.9 usb=14.2 temp=10.43 hum=59.23 prs=994.05 Log=219435 Err=0
id=601973 time=20.05.2019 07:05:59 Vmax=7.6 Vmin=5.9 Vmid=6.6 Napr=108 uakb=13.88 usb=14.18 temp=10.35 hum=59.51 prs=994.02 Log=219434 Err=0
id=601972 time=20.05.2019 07:04:49 Vmax=7.7 Vmin=6.3 Vmid=7 Napr=107 uakb=13.86 usb=14.12 temp=10.3 hum=59.56 prs=994.03 Log=219433 Err=0
id=601971 time=20.05.2019 07:03:39 Vmax=7.6 Vmin=5.8 Vmid=6.9 Napr=110 uakb=13.84 usb=14.16 temp=10.26 hum=60.17 prs=994.02 Log=219432 Err=0
id=601970 time=20.05.2019 07:02:29 Vmax=7.1 Vmin=6.4 Vmid=6.8 Napr=108 uakb=13.82 usb=14.14 temp=10.23 hum=60.39 prs=994.06 Log=219431 Err=0
id=601969 time=20.05.2019 07:01:20 Vmax=7.3 Vmin=5.7 Vmid=6.5 Napr=110 uakb=13.8 usb=13.98 temp=10.19 hum=61.03 prs=994.09 Log=219430 Err=0
id=601968 time=20.05.2019 07:00:08 Vmax=6.6 Vmin=6.1 Vmid=6.4 Napr=110 uakb=13.8 usb=14.02 temp=10.15 hum=61.44 prs=994.11 Log=219429 Err=0
id=601967 time=20.05.2019 06:58:59 Vmax=7.2 Vmin=5.6 Vmid=6.2 Napr=115 uakb=13.76 usb=14.08 temp=10.12 hum=61.68 prs=994.11 Log=219428 Err=0
id=601966 time=20.05.2019 06:57:48 Vmax=6.2 Vmin=5.4 Vmid=5.7 Napr=115 uakb=13.76 usb=14.06 temp=10.09 hum=61.77 prs=994.15 Log=219427 Err=0
id=601965 time=20.05.2019 06:56:38 Vmax=6.8 Vmin=5.8 Vmid=5.9 Napr=113 uakb=13.74 usb=14.04 temp=10.05 hum=61.82 prs=994.15 Log=219426 Err=0
id=601964 time=20.05.2019 06:55:28 Vmax=7.1 Vmin=6.4 Vmid=6.6 Napr=111 uakb=13.72 usb=14 temp=10 hum=61.56 prs=994.12 Log=219425 Err=0
id=601963 time=20.05.2019 06:54:18 Vmax=7.5 Vmin=5.9 Vmid=6.6 Napr=109 uakb=13.7 usb=13.96 temp=9.92 hum=61.79 prs=994.15 Log=219424 Err=0
id=601962 time=20.05.2019 06:53:08 Vmax=7.6 Vmin=5.5 Vmid=6.3 Napr=107 uakb=13.68 usb=13.94 temp=9.82 hum=62.58 prs=994.18 Log=219423 Err=0
id=601961 time=20.05.2019 06:51:57 Vmax=7.5 Vmin=4.9 Vmid=6.2 Napr=104 uakb=13.66 usb=13.7 temp=9.7 hum=62.63 prs=994.12 Log=219422 Err=0
id=601960 time=20.05.2019 06:50:48 Vmax=6.9 Vmin=5.7 Vmid=6.2 Napr=107 uakb=13.64 usb=13.92 temp=9.57 hum=63.38 prs=994.12 Log=219421 Err=0
id=601959 time=20.05.2019 06:49:37 Vmax=7.8 Vmin=5.7 Vmid=6.6 Napr=105 uakb=13.62 usb=13.82 temp=9.45 hum=63.9 prs=994.12 Log=219420 Err=0
id=601958 time=20.05.2019 06:48:29 Vmax=6.5 Vmin=3.6 Vmid=5.6 Napr=104 uakb=13.58 usb=13.9 temp=9.3 hum=64.58 prs=994.14 Log=219419 Err=0
id=601957 time=20.05.2019 06:47:18 Vmax=5.5 Vmin=4.2 Vmid=4.7 Napr=106 uakb=13.56 usb=13.88 temp=9.18 hum=64.79 prs=994.21 Log=219418 Err=0
id=601956 time=20.05.2019 06:46:08 Vmax=5.9 Vmin=3.5 Vmid=4.6 Napr=105 uakb=13.54 usb=13.86 temp=9.11 hum=64.92 prs=994.18 Log=219417 Err=0
id=601955 time=20.05.2019 06:44:58 Vmax=5.8 Vmin=3.7 Vmid=4.4 Napr=105 uakb=13.52 usb=13.82 temp=9.03 hum=65.13 prs=994.2 Log=219416 Err=0
id=601954 time=20.05.2019 06:43:47 Vmax=4.9 Vmin=3.9 Vmid=4.4 Napr=103 uakb=13.5 usb=13.72 temp=8.94 hum=65.39 prs=994.17 Log=219415 Err=0
id=601953 time=20.05.2019 06:42:37 Vmax=6.5 Vmin=4 Vmid=4.8 Napr=102 uakb=13.48 usb=13.6 temp=8.87 hum=65.57 prs=994.24 Log=219414 Err=0
id=601952 time=20.05.2019 06:41:27 Vmax=5.5 Vmin=3.6 Vmid=4.6 Napr=103 uakb=13.44 usb=13.44 temp=8.8 hum=65.78 prs=994.21 Log=219413 Err=0
id=601951 time=20.05.2019 06:40:17 Vmax=5.7 Vmin=4.4 Vmid=5 Napr=103 uakb=13.42 usb=13.62 temp=8.72 hum=66.11 prs=994.22 Log=219412 Err=0
id=601950 time=20.05.2019 06:39:07 Vmax=5.9 Vmin=4.6 Vmid=5 Napr=104 uakb=13.38 usb=13.39 temp=8.63 hum=66.32 prs=994.2 Log=219411 Err=0
id=601949 time=20.05.2019 06:37:57 Vmax=5.4 Vmin=5 Vmid=5.1 Napr=105 uakb=13.36 usb=13.41 temp=8.54 hum=66.79 prs=994.22 Log=219410 Err=0
id=601948 time=20.05.2019 06:36:47 Vmax=6.1 Vmin=4.2 Vmid=5 Napr=104 uakb=13.34 usb=13.29 temp=8.44 hum=67.08 prs=994.21 Log=219409 Err=0
id=601947 time=20.05.2019 06:35:37 Vmax=5.9 Vmin=4.6 Vmid=5.1 Napr=100 uakb=13.3 usb=13.29 temp=8.35 hum=67.21 prs=994.25 Log=219408 Err=0
id=601946 time=20.05.2019 06:34:27 Vmax=4.9 Vmin=4.2 Vmid=4.4 Napr=105 uakb=13.3 usb=13.33 temp=8.28 hum=67.67 prs=994.21 Log=219407 Err=0
id=601945 time=20.05.2019 06:33:17 Vmax=5.9 Vmin=4 Vmid=5.1 Napr=106 uakb=13.26 usb=13.11 temp=8.25 hum=67.54 prs=994.22 Log=219406 Err=0
id=601944 time=20.05.2019 06:32:07 Vmax=5.9 Vmin=4.3 Vmid=5.4 Napr=107 uakb=13.24 usb=13.19 temp=8.24 hum=67.62 prs=994.23 Log=219405 Err=0
id=601943 time=20.05.2019 06:30:57 Vmax=6.9 Vmin=4.9 Vmid=5.8 Napr=110 uakb=13.22 usb=13.19 temp=8.25 hum=67.69 prs=994.26 Log=219404 Err=0
id=601942 time=20.05.2019 06:29:46 Vmax=5.7 Vmin=3.7 Vmid=5 Napr=107 uakb=13.2 usb=13.21 temp=8.26 hum=67.87 prs=994.23 Log=219403 Err=0
id=601941 time=20.05.2019 06:28:37 Vmax=6.2 Vmin=3.7 Vmid=4.7 Napr=103 uakb=13.18 usb=13.11 temp=8.25 hum=68.16 prs=994.2 Log=219402 Err=0
id=601940 time=20.05.2019 06:27:26 Vmax=6.6 Vmin=4.6 Vmid=5.5 Napr=103 uakb=13.16 usb=13.15 temp=8.21 hum=68.38 prs=994.19 Log=219401 Err=0
id=601939 time=20.05.2019 06:26:16 Vmax=5.8 Vmin=3.5 Vmid=4.6 Napr=105 uakb=13.14 usb=13.05 temp=8.14 hum=69.1 prs=994.24 Log=219400 Err=0
id=601938 time=20.05.2019 06:25:06 Vmax=4.9 Vmin=3.9 Vmid=4.2 Napr=108 uakb=13.12 usb=13.09 temp=8.04 hum=69.49 prs=994.23 Log=219399 Err=0
id=601937 time=20.05.2019 06:23:56 Vmax=5 Vmin=3.4 Vmid=4.3 Napr=106 uakb=13.08 usb=12.97 temp=7.93 hum=69.76 prs=994.21 Log=219398 Err=0
id=601936 time=20.05.2019 06:21:36 Vmax=4.6 Vmin=3.2 Vmid=4 Napr=104 uakb=13.04 usb=12.89 temp=7.8 hum=69.99 prs=994.26 Log=219396 Err=0
id=601935 time=20.05.2019 06:20:27 Vmax=5.5 Vmin=4 Vmid=4.7 Napr=102 uakb=13.02 usb=12.95 temp=7.74 hum=69.94 prs=994.25 Log=219395 Err=0
id=601934 time=20.05.2019 06:19:17 Vmax=5 Vmin=3.6 Vmid=4.3 Napr=96 uakb=13.02 usb=12.97 temp=7.7 hum=70.14 prs=994.23 Log=219394 Err=0
id=601933 time=20.05.2019 06:18:07 Vmax=5.8 Vmin=3.2 Vmid=4.3 Napr=102 uakb=12.98 usb=12.93 temp=7.68 hum=70.09 prs=994.27 Log=219393 Err=0
id=601932 time=20.05.2019 06:16:57 Vmax=4.8 Vmin=3 Vmid=3.7 Napr=99 uakb=12.96 usb=12.81 temp=7.69 hum=70.22 prs=994.28 Log=219392 Err=0
id=601931 time=20.05.2019 06:15:47 Vmax=5.2 Vmin=3.6 Vmid=4.2 Napr=102 uakb=12.94 usb=12.81 temp=7.71 hum=70.5 prs=994.3 Log=219391 Err=0
id=601930 time=20.05.2019 06:14:38 Vmax=4 Vmin=2.8 Vmid=3.4 Napr=100 uakb=12.94 usb=12.87 temp=7.72 hum=70.69 prs=994.32 Log=219390 Err=0
id=601929 time=20.05.2019 06:13:26 Vmax=4.4 Vmin=3 Vmid=3.7 Napr=97 uakb=12.92 usb=12.83 temp=7.72 hum=71.03 prs=994.31 Log=219389 Err=0
id=601928 time=20.05.2019 06:12:16 Vmax=4.7 Vmin=2.8 Vmid=3.4 Napr=96 uakb=12.9 usb=12.85 temp=7.69 hum=71.35 prs=994.33 Log=219388 Err=0
id=601927 time=20.05.2019 06:09:57 Vmax=5.1 Vmin=3.3 Vmid=4.1 Napr=103 uakb=12.86 usb=12.61 temp=7.63 hum=71.83 prs=994.33 Log=219386 Err=0
id=601926 time=20.05.2019 06:08:47 Vmax=5.1 Vmin=2.9 Vmid=4 Napr=106 uakb=12.84 usb=12.55 temp=7.59 hum=71.81 prs=994.33 Log=219385 Err=0
id=601925 time=20.05.2019 06:07:37 Vmax=4.9 Vmin=3.6 Vmid=4.2 Napr=103 uakb=12.82 usb=12.73 temp=7.54 hum=72.46 prs=994.34 Log=219384 Err=0
id=601924 time=20.05.2019 06:06:27 Vmax=4.8 Vmin=3.2 Vmid=3.6 Napr=99 uakb=12.82 usb=12.69 temp=7.45 hum=72.9 prs=994.34 Log=219383 Err=0
id=601923 time=20.05.2019 06:05:17 Vmax=4.6 Vmin=2.8 Vmid=3.5 Napr=98 uakb=12.8 usb=12.71 temp=7.3 hum=73.35 prs=994.34 Log=219382 Err=0
id=601922 time=20.05.2019 06:04:07 Vmax=4.4 Vmin=3.3 Vmid=4 Napr=103 uakb=12.78 usb=12.67 temp=7.17 hum=73.49 prs=994.41 Log=219381 Err=0
id=601921 time=20.05.2019 06:02:56 Vmax=4 Vmin=2 Vmid=2.9 Napr=98 uakb=12.78 usb=12.69 temp=7.05 hum=74.13 prs=994.42 Log=219380 Err=0
id=601920 time=20.05.2019 06:01:48 Vmax=5 Vmin=2.8 Vmid=3.6 Napr=101 uakb=12.76 usb=12.65 temp=6.91 hum=74.4 prs=994.44 Log=219379 Err=0
id=601919 time=20.05.2019 06:00:37 Vmax=4.2 Vmin=2.7 Vmid=3.5 Napr=105 uakb=12.74 usb=12.51 temp=6.79 hum=74.74 prs=994.47 Log=219378 Err=0
id=601918 time=20.05.2019 05:59:27 Vmax=3.7 Vmin=2.9 Vmid=3.3 Napr=106 uakb=12.74 usb=12.55 temp=6.69 hum=75.14 prs=994.47 Log=219377 Err=0
id=601917 time=20.05.2019 05:58:18 Vmax=4.1 Vmin=2.8 Vmid=3.4 Napr=109 uakb=12.72 usb=12.37 temp=6.58 hum=75.34 prs=994.47 Log=219376 Err=0
id=601916 time=20.05.2019 05:57:07 Vmax=3.5 Vmin=2.8 Vmid=3.2 Napr=110 uakb=12.7 usb=12.41 temp=6.48 hum=75.5 prs=994.48 Log=219375 Err=0
id=601915 time=20.05.2019 05:55:56 Vmax=4.2 Vmin=2.6 Vmid=3.4 Napr=110 uakb=12.68 usb=12.47 temp=6.37 hum=75.36 prs=994.45 Log=219374 Err=0
id=601914 time=20.05.2019 05:54:46 Vmax=3.6 Vmin=3 Vmid=3.4 Napr=111 uakb=12.68 usb=12.35 temp=6.28 hum=75.27 prs=994.47 Log=219373 Err=0
id=601913 time=20.05.2019 05:53:37 Vmax=4.4 Vmin=2.9 Vmid=3.5 Napr=108 uakb=12.66 usb=12.39 temp=6.2 hum=75.21 prs=994.44 Log=219372 Err=0
id=601912 time=20.05.2019 05:52:27 Vmax=5 Vmin=3.3 Vmid=4 Napr=105 uakb=12.66 usb=12.33 temp=6.13 hum=74.99 prs=994.42 Log=219371 Err=0
id=601911 time=20.05.2019 05:51:16 Vmax=4.1 Vmin=2.8 Vmid=3.5 Napr=105 uakb=12.64 usb=12.45 temp=6.09 hum=75.22 prs=994.42 Log=219370 Err=0
id=601910 time=20.05.2019 05:50:06 Vmax=3.3 Vmin=2.5 Vmid=2.8 Napr=106 uakb=12.66 usb=12.39 temp=6.04 hum=75.32 prs=994.46 Log=219369 Err=0
id=601909 time=20.05.2019 05:48:56 Vmax=2.9 Vmin=2.1 Vmid=2.5 Napr=104 uakb=12.64 usb=12.41 temp=6.01 hum=75.45 prs=994.45 Log=219368 Err=0
id=601908 time=20.05.2019 05:47:46 Vmax=3.9 Vmin=2.2 Vmid=3.3 Napr=102 uakb=12.62 usb=12.25 temp=5.96 hum=75.57 prs=994.45 Log=219367 Err=0
id=601907 time=20.05.2019 05:46:37 Vmax=4.3 Vmin=3.6 Vmid=4 Napr=104 uakb=12.62 usb=12.31 temp=5.92 hum=75.7 prs=994.42 Log=219366 Err=0
id=601906 time=20.05.2019 05:45:26 Vmax=2.6 Vmin=1.8 Vmid=2.1 Napr=105 uakb=12.62 usb=12.24 temp=5.9 hum=75.95 prs=994.47 Log=219365 Err=0
id=601905 time=20.05.2019 05:44:16 Vmax=4.2 Vmin=2.1 Vmid=3.3 Napr=109 uakb=12.6 usb=12.39 temp=5.86 hum=76.01 prs=994.45 Log=219364 Err=0
id=601904 time=20.05.2019 05:43:07 Vmax=2.9 Vmin=2.3 Vmid=2.7 Napr=109 uakb=12.6 usb=12.37 temp=5.82 hum=76.18 prs=994.46 Log=219363 Err=0
id=601903 time=20.05.2019 05:41:56 Vmax=3.4 Vmin=2.3 Vmid=2.9 Napr=109 uakb=12.58 usb=12.2 temp=5.78 hum=76.31 prs=994.49 Log=219362 Err=0
id=601902 time=20.05.2019 05:40:47 Vmax=3.9 Vmin=2.5 Vmid=3.3 Napr=114 uakb=12.58 usb=12.27 temp=5.72 hum=76.42 prs=994.47 Log=219361 Err=0
id=601901 time=20.05.2019 05:39:37 Vmax=3.7 Vmin=2.6 Vmid=2.9 Napr=112 uakb=12.58 usb=12.08 temp=5.66 hum=76.51 prs=994.46 Log=219360 Err=0
id=601900 time=20.05.2019 05:38:26 Vmax=3.7 Vmin=2.6 Vmid=2.9 Napr=110 uakb=12.56 usb=12.1 temp=5.61 hum=76.58 prs=994.46 Log=219359 Err=0
id=601899 time=20.05.2019 05:37:16 Vmax=3.5 Vmin=2.3 Vmid=2.8 Napr=107 uakb=12.58 usb=12.14 temp=5.56 hum=76.65 prs=994.47 Log=219358 Err=0
id=601898 time=20.05.2019 05:36:06 Vmax=3.5 Vmin=2.1 Vmid=2.7 Napr=105 uakb=12.56 usb=12.29 temp=5.51 hum=76.76 prs=994.46 Log=219357 Err=0
id=601897 time=20.05.2019 05:34:57 Vmax=3.3 Vmin=1.6 Vmid=2.3 Napr=110 uakb=12.56 usb=11.88 temp=5.47 hum=76.8 prs=994.48 Log=219356 Err=0
id=601896 time=20.05.2019 05:33:46 Vmax=2.9 Vmin=1.2 Vmid=2 Napr=109 uakb=12.54 usb=12.04 temp=5.44 hum=76.88 prs=994.47 Log=219355 Err=0
id=601895 time=20.05.2019 05:32:37 Vmax=1.8 Vmin=1.2 Vmid=1.4 Napr=110 uakb=12.54 usb=12.22 temp=5.41 hum=76.92 prs=994.49 Log=219354 Err=0
id=601894 time=20.05.2019 05:31:27 Vmax=1.9 Vmin=1.3 Vmid=1.5 Napr=110 uakb=12.54 usb=12.24 temp=5.39 hum=77.02 prs=994.49 Log=219353 Err=0
id=601893 time=20.05.2019 05:30:16 Vmax=2.3 Vmin=1.1 Vmid=1.5 Napr=110 uakb=12.54 usb=11.88 temp=5.38 hum=77.05 prs=994.48 Log=219352 Err=0
id=601892 time=20.05.2019 05:29:06 Vmax=2.6 Vmin=1.2 Vmid=1.8 Napr=110 uakb=12.54 usb=12.24 temp=5.37 hum=77.08 prs=994.56 Log=219351 Err=0
id=601891 time=20.05.2019 05:27:56 Vmax=1.4 Vmin=1.1 Vmid=1.2 Napr=110 uakb=12.54 usb=11.74 temp=5.37 hum=77.13 prs=994.54 Log=219350 Err=0
id=601890 time=20.05.2019 05:26:46 Vmax=1.5 Vmin=0.8 Vmid=1.1 Napr=110 uakb=12.52 usb=11.72 temp=5.37 hum=77.13 prs=994.57 Log=219349 Err=0
id=601889 time=20.05.2019 05:25:37 Vmax=2.3 Vmin=0.9 Vmid=1.4 Napr=110 uakb=12.52 usb=11.68 temp=5.37 hum=77.18 prs=994.58 Log=219348 Err=0
id=601888 time=20.05.2019 05:24:27 Vmax=2.1 Vmin=1.4 Vmid=1.6 Napr=110 uakb=12.52 usb=11.9 temp=5.37 hum=77.22 prs=994.6 Log=219347 Err=0
id=601887 time=20.05.2019 05:23:16 Vmax=2 Vmin=1.2 Vmid=1.6 Napr=110 uakb=12.52 usb=12.04 temp=5.37 hum=77.28 prs=994.57 Log=219346 Err=0
id=601886 time=20.05.2019 05:22:06 Vmax=1.9 Vmin=1.4 Vmid=1.5 Napr=110 uakb=12.5 usb=12.1 temp=5.36 hum=77.36 prs=994.61 Log=219345 Err=0
id=601885 time=20.05.2019 05:20:56 Vmax=1.4 Vmin=0.9 Vmid=1.2 Napr=110 uakb=12.52 usb=12.02 temp=5.36 hum=77.38 prs=994.65 Log=219344 Err=0
id=601884 time=20.05.2019 05:19:47 Vmax=1.2 Vmin=0.9 Vmid=1.1 Napr=109 uakb=12.52 usb=12.1 temp=5.35 hum=77.44 prs=994.66 Log=219343 Err=0
id=601883 time=20.05.2019 05:18:37 Vmax=1.8 Vmin=1.2 Vmid=1.4 Napr=105 uakb=12.5 usb=11.74 temp=5.35 hum=77.51 prs=994.7 Log=219342 Err=0
id=601882 time=20.05.2019 05:17:26 Vmax=1.9 Vmin=1.3 Vmid=1.5 Napr=103 uakb=12.5 usb=12.02 temp=5.36 hum=77.63 prs=994.68 Log=219341 Err=0
id=601881 time=20.05.2019 05:16:17 Vmax=2.2 Vmin=0.6 Vmid=1.5 Napr=99 uakb=12.5 usb=12.04 temp=5.37 hum=77.72 prs=994.68 Log=219340 Err=0
id=601880 time=20.05.2019 05:15:06 Vmax=2.1 Vmin=0 Vmid=0.9 Napr=103 uakb=12.5 usb=12.02 temp=5.38 hum=77.8 prs=994.69 Log=219339 Err=0
id=601879 time=20.05.2019 05:13:56 Vmax=1.4 Vmin=0 Vmid=0.8 Napr=112 uakb=12.5 usb=11.72 temp=5.39 hum=77.9 prs=994.7 Log=219338 Err=0
id=601878 time=20.05.2019 05:12:46 Vmax=1.3 Vmin=0.5 Vmid=0.9 Napr=112 uakb=12.5 usb=11.5 temp=5.38 hum=78.01 prs=994.69 Log=219337 Err=0
id=601877 time=20.05.2019 05:11:37 Vmax=0.9 Vmin=0 Vmid=0.4 Napr=110 uakb=12.5 usb=11.62 temp=5.36 hum=78.11 prs=994.69 Log=219336 Err=0
id=601876 time=20.05.2019 05:10:26 Vmax=1.8 Vmin=0.9 Vmid=1.2 Napr=105 uakb=12.5 usb=11.92 temp=5.35 hum=78.17 prs=994.75 Log=219335 Err=0
id=601875 time=20.05.2019 05:09:16 Vmax=2.3 Vmin=0.4 Vmid=1.2 Napr=91 uakb=12.5 usb=11.78 temp=5.31 hum=78.3 prs=994.78 Log=219334 Err=0
id=601874 time=20.05.2019 05:08:06 Vmax=1.4 Vmin=0.8 Vmid=1.1 Napr=89 uakb=12.5 usb=10.69 temp=5.27 hum=78.4 prs=994.78 Log=219333 Err=0
id=601873 time=20.05.2019 05:06:56 Vmax=2.6 Vmin=0.7 Vmid=1.6 Napr=91 uakb=12.5 usb=10.41 temp=5.21 hum=78.56 prs=994.8 Log=219332 Err=0
id=601872 time=20.05.2019 05:05:46 Vmax=3 Vmin=0.6 Vmid=1.5 Napr=98 uakb=12.5 usb=10.11 temp=5.16 hum=78.56 prs=994.82 Log=219331 Err=0
id=601871 time=20.05.2019 05:04:37 Vmax=1.8 Vmin=1.2 Vmid=1.3 Napr=91 uakb=12.48 usb=9.4 temp=5.11 hum=78.72 prs=994.77 Log=219330 Err=0
id=601870 time=20.05.2019 05:03:26 Vmax=3 Vmin=0.6 Vmid=1.5 Napr=91 uakb=12.5 usb=9.26 temp=5.03 hum=78.68 prs=994.86 Log=219329 Err=0
id=601869 time=20.05.2019 05:02:16 Vmax=2.7 Vmin=0.1 Vmid=0.9 Napr=94 uakb=12.5 usb=7.91 temp=5 hum=78.73 prs=994.86 Log=219328 Err=0
id=601868 time=20.05.2019 05:01:07 Vmax=1.9 Vmin=0.7 Vmid=1.1 Napr=94 uakb=12.5 usb=7.87 temp=4.97 hum=78.71 prs=994.89 Log=219327 Err=0
id=601867 time=20.05.2019 04:59:56 Vmax=1.5 Vmin=0.5 Vmid=1.2 Napr=94 uakb=12.5 usb=7.08 temp=4.95 hum=78.79 prs=994.87 Log=219326 Err=0
id=601866 time=20.05.2019 04:58:46 Vmax=1.4 Vmin=0.1 Vmid=0.8 Napr=96 uakb=12.5 usb=6.09 temp=4.93 hum=78.85 prs=994.84 Log=219325 Err=0
id=601865 time=20.05.2019 04:57:37 Vmax=2.3 Vmin=0.6 Vmid=1.9 Napr=101 uakb=12.5 usb=5.89 temp=4.9 hum=78.89 prs=994.83 Log=219324 Err=0
id=601864 time=20.05.2019 04:56:27 Vmax=1.1 Vmin=0.5 Vmid=0.7 Napr=112 uakb=12.5 usb=4.68 temp=4.89 hum=78.83 prs=994.85 Log=219323 Err=0
id=601863 time=20.05.2019 04:55:16 Vmax=1.4 Vmin=0.7 Vmid=0.9 Napr=101 uakb=12.48 usb=3.95 temp=4.88 hum=78.81 prs=994.87 Log=219322 Err=0
id=601862 time=20.05.2019 04:54:07 Vmax=0.9 Vmin=0.6 Vmid=0.6 Napr=98 uakb=12.5 usb=3.75 temp=4.89 hum=78.8 prs=994.87 Log=219321 Err=0
id=601861 time=20.05.2019 04:52:56 Vmax=1.1 Vmin=0 Vmid=0.1 Napr=98 uakb=12.5 usb=1.76 temp=4.91 hum=78.8 prs=994.85 Log=219320 Err=0
id=601860 time=20.05.2019 04:51:46 Vmax=0.4 Vmin=0 Vmid=0 Napr=98 uakb=12.5 usb=1.45 temp=4.94 hum=78.86 prs=994.84 Log=219319 Err=0
id=601859 time=20.05.2019 04:50:37 Vmax=0.6 Vmin=0 Vmid=0.1 Napr=98 uakb=12.5 usb=2.12 temp=4.96 hum=78.87 prs=994.82 Log=219318 Err=0
id=601858 time=20.05.2019 04:49:27 Vmax=1.6 Vmin=0.6 Vmid=0.9 Napr=98 uakb=12.5 usb=1.65 temp=4.97 hum=78.86 prs=994.84 Log=219317 Err=0
id=601857 time=20.05.2019 04:48:16 Vmax=1.9 Vmin=0 Vmid=0.6 Napr=98 uakb=12.5 usb=2.22 temp=4.97 hum=78.85 prs=994.83 Log=219316 Err=0
id=601856 time=20.05.2019 04:47:06 Vmax=1.3 Vmin=0 Vmid=0.2 Napr=98 uakb=12.5 usb=2.04 temp=4.98 hum=78.8 prs=994.82 Log=219315 Err=0
id=601855 time=20.05.2019 04:45:57 Vmax=0.9 Vmin=0.2 Vmid=0.6 Napr=98 uakb=12.5 usb=2.26 temp=5.02 hum=78.79 prs=994.83 Log=219314 Err=0
id=601854 time=20.05.2019 04:44:47 Vmax=0.5 Vmin=0.1 Vmid=0.2 Napr=98 uakb=12.5 usb=2.16 temp=5.05 hum=78.81 prs=994.81 Log=219313 Err=0
id=601853 time=20.05.2019 04:43:37 Vmax=0.9 Vmin=0.4 Vmid=0.6 Napr=98 uakb=12.5 usb=1.01 temp=5.09 hum=78.82 prs=994.78 Log=219312 Err=0
id=601852 time=20.05.2019 04:42:26 Vmax=0.6 Vmin=0.2 Vmid=0.4 Napr=98 uakb=12.5 usb=0 temp=5.13 hum=78.87 prs=994.76 Log=219311 Err=0
id=601851 time=20.05.2019 04:41:17 Vmax=0.9 Vmin=0.4 Vmid=0.7 Napr=98 uakb=12.5 usb=0 temp=5.16 hum=78.95 prs=994.79 Log=219310 Err=0
id=601850 time=20.05.2019 04:40:07 Vmax=1.9 Vmin=1.2 Vmid=1.5 Napr=98 uakb=12.52 usb=0 temp=5.18 hum=79 prs=994.78 Log=219309 Err=0
id=601849 time=20.05.2019 04:38:57 Vmax=1.5 Vmin=0.7 Vmid=1.2 Napr=98 uakb=12.52 usb=0 temp=5.19 hum=79 prs=994.8 Log=219308 Err=0
id=601848 time=20.05.2019 04:37:47 Vmax=1.8 Vmin=1.1 Vmid=1.3 Napr=98 uakb=12.5 usb=0 temp=5.19 hum=79.05 prs=994.8 Log=219307 Err=0
id=601847 time=20.05.2019 04:36:37 Vmax=1.9 Vmin=1.2 Vmid=1.4 Napr=98 uakb=12.52 usb=0 temp=5.19 hum=79.11 prs=994.77 Log=219306 Err=0
id=601846 time=20.05.2019 04:35:27 Vmax=1.8 Vmin=0.7 Vmid=1.3 Napr=98 uakb=12.5 usb=0 temp=5.17 hum=79.13 prs=994.82 Log=219305 Err=0
id=601845 time=20.05.2019 04:34:17 Vmax=1.8 Vmin=0.7 Vmid=1.2 Napr=98 uakb=12.5 usb=0 temp=5.16 hum=79.02 prs=994.83 Log=219304 Err=0
id=601844 time=20.05.2019 04:33:07 Vmax=2.1 Vmin=1.2 Vmid=1.8 Napr=98 uakb=12.52 usb=0 temp=5.16 hum=79.07 prs=994.84 Log=219303 Err=0
id=601843 time=20.05.2019 04:31:56 Vmax=2 Vmin=1.6 Vmid=1.8 Napr=102 uakb=12.5 usb=0 temp=5.16 hum=79.06 prs=994.86 Log=219302 Err=0
id=601842 time=20.05.2019 04:30:47 Vmax=2.8 Vmin=1.1 Vmid=1.8 Napr=108 uakb=12.52 usb=0 temp=5.18 hum=79.05 prs=994.87 Log=219301 Err=0
id=601841 time=20.05.2019 04:29:38 Vmax=1.5 Vmin=0.9 Vmid=1.2 Napr=109 uakb=12.5 usb=0 temp=5.19 hum=79.04 prs=994.87 Log=219300 Err=0
id=601840 time=20.05.2019 04:28:27 Vmax=1.4 Vmin=0.7 Vmid=1.1 Napr=109 uakb=12.52 usb=0 temp=5.22 hum=79.06 prs=994.88 Log=219299 Err=0
id=601839 time=20.05.2019 04:27:18 Vmax=1.2 Vmin=0.8 Vmid=0.9 Napr=109 uakb=12.52 usb=0 temp=5.24 hum=79.12 prs=994.86 Log=219298 Err=0
id=601838 time=20.05.2019 04:26:07 Vmax=1.8 Vmin=1.1 Vmid=1.4 Napr=109 uakb=12.52 usb=0 temp=5.24 hum=79.19 prs=994.87 Log=219297 Err=0
id=601837 time=20.05.2019 04:24:56 Vmax=1.9 Vmin=1.3 Vmid=1.5 Napr=109 uakb=12.5 usb=0 temp=5.24 hum=79.28 prs=994.85 Log=219296 Err=0
id=601836 time=20.05.2019 04:23:46 Vmax=2.7 Vmin=1.6 Vmid=2.1 Napr=109 uakb=12.5 usb=0 temp=5.24 hum=79.3 prs=994.82 Log=219295 Err=0
id=601835 time=20.05.2019 04:22:37 Vmax=1.4 Vmin=1.2 Vmid=1.3 Napr=108 uakb=12.52 usb=0 temp=5.23 hum=79.34 prs=994.83 Log=219294 Err=0
id=601834 time=20.05.2019 04:21:27 Vmax=2.2 Vmin=1.6 Vmid=2 Napr=108 uakb=12.52 usb=0 temp=5.23 hum=79.44 prs=994.83 Log=219293 Err=0
id=601833 time=20.05.2019 04:20:17 Vmax=1.9 Vmin=1.5 Vmid=1.6 Napr=108 uakb=12.52 usb=0 temp=5.2 hum=79.45 prs=994.81 Log=219292 Err=0
id=601832 time=20.05.2019 04:17:57 Vmax=2 Vmin=1.5 Vmid=1.6 Napr=108 uakb=12.52 usb=0 temp=5.16 hum=79.51 prs=994.86 Log=219290 Err=0
id=601831 time=20.05.2019 04:16:47 Vmax=1.5 Vmin=1.3 Vmid=1.4 Napr=108 uakb=12.52 usb=0 temp=5.14 hum=79.54 prs=994.86 Log=219289 Err=0
id=601830 time=20.05.2019 04:15:37 Vmax=1.4 Vmin=1.3 Vmid=1.3 Napr=108 uakb=12.52 usb=0 temp=5.13 hum=79.57 prs=994.82 Log=219288 Err=0
id=601829 time=20.05.2019 04:14:27 Vmax=1.4 Vmin=1.1 Vmid=1.2 Napr=108 uakb=12.52 usb=0 temp=5.1 hum=79.52 prs=994.86 Log=219287 Err=0
id=601828 time=20.05.2019 04:13:17 Vmax=1.3 Vmin=1.1 Vmid=1.2 Napr=108 uakb=12.52 usb=0 temp=5.08 hum=79.53 prs=994.87 Log=219286 Err=0
id=601827 time=20.05.2019 04:12:07 Vmax=1.6 Vmin=1.2 Vmid=1.4 Napr=108 uakb=12.54 usb=0 temp=5.07 hum=79.55 prs=994.87 Log=219285 Err=0
id=601826 time=20.05.2019 04:10:57 Vmax=1.6 Vmin=1.2 Vmid=1.3 Napr=108 uakb=12.52 usb=0 temp=5.06 hum=79.57 prs=994.84 Log=219284 Err=0
id=601825 time=20.05.2019 04:09:47 Vmax=1.5 Vmin=1.3 Vmid=1.4 Napr=108 uakb=12.52 usb=0 temp=5.03 hum=79.62 prs=994.85 Log=219283 Err=0
id=601824 time=20.05.2019 04:08:38 Vmax=1.9 Vmin=1.6 Vmid=1.8 Napr=108 uakb=12.52 usb=0 temp=5.01 hum=79.67 prs=994.84 Log=219282 Err=0
id=601823 time=20.05.2019 04:07:27 Vmax=2.5 Vmin=1.6 Vmid=1.8 Napr=108 uakb=12.52 usb=0 temp=4.98 hum=79.7 prs=994.85 Log=219281 Err=0
id=601822 time=20.05.2019 04:06:17 Vmax=2 Vmin=1.8 Vmid=1.9 Napr=107 uakb=12.52 usb=0 temp=4.97 hum=79.76 prs=994.84 Log=219280 Err=0
id=601821 time=20.05.2019 04:05:07 Vmax=2.1 Vmin=2 Vmid=2 Napr=107 uakb=12.54 usb=0 temp=4.94 hum=79.83 prs=994.89 Log=219279 Err=0
id=601820 time=20.05.2019 04:03:57 Vmax=2.2 Vmin=2.1 Vmid=2.1 Napr=107 uakb=12.52 usb=0 temp=4.91 hum=79.87 prs=994.9 Log=219278 Err=0
id=601819 time=20.05.2019 04:02:47 Vmax=2.2 Vmin=2.1 Vmid=2.1 Napr=106 uakb=12.52 usb=0 temp=4.88 hum=79.96 prs=994.92 Log=219277 Err=0
id=601818 time=20.05.2019 04:01:38 Vmax=2.3 Vmin=1.9 Vmid=2 Napr=104 uakb=12.52 usb=0 temp=4.86 hum=80.02 prs=994.94 Log=219276 Err=0
id=601817 time=20.05.2019 04:00:28 Vmax=2 Vmin=1.5 Vmid=1.8 Napr=102 uakb=12.52 usb=0 temp=4.85 hum=80.09 prs=994.96 Log=219275 Err=0
id=601816 time=20.05.2019 03:59:17 Vmax=2.1 Vmin=1.5 Vmid=1.8 Napr=98 uakb=12.52 usb=0 temp=4.84 hum=80.13 prs=994.96 Log=219274 Err=0
id=601815 time=20.05.2019 03:58:07 Vmax=1.6 Vmin=1.4 Vmid=1.5 Napr=90 uakb=12.52 usb=0 temp=4.81 hum=80.26 prs=994.95 Log=219273 Err=0
id=601814 time=20.05.2019 03:56:57 Vmax=2.1 Vmin=1.1 Vmid=1.4 Napr=90 uakb=12.52 usb=0 temp=4.77 hum=80.19 prs=994.94 Log=219272 Err=0
id=601813 time=20.05.2019 03:55:47 Vmax=2.2 Vmin=1.2 Vmid=1.5 Napr=90 uakb=12.54 usb=0 temp=4.73 hum=80.27 prs=994.95 Log=219271 Err=0
id=601812 time=20.05.2019 03:54:37 Vmax=2.2 Vmin=1.3 Vmid=1.5 Napr=88 uakb=12.52 usb=0 temp=4.69 hum=80.27 prs=995 Log=219270 Err=0
id=601811 time=20.05.2019 03:53:28 Vmax=2.9 Vmin=0.7 Vmid=1.8 Napr=76 uakb=12.54 usb=0 temp=4.63 hum=80.19 prs=995.01 Log=219269 Err=0
id=601810 time=20.05.2019 03:52:17 Vmax=1.6 Vmin=1.1 Vmid=1.3 Napr=52 uakb=12.52 usb=0 temp=4.6 hum=80.03 prs=995 Log=219268 Err=0
id=601809 time=20.05.2019 03:51:07 Vmax=2.2 Vmin=0.7 Vmid=1.4 Napr=360 uakb=12.52 usb=0 temp=4.59 hum=79.95 prs=995.01 Log=219267 Err=0
id=601808 time=20.05.2019 03:49:57 Vmax=1.2 Vmin=0.7 Vmid=0.9 Napr=295 uakb=12.54 usb=0 temp=4.6 hum=79.9 prs=994.99 Log=219266 Err=0
id=601807 time=20.05.2019 03:48:47 Vmax=1.9 Vmin=1.3 Vmid=1.4 Napr=295 uakb=12.54 usb=0 temp=4.61 hum=79.84 prs=994.99 Log=219265 Err=0
id=601806 time=20.05.2019 03:47:37 Vmax=1.3 Vmin=0 Vmid=0.6 Napr=295 uakb=12.54 usb=0 temp=4.63 hum=79.79 prs=994.98 Log=219264 Err=0
id=601805 time=20.05.2019 03:46:27 Vmax=0 Vmin=0 Vmid=0 Napr=295 uakb=12.54 usb=0 temp=4.67 hum=79.72 prs=994.98 Log=219263 Err=0
id=601804 time=20.05.2019 03:45:18 Vmax=0 Vmin=0 Vmid=0 Napr=295 uakb=12.54 usb=0 temp=4.72 hum=79.64 prs=995 Log=219262 Err=0
id=601803 time=20.05.2019 03:44:08 Vmax=0 Vmin=0 Vmid=0 Napr=295 uakb=12.54 usb=0 temp=4.77 hum=79.54 prs=994.98 Log=219261 Err=0
id=601802 time=20.05.2019 03:42:57 Vmax=0 Vmin=0 Vmid=0 Napr=295 uakb=12.54 usb=0 temp=4.84 hum=79.54 prs=995.06 Log=219260 Err=0
id=601801 time=20.05.2019 03:41:47 Vmax=0 Vmin=0 Vmid=0 Napr=295 uakb=12.54 usb=0 temp=4.91 hum=79.56 prs=995.02 Log=219259 Err=0
id=601800 time=20.05.2019 03:40:38 Vmax=0 Vmin=0 Vmid=0 Napr=295 uakb=12.54 usb=0 temp=4.98 hum=79.57 prs=995.05 Log=219258 Err=0
id=601799 time=20.05.2019 03:39:27 Vmax=0 Vmin=0 Vmid=0 Napr=295 uakb=12.52 usb=0 temp=5.03 hum=79.58 prs=995.06 Log=219257 Err=0
id=601798 time=20.05.2019 03:38:17 Vmax=0 Vmin=0 Vmid=0 Napr=295 uakb=12.54 usb=0 temp=5.07 hum=79.55 prs=995.03 Log=219256 Err=0
id=601797 time=20.05.2019 03:37:07 Vmax=0 Vmin=0 Vmid=0 Napr=295 uakb=12.54 usb=0 temp=5.08 hum=79.48 prs=995.03 Log=219255 Err=0
id=601796 time=20.05.2019 03:35:57 Vmax=0 Vmin=0 Vmid=0 Napr=295 uakb=12.54 usb=0 temp=5.1 hum=79.42 prs=995 Log=219254 Err=0
id=601795 time=20.05.2019 03:33:38 Vmax=0 Vmin=0 Vmid=0 Napr=295 uakb=12.54 usb=0 temp=5.18 hum=79.32 prs=995.01 Log=219252 Err=0
id=601794 time=20.05.2019 03:32:28 Vmax=0 Vmin=0 Vmid=0 Napr=295 uakb=12.54 usb=0 temp=5.24 hum=79.31 prs=995.01 Log=219251 Err=0
id=601793 time=20.05.2019 03:31:17 Vmax=0 Vmin=0 Vmid=0 Napr=295 uakb=12.54 usb=0 temp=5.3 hum=79.33 prs=995.02 Log=219250 Err=0
id=601792 time=20.05.2019 03:30:08 Vmax=0.5 Vmin=0 Vmid=0.2 Napr=295 uakb=12.54 usb=0 temp=5.37 hum=79.35 prs=995.03 Log=219249 Err=0
id=601791 time=20.05.2019 03:28:57 Vmax=0.5 Vmin=0.2 Vmid=0.2 Napr=295 uakb=12.54 usb=0 temp=5.45 hum=79.38 prs=995.02 Log=219248 Err=0
id=601790 time=20.05.2019 03:27:47 Vmax=0.6 Vmin=0 Vmid=0.1 Napr=295 uakb=12.54 usb=0 temp=5.5 hum=79.48 prs=995.05 Log=219247 Err=0
id=601789 time=20.05.2019 03:26:38 Vmax=0 Vmin=0 Vmid=0 Napr=295 uakb=12.54 usb=0 temp=5.54 hum=79.62 prs=995.05 Log=219246 Err=0
id=601788 time=20.05.2019 03:25:28 Vmax=0 Vmin=0 Vmid=0 Napr=295 uakb=12.54 usb=0 temp=5.52 hum=79.72 prs=995.04 Log=219245 Err=0
id=601787 time=20.05.2019 03:24:18 Vmax=0 Vmin=0 Vmid=0 Napr=295 uakb=12.54 usb=0 temp=5.49 hum=79.77 prs=995.06 Log=219244 Err=0
id=601786 time=20.05.2019 03:23:07 Vmax=0 Vmin=0 Vmid=0 Napr=295 uakb=12.54 usb=0 temp=5.45 hum=79.83 prs=995.04 Log=219243 Err=0
id=601785 time=20.05.2019 03:20:48 Vmax=0 Vmin=0 Vmid=0 Napr=295 uakb=12.54 usb=0 temp=5.32 hum=79.75 prs=995.11 Log=219241 Err=0
id=601784 time=20.05.2019 03:19:38 Vmax=0 Vmin=0 Vmid=0 Napr=295 uakb=12.52 usb=0 temp=5.28 hum=79.57 prs=995.07 Log=219240 Err=0
id=601783 time=20.05.2019 03:18:29 Vmax=0 Vmin=0 Vmid=0 Napr=295 uakb=12.54 usb=0 temp=5.28 hum=79.45 prs=995.07 Log=219239 Err=0
id=601782 time=20.05.2019 03:17:18 Vmax=0 Vmin=0 Vmid=0 Napr=295 uakb=12.54 usb=0 temp=5.31 hum=79.41 prs=995.09 Log=219238 Err=0
id=601781 time=20.05.2019 03:16:08 Vmax=0 Vmin=0 Vmid=0 Napr=295 uakb=12.54 usb=0 temp=5.34 hum=79.38 prs=995.11 Log=219237 Err=0
id=601780 time=20.05.2019 03:14:58 Vmax=0.6 Vmin=0.2 Vmid=0.4 Napr=295 uakb=12.54 usb=0 temp=5.34 hum=79.28 prs=995.12 Log=219236 Err=0
id=601779 time=20.05.2019 03:13:48 Vmax=0.7 Vmin=0.5 Vmid=0.6 Napr=295 uakb=12.54 usb=0 temp=5.33 hum=79.22 prs=995.11 Log=219235 Err=0
id=601778 time=20.05.2019 03:12:38 Vmax=0.7 Vmin=0.6 Vmid=0.6 Napr=295 uakb=12.54 usb=0 temp=5.32 hum=79.17 prs=995.12 Log=219234 Err=0
id=601777 time=20.05.2019 03:11:28 Vmax=0.8 Vmin=0.6 Vmid=0.7 Napr=295 uakb=12.54 usb=0 temp=5.28 hum=79.03 prs=995.08 Log=219233 Err=0
id=601776 time=20.05.2019 03:10:18 Vmax=0 Vmin=0 Vmid=0 Napr=295 uakb=12.54 usb=0 temp=5.21 hum=78.86 prs=995.11 Log=219232 Err=0
id=601775 time=20.05.2019 03:09:09 Vmax=0.1 Vmin=0 Vmid=0 Napr=295 uakb=12.54 usb=0 temp=5.1 hum=78.43 prs=995.15 Log=219231 Err=0
id=601774 time=20.05.2019 03:07:58 Vmax=0 Vmin=0 Vmid=0 Napr=295 uakb=12.54 usb=0 temp=4.97 hum=77.93 prs=995.18 Log=219230 Err=0
id=601773 time=20.05.2019 03:06:48 Vmax=0.5 Vmin=0 Vmid=0.1 Napr=295 uakb=12.54 usb=0 temp=4.92 hum=77.7 prs=995.15 Log=219229 Err=0
id=601772 time=20.05.2019 03:05:38 Vmax=0.4 Vmin=0 Vmid=0 Napr=295 uakb=12.54 usb=0 temp=4.92 hum=77.61 prs=995.14 Log=219228 Err=0
id=601771 time=20.05.2019 03:04:28 Vmax=1.2 Vmin=0.7 Vmid=0.9 Napr=295 uakb=12.54 usb=0 temp=4.93 hum=77.57 prs=995.15 Log=219227 Err=0
id=601770 time=20.05.2019 03:03:18 Vmax=0.8 Vmin=0.5 Vmid=0.6 Napr=295 uakb=12.56 usb=0 temp=4.96 hum=77.5 prs=995.18 Log=219226 Err=0
id=601769 time=20.05.2019 03:02:09 Vmax=0.7 Vmin=0.2 Vmid=0.5 Napr=295 uakb=12.56 usb=0 temp=4.98 hum=77.5 prs=995.18 Log=219225 Err=0
id=601768 time=20.05.2019 03:00:58 Vmax=1.1 Vmin=0.6 Vmid=0.8 Napr=295 uakb=12.54 usb=0 temp=5.01 hum=77.5 prs=995.21 Log=219224 Err=0
id=601767 time=20.05.2019 02:59:49 Vmax=1.2 Vmin=1.1 Vmid=1.1 Napr=295 uakb=12.54 usb=0 temp=5.02 hum=77.46 prs=995.21 Log=219223 Err=0
id=601766 time=20.05.2019 02:57:28 Vmax=1.4 Vmin=0.8 Vmid=1.1 Napr=295 uakb=12.56 usb=0 temp=5.05 hum=77.35 prs=995.23 Log=219221 Err=0
id=601765 time=20.05.2019 02:56:19 Vmax=1.1 Vmin=0.5 Vmid=0.7 Napr=295 uakb=12.54 usb=0 temp=5.07 hum=77.32 prs=995.23 Log=219220 Err=0
id=601764 time=20.05.2019 02:55:08 Vmax=1.3 Vmin=0.6 Vmid=0.8 Napr=295 uakb=12.54 usb=0 temp=5.08 hum=77.29 prs=995.23 Log=219219 Err=0
id=601763 time=20.05.2019 02:53:59 Vmax=1.2 Vmin=0.7 Vmid=0.9 Napr=295 uakb=12.54 usb=0 temp=5.09 hum=77.24 prs=995.23 Log=219218 Err=0
id=601762 time=20.05.2019 02:52:48 Vmax=1.1 Vmin=0.6 Vmid=0.8 Napr=295 uakb=12.54 usb=0 temp=5.09 hum=77.19 prs=995.22 Log=219217 Err=0
id=601761 time=20.05.2019 02:51:38 Vmax=1.1 Vmin=0.5 Vmid=0.8 Napr=295 uakb=12.56 usb=0 temp=5.11 hum=77.16 prs=995.23 Log=219216 Err=0
id=601760 time=20.05.2019 02:50:28 Vmax=1.6 Vmin=0.9 Vmid=1.3 Napr=295 uakb=12.56 usb=0 temp=5.12 hum=77.12 prs=995.25 Log=219215 Err=0
id=601759 time=20.05.2019 02:49:18 Vmax=1.3 Vmin=0.7 Vmid=0.8 Napr=295 uakb=12.56 usb=0 temp=5.14 hum=77.05 prs=995.26 Log=219214 Err=0
id=601758 time=20.05.2019 02:48:08 Vmax=1.5 Vmin=0.8 Vmid=1.1 Napr=295 uakb=12.56 usb=0 temp=5.17 hum=77 prs=995.26 Log=219213 Err=0
id=601757 time=20.05.2019 02:46:58 Vmax=1.6 Vmin=0.7 Vmid=1.2 Napr=295 uakb=12.56 usb=0 temp=5.2 hum=76.95 prs=995.28 Log=219212 Err=0
id=601756 time=20.05.2019 02:45:49 Vmax=0.8 Vmin=0.5 Vmid=0.6 Napr=295 uakb=12.54 usb=0 temp=5.22 hum=76.94 prs=995.26 Log=219211 Err=0
id=601755 time=20.05.2019 02:44:38 Vmax=0.9 Vmin=0.7 Vmid=0.8 Napr=295 uakb=12.56 usb=0 temp=5.2 hum=76.9 prs=995.26 Log=219210 Err=0
id=601754 time=20.05.2019 02:43:28 Vmax=0.5 Vmin=0 Vmid=0.2 Napr=295 uakb=12.54 usb=0 temp=5.17 hum=76.78 prs=995.3 Log=219209 Err=0
id=601753 time=20.05.2019 02:42:18 Vmax=0.2 Vmin=0 Vmid=0 Napr=295 uakb=12.56 usb=0 temp=5.12 hum=76.5 prs=995.28 Log=219208 Err=0
id=601752 time=20.05.2019 02:41:08 Vmax=0 Vmin=0 Vmid=0 Napr=295 uakb=12.56 usb=0 temp=5.11 hum=76.35 prs=995.32 Log=219207 Err=0
id=601751 time=20.05.2019 02:39:58 Vmax=0 Vmin=0 Vmid=0 Napr=295 uakb=12.56 usb=0 temp=5.07 hum=76.17 prs=995.33 Log=219206 Err=0
id=601750 time=20.05.2019 02:38:48 Vmax=0 Vmin=0 Vmid=0 Napr=295 uakb=12.54 usb=0 temp=5.04 hum=76.03 prs=995.35 Log=219205 Err=0
id=601749 time=20.05.2019 02:37:38 Vmax=0 Vmin=0 Vmid=0 Napr=295 uakb=12.56 usb=0 temp=5 hum=75.65 prs=995.35 Log=219204 Err=0
id=601748 time=20.05.2019 02:36:28 Vmax=0 Vmin=0 Vmid=0 Napr=295 uakb=12.56 usb=0 temp=4.99 hum=75.32 prs=995.36 Log=219203 Err=0
id=601747 time=20.05.2019 02:35:18 Vmax=0 Vmin=0 Vmid=0 Napr=295 uakb=12.54 usb=0 temp=5.02 hum=75.17 prs=995.35 Log=219202 Err=0
id=601746 time=20.05.2019 02:34:08 Vmax=0 Vmin=0 Vmid=0 Napr=295 uakb=12.56 usb=0 temp=5.05 hum=75.09 prs=995.34 Log=219201 Err=0
id=601745 time=20.05.2019 02:32:58 Vmax=0.5 Vmin=0.1 Vmid=0.2 Napr=295 uakb=12.54 usb=0 temp=5.1 hum=74.96 prs=995.34 Log=219200 Err=0
id=601744 time=20.05.2019 02:31:48 Vmax=0.8 Vmin=0 Vmid=0.2 Napr=295 uakb=12.56 usb=0 temp=5.16 hum=74.77 prs=995.37 Log=219199 Err=0
id=601743 time=20.05.2019 02:30:38 Vmax=0.6 Vmin=0 Vmid=0.2 Napr=295 uakb=12.56 usb=0 temp=5.24 hum=74.74 prs=995.35 Log=219198 Err=0
id=601742 time=20.05.2019 02:29:29 Vmax=0.7 Vmin=0.1 Vmid=0.2 Napr=295 uakb=12.54 usb=0 temp=5.33 hum=74.74 prs=995.39 Log=219197 Err=0
id=601741 time=20.05.2019 02:28:19 Vmax=0.7 Vmin=0.2 Vmid=0.5 Napr=295 uakb=12.56 usb=0 temp=5.42 hum=74.77 prs=995.32 Log=219196 Err=0
id=601740 time=20.05.2019 02:27:08 Vmax=0.1 Vmin=0 Vmid=0 Napr=295 uakb=12.56 usb=0 temp=5.52 hum=74.85 prs=995.35 Log=219195 Err=0
id=601739 time=20.05.2019 02:25:58 Vmax=0.6 Vmin=0.2 Vmid=0.4 Napr=295 uakb=12.56 usb=0 temp=5.62 hum=74.92 prs=995.3 Log=219194 Err=0
id=601738 time=20.05.2019 02:24:48 Vmax=0.6 Vmin=0 Vmid=0 Napr=295 uakb=12.56 usb=0 temp=5.73 hum=75.05 prs=995.33 Log=219193 Err=0
id=601737 time=20.05.2019 02:23:39 Vmax=0 Vmin=0 Vmid=0 Napr=295 uakb=12.56 usb=0 temp=5.83 hum=75.16 prs=995.33 Log=219192 Err=0
id=601736 time=20.05.2019 02:22:28 Vmax=0 Vmin=0 Vmid=0 Napr=295 uakb=12.56 usb=0 temp=5.91 hum=75.29 prs=995.32 Log=219191 Err=0
id=601735 time=20.05.2019 02:21:18 Vmax=0.5 Vmin=0 Vmid=0.1 Napr=295 uakb=12.56 usb=0 temp=5.96 hum=75.36 prs=995.32 Log=219190 Err=0
id=601734 time=20.05.2019 02:20:08 Vmax=0.5 Vmin=0.4 Vmid=0.4 Napr=295 uakb=12.56 usb=0 temp=6.01 hum=75.36 prs=995.31 Log=219189 Err=0
id=601733 time=20.05.2019 02:18:57 Vmax=0.8 Vmin=0.5 Vmid=0.6 Napr=295 uakb=12.56 usb=0 temp=6.04 hum=75.42 prs=995.26 Log=219188 Err=0
id=601732 time=20.05.2019 02:17:48 Vmax=0.8 Vmin=0.6 Vmid=0.6 Napr=295 uakb=12.56 usb=0 temp=6.06 hum=75.49 prs=995.28 Log=219187 Err=0
id=601731 time=20.05.2019 02:16:38 Vmax=0.7 Vmin=0.5 Vmid=0.5 Napr=295 uakb=12.56 usb=0 temp=6.07 hum=75.54 prs=995.28 Log=219186 Err=0
id=601730 time=20.05.2019 02:15:28 Vmax=0.7 Vmin=0.5 Vmid=0.6 Napr=295 uakb=12.56 usb=0 temp=6.04 hum=75.48 prs=995.29 Log=219185 Err=0
id=601729 time=20.05.2019 02:14:18 Vmax=0.5 Vmin=0.4 Vmid=0.4 Napr=295 uakb=12.56 usb=0 temp=6.03 hum=75.41 prs=995.32 Log=219184 Err=0
id=601728 time=20.05.2019 02:13:08 Vmax=0.5 Vmin=0.4 Vmid=0.4 Napr=295 uakb=12.56 usb=0 temp=6 hum=75.28 prs=995.33 Log=219183 Err=0
id=601727 time=20.05.2019 02:11:58 Vmax=0.6 Vmin=0.2 Vmid=0.4 Napr=295 uakb=12.56 usb=0 temp=5.98 hum=75.17 prs=995.34 Log=219182 Err=0
id=601726 time=20.05.2019 02:10:47 Vmax=0.7 Vmin=0 Vmid=0.4 Napr=295 uakb=12.56 usb=0 temp=5.96 hum=75.13 prs=995.33 Log=219181 Err=0
id=601725 time=20.05.2019 02:09:38 Vmax=0 Vmin=0 Vmid=0 Napr=295 uakb=12.54 usb=0 temp=5.91 hum=74.82 prs=995.32 Log=219180 Err=0
id=601724 time=20.05.2019 02:08:28 Vmax=0 Vmin=0 Vmid=0 Napr=295 uakb=12.56 usb=0 temp=5.9 hum=74.63 prs=995.36 Log=219179 Err=0
id=601723 time=20.05.2019 02:07:18 Vmax=0.4 Vmin=0 Vmid=0.1 Napr=295 uakb=12.56 usb=0 temp=5.88 hum=74.55 prs=995.35 Log=219178 Err=0
id=601722 time=20.05.2019 02:06:07 Vmax=0.1 Vmin=0 Vmid=0 Napr=295 uakb=12.56 usb=0 temp=5.89 hum=74.46 prs=995.33 Log=219177 Err=0
id=601721 time=20.05.2019 02:04:58 Vmax=0 Vmin=0 Vmid=0 Napr=295 uakb=12.56 usb=0 temp=5.86 hum=74.37 prs=995.36 Log=219176 Err=0
id=601720 time=20.05.2019 02:03:47 Vmax=0 Vmin=0 Vmid=0 Napr=295 uakb=12.56 usb=0 temp=5.82 hum=74.04 prs=995.35 Log=219175 Err=0
id=601719 time=20.05.2019 02:02:37 Vmax=0 Vmin=0 Vmid=0 Napr=295 uakb=12.56 usb=0 temp=5.78 hum=73.72 prs=995.38 Log=219174 Err=0
id=601718 time=20.05.2019 02:01:27 Vmax=0 Vmin=0 Vmid=0 Napr=295 uakb=12.56 usb=0 temp=5.71 hum=73.11 prs=995.41 Log=219173 Err=0
id=601717 time=20.05.2019 02:00:17 Vmax=0 Vmin=0 Vmid=0 Napr=295 uakb=12.56 usb=0 temp=5.76 hum=73.05 prs=995.39 Log=219172 Err=0
id=601716 time=20.05.2019 01:59:07 Vmax=0 Vmin=0 Vmid=0 Napr=295 uakb=12.56 usb=0 temp=5.81 hum=73.03 prs=995.39 Log=219171 Err=0
id=601715 time=20.05.2019 01:57:58 Vmax=0 Vmin=0 Vmid=0 Napr=295 uakb=12.56 usb=0 temp=5.86 hum=72.97 prs=995.38 Log=219170 Err=0
id=601714 time=20.05.2019 01:56:47 Vmax=0 Vmin=0 Vmid=0 Napr=295 uakb=12.56 usb=0 temp=5.9 hum=72.91 prs=995.39 Log=219169 Err=0
id=601713 time=20.05.2019 01:55:37 Vmax=0 Vmin=0 Vmid=0 Napr=295 uakb=12.56 usb=0 temp=5.97 hum=72.83 prs=995.4 Log=219168 Err=0
id=601712 time=20.05.2019 01:54:27 Vmax=0 Vmin=0 Vmid=0 Napr=295 uakb=12.56 usb=0 temp=6.06 hum=72.84 prs=995.44 Log=219167 Err=0
id=601711 time=20.05.2019 01:53:17 Vmax=0 Vmin=0 Vmid=0 Napr=295 uakb=12.56 usb=0 temp=6.17 hum=72.89 prs=995.44 Log=219166 Err=0
id=601710 time=20.05.2019 01:52:07 Vmax=0 Vmin=0 Vmid=0 Napr=295 uakb=12.56 usb=0 temp=6.26 hum=72.95 prs=995.5 Log=219165 Err=0
id=601709 time=20.05.2019 01:50:57 Vmax=0 Vmin=0 Vmid=0 Napr=295 uakb=12.58 usb=0 temp=6.34 hum=72.99 prs=995.48 Log=219164 Err=0
id=601708 time=20.05.2019 01:49:48 Vmax=0.4 Vmin=0.1 Vmid=0.2 Napr=295 uakb=12.56 usb=0 temp=6.4 hum=72.97 prs=995.44 Log=219163 Err=0
id=601707 time=20.05.2019 01:48:37 Vmax=0.5 Vmin=0.4 Vmid=0.4 Napr=295 uakb=12.56 usb=0 temp=6.45 hum=72.97 prs=995.5 Log=219162 Err=0
id=601706 time=20.05.2019 01:47:27 Vmax=0.6 Vmin=0.4 Vmid=0.5 Napr=295 uakb=12.56 usb=0 temp=6.47 hum=72.89 prs=995.47 Log=219161 Err=0
id=601705 time=20.05.2019 01:46:16 Vmax=0.6 Vmin=0.4 Vmid=0.5 Napr=295 uakb=12.56 usb=0 temp=6.5 hum=72.75 prs=995.45 Log=219160 Err=0
id=601704 time=20.05.2019 01:45:07 Vmax=0.8 Vmin=0.6 Vmid=0.7 Napr=295 uakb=12.56 usb=0 temp=6.51 hum=72.65 prs=995.44 Log=219159 Err=0
id=601703 time=20.05.2019 01:43:57 Vmax=0.8 Vmin=0.7 Vmid=0.7 Napr=295 uakb=12.58 usb=0 temp=6.52 hum=72.71 prs=995.46 Log=219158 Err=0
id=601702 time=20.05.2019 01:42:47 Vmax=0.8 Vmin=0.7 Vmid=0.7 Napr=295 uakb=12.56 usb=0 temp=6.5 hum=72.47 prs=995.5 Log=219157 Err=0
id=601701 time=20.05.2019 01:41:37 Vmax=0.9 Vmin=0.7 Vmid=0.7 Napr=295 uakb=12.56 usb=0 temp=6.51 hum=72.16 prs=995.51 Log=219156 Err=0
id=601700 time=20.05.2019 01:40:27 Vmax=0.9 Vmin=0.8 Vmid=0.8 Napr=295 uakb=12.56 usb=0 temp=6.5 hum=71.83 prs=995.55 Log=219155 Err=0
id=601699 time=20.05.2019 01:39:17 Vmax=0 Vmin=0 Vmid=0 Napr=295 uakb=12.56 usb=0 temp=6.45 hum=71.11 prs=995.56 Log=219154 Err=0
id=601698 time=20.05.2019 01:38:07 Vmax=0 Vmin=0 Vmid=0 Napr=295 uakb=12.58 usb=0 temp=6.46 hum=70.01 prs=995.57 Log=219153 Err=0
id=601697 time=20.05.2019 01:36:57 Vmax=0 Vmin=0 Vmid=0 Napr=295 uakb=12.58 usb=0 temp=6.54 hum=70.03 prs=995.55 Log=219152 Err=0
id=601696 time=20.05.2019 01:35:47 Vmax=0 Vmin=0 Vmid=0 Napr=295 uakb=12.56 usb=0 temp=6.61 hum=70.11 prs=995.57 Log=219151 Err=0
id=601695 time=20.05.2019 01:34:37 Vmax=0.7 Vmin=0.2 Vmid=0.4 Napr=295 uakb=12.56 usb=0 temp=6.63 hum=70.23 prs=995.6 Log=219150 Err=0
id=601694 time=20.05.2019 01:33:26 Vmax=0.6 Vmin=0.5 Vmid=0.5 Napr=295 uakb=12.56 usb=0 temp=6.6 hum=70.22 prs=995.65 Log=219149 Err=0
id=601693 time=20.05.2019 01:32:16 Vmax=0.6 Vmin=0 Vmid=0.2 Napr=295 uakb=12.58 usb=0 temp=6.56 hum=70.21 prs=995.67 Log=219148 Err=0
id=601692 time=20.05.2019 01:31:07 Vmax=0.6 Vmin=0.4 Vmid=0.4 Napr=295 uakb=12.56 usb=0 temp=6.5 hum=70.19 prs=995.69 Log=219147 Err=0
id=601691 time=20.05.2019 01:29:57 Vmax=0.6 Vmin=0.5 Vmid=0.5 Napr=295 uakb=12.56 usb=0 temp=6.4 hum=70.2 prs=995.69 Log=219146 Err=0
id=601690 time=20.05.2019 01:28:46 Vmax=0.6 Vmin=0.4 Vmid=0.5 Napr=295 uakb=12.58 usb=0 temp=6.29 hum=70.06 prs=995.72 Log=219145 Err=0
id=601689 time=20.05.2019 01:27:37 Vmax=0.4 Vmin=0 Vmid=0.1 Napr=295 uakb=12.58 usb=0 temp=6.18 hum=69.82 prs=995.72 Log=219144 Err=0
id=601688 time=20.05.2019 01:26:26 Vmax=0 Vmin=0 Vmid=0 Napr=295 uakb=12.56 usb=0 temp=6.08 hum=69.39 prs=995.67 Log=219143 Err=0
id=601687 time=20.05.2019 01:25:17 Vmax=0 Vmin=0 Vmid=0 Napr=295 uakb=12.56 usb=0 temp=6 hum=68.99 prs=995.69 Log=219142 Err=0
id=601686 time=20.05.2019 01:24:06 Vmax=0 Vmin=0 Vmid=0 Napr=295 uakb=12.56 usb=0 temp=6 hum=68.58 prs=995.71 Log=219141 Err=0
id=601685 time=20.05.2019 01:22:56 Vmax=0 Vmin=0 Vmid=0 Napr=295 uakb=12.58 usb=0 temp=6.06 hum=68.23 prs=995.72 Log=219140 Err=0
id=601684 time=20.05.2019 01:21:46 Vmax=0 Vmin=0 Vmid=0 Napr=295 uakb=12.58 usb=0 temp=6.15 hum=68.19 prs=995.73 Log=219139 Err=0
id=601683 time=20.05.2019 01:20:36 Vmax=0 Vmin=0 Vmid=0 Napr=295 uakb=12.56 usb=0 temp=6.23 hum=68.17 prs=995.74 Log=219138 Err=0
id=601682 time=20.05.2019 01:19:26 Vmax=0 Vmin=0 Vmid=0 Napr=295 uakb=12.58 usb=0 temp=6.31 hum=68.19 prs=995.75 Log=219137 Err=0
id=601681 time=20.05.2019 01:18:15 Vmax=0.6 Vmin=0 Vmid=0.2 Napr=295 uakb=12.58 usb=0 temp=6.39 hum=68.19 prs=995.76 Log=219136 Err=0
id=601680 time=20.05.2019 01:17:06 Vmax=0.6 Vmin=0 Vmid=0.1 Napr=295 uakb=12.58 usb=0 temp=6.47 hum=68.22 prs=995.78 Log=219135 Err=0
id=601679 time=20.05.2019 01:15:55 Vmax=0 Vmin=0 Vmid=0 Napr=295 uakb=12.58 usb=0 temp=6.55 hum=68.26 prs=995.79 Log=219134 Err=0
id=601678 time=20.05.2019 01:14:46 Vmax=0 Vmin=0 Vmid=0 Napr=295 uakb=12.58 usb=0 temp=6.62 hum=68.27 prs=995.8 Log=219133 Err=0
id=601677 time=20.05.2019 01:13:36 Vmax=0 Vmin=0 Vmid=0 Napr=295 uakb=12.58 usb=0 temp=6.67 hum=68.18 prs=995.79 Log=219132 Err=0
id=601676 time=20.05.2019 01:12:26 Vmax=0 Vmin=0 Vmid=0 Napr=295 uakb=12.56 usb=0 temp=6.69 hum=68.06 prs=995.75 Log=219131 Err=0
id=601675 time=20.05.2019 01:11:16 Vmax=0.5 Vmin=0.2 Vmid=0.2 Napr=295 uakb=12.58 usb=0 temp=6.7 hum=67.85 prs=995.75 Log=219130 Err=0
id=601674 time=20.05.2019 01:10:06 Vmax=0 Vmin=0 Vmid=0 Napr=295 uakb=12.58 usb=0 temp=6.66 hum=67.39 prs=995.8 Log=219129 Err=0
id=601673 time=20.05.2019 01:08:55 Vmax=0.4 Vmin=0 Vmid=0.2 Napr=295 uakb=12.58 usb=0 temp=6.67 hum=67.26 prs=995.77 Log=219128 Err=0
id=601672 time=20.05.2019 01:07:45 Vmax=0.5 Vmin=0.4 Vmid=0.4 Napr=295 uakb=12.58 usb=0 temp=6.67 hum=67.19 prs=995.83 Log=219127 Err=0
id=601671 time=20.05.2019 01:06:36 Vmax=0.7 Vmin=0.4 Vmid=0.5 Napr=295 uakb=12.58 usb=0 temp=6.68 hum=67.09 prs=995.79 Log=219126 Err=0
id=601670 time=20.05.2019 01:05:25 Vmax=0.8 Vmin=0.6 Vmid=0.6 Napr=295 uakb=12.58 usb=0 temp=6.67 hum=67.14 prs=995.82 Log=219125 Err=0
id=601669 time=20.05.2019 01:04:15 Vmax=0.7 Vmin=0.5 Vmid=0.6 Napr=295 uakb=12.58 usb=0 temp=6.6 hum=67.02 prs=995.83 Log=219124 Err=0
id=601668 time=20.05.2019 01:03:05 Vmax=0.6 Vmin=0 Vmid=0.1 Napr=295 uakb=12.58 usb=0 temp=6.6 hum=66.75 prs=995.86 Log=219123 Err=0
id=601667 time=20.05.2019 01:01:55 Vmax=0 Vmin=0 Vmid=0 Napr=295 uakb=12.56 usb=0 temp=6.6 hum=66.58 prs=995.88 Log=219122 Err=0
id=601666 time=20.05.2019 01:00:45 Vmax=0 Vmin=0 Vmid=0 Napr=295 uakb=12.58 usb=0 temp=6.59 hum=66.42 prs=995.92 Log=219121 Err=0
id=601665 time=20.05.2019 00:59:35 Vmax=0 Vmin=0 Vmid=0 Napr=295 uakb=12.58 usb=0 temp=6.59 hum=66.22 prs=995.91 Log=219120 Err=0
id=601664 time=20.05.2019 00:58:25 Vmax=0.6 Vmin=0 Vmid=0.1 Napr=295 uakb=12.58 usb=0 temp=6.56 hum=66.19 prs=995.86 Log=219119 Err=0
id=601663 time=20.05.2019 00:57:15 Vmax=0.5 Vmin=0 Vmid=0.1 Napr=295 uakb=12.58 usb=0 temp=6.5 hum=65.83 prs=995.87 Log=219118 Err=0
id=601662 time=20.05.2019 00:56:07 Vmax=0.5 Vmin=0.1 Vmid=0.2 Napr=295 uakb=12.58 usb=0 temp=6.54 hum=65.38 prs=995.86 Log=219117 Err=0
id=601661 time=20.05.2019 00:54:54 Vmax=0.5 Vmin=0.1 Vmid=0.2 Napr=295 uakb=12.58 usb=0 temp=6.61 hum=65.24 prs=995.89 Log=219116 Err=0
id=601660 time=20.05.2019 00:53:45 Vmax=0.7 Vmin=0.5 Vmid=0.6 Napr=295 uakb=12.58 usb=0 temp=6.68 hum=65.12 prs=995.89 Log=219115 Err=0
id=601659 time=20.05.2019 00:52:35 Vmax=0.9 Vmin=0.7 Vmid=0.7 Napr=295 uakb=12.6 usb=0 temp=6.76 hum=65.05 prs=995.88 Log=219114 Err=0
id=601658 time=20.05.2019 00:51:26 Vmax=1.3 Vmin=0.8 Vmid=0.9 Napr=295 uakb=12.58 usb=0 temp=6.84 hum=65.01 prs=995.86 Log=219113 Err=0
id=601657 time=20.05.2019 00:50:15 Vmax=1.3 Vmin=0.8 Vmid=1.1 Napr=295 uakb=12.58 usb=0 temp=6.92 hum=65 prs=995.9 Log=219112 Err=0
id=601656 time=20.05.2019 00:49:04 Vmax=0.9 Vmin=0.7 Vmid=0.8 Napr=295 uakb=12.58 usb=0 temp=7 hum=65.11 prs=995.87 Log=219111 Err=0
id=601655 time=20.05.2019 00:47:54 Vmax=0.7 Vmin=0.5 Vmid=0.6 Napr=295 uakb=12.58 usb=0 temp=7.08 hum=65.25 prs=995.9 Log=219110 Err=0
id=601654 time=20.05.2019 00:46:45 Vmax=0 Vmin=0 Vmid=0 Napr=295 uakb=12.58 usb=0 temp=7.12 hum=65.41 prs=995.91 Log=219109 Err=0
id=601653 time=20.05.2019 00:45:34 Vmax=0 Vmin=0 Vmid=0 Napr=295 uakb=12.58 usb=0 temp=7.12 hum=65.39 prs=995.93 Log=219108 Err=0
id=601652 time=20.05.2019 00:44:24 Vmax=0 Vmin=0 Vmid=0 Napr=295 uakb=12.58 usb=0 temp=7.14 hum=65.28 prs=995.92 Log=219107 Err=0
id=601651 time=20.05.2019 00:43:14 Vmax=0 Vmin=0 Vmid=0 Napr=295 uakb=12.58 usb=0 temp=7.15 hum=65.23 prs=995.93 Log=219106 Err=0
id=601650 time=20.05.2019 00:42:05 Vmax=0 Vmin=0 Vmid=0 Napr=295 uakb=12.58 usb=0 temp=7.13 hum=65.06 prs=995.94 Log=219105 Err=0
id=601649 time=20.05.2019 00:40:54 Vmax=0.4 Vmin=0 Vmid=0.1 Napr=295 uakb=12.58 usb=0 temp=7.11 hum=64.62 prs=995.93 Log=219104 Err=0
id=601648 time=20.05.2019 00:39:44 Vmax=0.7 Vmin=0.5 Vmid=0.6 Napr=295 uakb=12.6 usb=0 temp=7.08 hum=64.32 prs=995.93 Log=219103 Err=0
id=601647 time=20.05.2019 00:38:34 Vmax=0.6 Vmin=0 Vmid=0.1 Napr=295 uakb=12.58 usb=0 temp=6.98 hum=63.55 prs=995.92 Log=219102 Err=0
id=601646 time=20.05.2019 00:37:24 Vmax=0.4 Vmin=0 Vmid=0 Napr=295 uakb=12.58 usb=0 temp=6.96 hum=63.17 prs=995.91 Log=219101 Err=0
id=601645 time=20.05.2019 00:35:04 Vmax=0.8 Vmin=0.7 Vmid=0.7 Napr=295 uakb=12.6 usb=0 temp=6.95 hum=62.87 prs=995.95 Log=219099 Err=0
id=601644 time=20.05.2019 00:33:54 Vmax=0.9 Vmin=0.7 Vmid=0.8 Napr=295 uakb=12.58 usb=0 temp=6.97 hum=62.56 prs=995.99 Log=219098 Err=0
id=601643 time=20.05.2019 00:32:44 Vmax=0.9 Vmin=0.6 Vmid=0.7 Napr=295 uakb=12.58 usb=0 temp=7.03 hum=62.41 prs=996 Log=219097 Err=0
id=601642 time=20.05.2019 00:31:34 Vmax=1.2 Vmin=0.7 Vmid=0.9 Napr=295 uakb=12.58 usb=0 temp=7.09 hum=62.18 prs=996.06 Log=219096 Err=0
id=601641 time=20.05.2019 00:30:24 Vmax=0.9 Vmin=0.6 Vmid=0.7 Napr=295 uakb=12.58 usb=0 temp=7.17 hum=61.99 prs=996.02 Log=219095 Err=0
id=601640 time=20.05.2019 00:29:14 Vmax=0.7 Vmin=0.5 Vmid=0.6 Napr=295 uakb=12.58 usb=0 temp=7.26 hum=61.93 prs=996.07 Log=219094 Err=0
id=601639 time=20.05.2019 00:26:54 Vmax=1.3 Vmin=0.9 Vmid=1.1 Napr=295 uakb=12.6 usb=0 temp=7.42 hum=61.82 prs=996.08 Log=219092 Err=0
id=601638 time=20.05.2019 00:25:44 Vmax=0.9 Vmin=0.8 Vmid=0.8 Napr=295 uakb=12.6 usb=0 temp=7.5 hum=61.76 prs=996.07 Log=219091 Err=0
id=601637 time=20.05.2019 00:24:34 Vmax=0.9 Vmin=0 Vmid=0.5 Napr=295 uakb=12.6 usb=0 temp=7.58 hum=61.65 prs=996.09 Log=219090 Err=0
id=601636 time=20.05.2019 00:23:24 Vmax=0 Vmin=0 Vmid=0 Napr=295 uakb=12.6 usb=0 temp=7.64 hum=61.68 prs=996.07 Log=219089 Err=0
id=601635 time=20.05.2019 00:22:14 Vmax=0 Vmin=0 Vmid=0 Napr=295 uakb=12.6 usb=0 temp=7.67 hum=61.7 prs=996.07 Log=219088 Err=0
id=601634 time=20.05.2019 00:21:04 Vmax=0 Vmin=0 Vmid=0 Napr=295 uakb=12.6 usb=0 temp=7.69 hum=61.6 prs=996.06 Log=219087 Err=0
id=601633 time=20.05.2019 00:19:53 Vmax=0 Vmin=0 Vmid=0 Napr=295 uakb=12.6 usb=0 temp=7.72 hum=61.54 prs=996.06 Log=219086 Err=0
id=601632 time=20.05.2019 00:18:43 Vmax=0 Vmin=0 Vmid=0 Napr=295 uakb=12.6 usb=0 temp=7.72 hum=61.5 prs=996.08 Log=219085 Err=0
id=601631 time=20.05.2019 00:17:33 Vmax=0 Vmin=0 Vmid=0 Napr=295 uakb=12.6 usb=0 temp=7.73 hum=61.4 prs=996.05 Log=219084 Err=0
id=601630 time=20.05.2019 00:16:24 Vmax=0 Vmin=0 Vmid=0 Napr=295 uakb=12.6 usb=0 temp=7.74 hum=61.28 prs=996.07 Log=219083 Err=0
id=601629 time=20.05.2019 00:15:13 Vmax=0 Vmin=0 Vmid=0 Napr=295 uakb=12.6 usb=0 temp=7.75 hum=61.18 prs=996.03 Log=219082 Err=0
id=601628 time=20.05.2019 00:14:03 Vmax=0 Vmin=0 Vmid=0 Napr=295 uakb=12.6 usb=0 temp=7.76 hum=61.06 prs=996.02 Log=219081 Err=0
id=601627 time=20.05.2019 00:12:53 Vmax=0 Vmin=0 Vmid=0 Napr=295 uakb=12.6 usb=0 temp=7.77 hum=60.93 prs=996 Log=219080 Err=0
id=601626 time=20.05.2019 00:11:43 Vmax=0 Vmin=0 Vmid=0 Napr=295 uakb=12.6 usb=0 temp=7.81 hum=60.79 prs=996.05 Log=219079 Err=0
id=601625 time=20.05.2019 00:10:33 Vmax=0 Vmin=0 Vmid=0 Napr=295 uakb=12.6 usb=0 temp=7.82 hum=60.68 prs=996.08 Log=219078 Err=0
id=601624 time=20.05.2019 00:09:23 Vmax=0 Vmin=0 Vmid=0 Napr=295 uakb=12.6 usb=0 temp=7.82 hum=60.16 prs=996.08 Log=219077 Err=0
id=601623 time=20.05.2019 00:08:13 Vmax=0 Vmin=0 Vmid=0 Napr=295 uakb=12.6 usb=0 temp=7.83 hum=60.14 prs=996.06 Log=219076 Err=0
id=601622 time=20.05.2019 00:07:02 Vmax=0 Vmin=0 Vmid=0 Napr=295 uakb=12.6 usb=0 temp=7.82 hum=59.63 prs=996.06 Log=219075 Err=0
id=601621 time=20.05.2019 00:05:53 Vmax=0 Vmin=0 Vmid=0 Napr=295 uakb=12.6 usb=0.02 temp=7.85 hum=59.31 prs=996.07 Log=219074 Err=0
id=601620 time=20.05.2019 00:04:43 Vmax=0 Vmin=0 Vmid=0 Napr=295 uakb=12.62 usb=0 temp=7.89 hum=59.28 prs=996.07 Log=219073 Err=0
id=601619 time=20.05.2019 00:03:32 Vmax=0 Vmin=0 Vmid=0 Napr=295 uakb=12.62 usb=0 temp=7.92 hum=59.2 prs=996.07 Log=219072 Err=0
id=601618 time=20.05.2019 00:02:23 Vmax=0 Vmin=0 Vmid=0 Napr=295 uakb=12.62 usb=0 temp=7.93 hum=59.07 prs=996.06 Log=219071 Err=0
id=601617 time=20.05.2019 00:01:12 Vmax=0 Vmin=0 Vmid=0 Napr=295 uakb=12.6 usb=0 temp=7.94 hum=58.98 prs=996.05 Log=219070 Err=0
id=601616 time=20.05.2019 00:00:06 Vmax=0 Vmin=0 Vmid=0 Napr=295 uakb=12.62 usb=0 temp=7.97 hum=58.83 prs=996.02 Log=219069 Err=0
id=601615 time=19.05.2019 23:57:42 Vmax=0 Vmin=0 Vmid=0 Napr=295 uakb=12.62 usb=0.02 temp=8.03 hum=58.45 prs=995.99 Log=219067 Err=0
id=601614 time=19.05.2019 23:56:32 Vmax=0 Vmin=0 Vmid=0 Napr=295 uakb=12.62 usb=0.02 temp=8.09 hum=58.37 prs=995.98 Log=219066 Err=0
id=601613 time=19.05.2019 23:55:22 Vmax=0 Vmin=0 Vmid=0 Napr=295 uakb=12.62 usb=0 temp=8.12 hum=58.3 prs=995.94 Log=219065 Err=0
id=601612 time=19.05.2019 23:54:11 Vmax=0 Vmin=0 Vmid=0 Napr=295 uakb=12.62 usb=0 temp=8.12 hum=58.17 prs=995.93 Log=219064 Err=0
id=601611 time=19.05.2019 23:53:02 Vmax=0 Vmin=0 Vmid=0 Napr=295 uakb=12.62 usb=0 temp=8.14 hum=57.96 prs=995.93 Log=219063 Err=0
id=601610 time=19.05.2019 23:51:51 Vmax=0 Vmin=0 Vmid=0 Napr=295 uakb=12.62 usb=0 temp=8.16 hum=57.76 prs=995.93 Log=219062 Err=0
id=601609 time=19.05.2019 23:50:42 Vmax=0 Vmin=0 Vmid=0 Napr=295 uakb=12.64 usb=0 temp=8.19 hum=57.59 prs=995.88 Log=219061 Err=0
id=601608 time=19.05.2019 23:49:31 Vmax=0 Vmin=0 Vmid=0 Napr=295 uakb=12.62 usb=0 temp=8.21 hum=57.51 prs=995.87 Log=219060 Err=0
id=601607 time=19.05.2019 23:48:22 Vmax=0 Vmin=0 Vmid=0 Napr=295 uakb=12.64 usb=0.02 temp=8.2 hum=57.38 prs=995.85 Log=219059 Err=0
id=601606 time=19.05.2019 23:47:11 Vmax=0 Vmin=0 Vmid=0 Napr=295 uakb=12.62 usb=0 temp=8.18 hum=57.16 prs=995.83 Log=219058 Err=0
id=601605 time=19.05.2019 23:46:01 Vmax=0 Vmin=0 Vmid=0 Napr=295 uakb=12.62 usb=0 temp=8.17 hum=56.84 prs=995.89 Log=219057 Err=0
id=601604 time=19.05.2019 23:44:51 Vmax=0 Vmin=0 Vmid=0 Napr=295 uakb=12.64 usb=0.02 temp=8.22 hum=56.3 prs=995.91 Log=219056 Err=0
id=601603 time=19.05.2019 23:43:41 Vmax=0 Vmin=0 Vmid=0 Napr=295 uakb=12.64 usb=0.02 temp=8.29 hum=56.11 prs=995.86 Log=219055 Err=0
id=601602 time=19.05.2019 23:42:31 Vmax=0 Vmin=0 Vmid=0 Napr=295 uakb=12.64 usb=0 temp=8.37 hum=55.78 prs=995.9 Log=219054 Err=0
id=601601 time=19.05.2019 23:41:21 Vmax=0 Vmin=0 Vmid=0 Napr=295 uakb=12.64 usb=0.02 temp=8.46 hum=55.41 prs=995.87 Log=219053 Err=0
id=601600 time=19.05.2019 23:40:11 Vmax=0 Vmin=0 Vmid=0 Napr=295 uakb=12.64 usb=0.02 temp=8.55 hum=55.29 prs=995.89 Log=219052 Err=0
id=601599 time=19.05.2019 23:39:00 Vmax=0 Vmin=0 Vmid=0 Napr=295 uakb=12.64 usb=0.02 temp=8.64 hum=55.06 prs=995.87 Log=219051 Err=0
id=601598 time=19.05.2019 23:37:50 Vmax=0 Vmin=0 Vmid=0 Napr=295 uakb=12.64 usb=0.02 temp=8.74 hum=55.03 prs=995.86 Log=219050 Err=0
id=601597 time=19.05.2019 23:36:40 Vmax=0 Vmin=0 Vmid=0 Napr=295 uakb=12.64 usb=0.02 temp=8.84 hum=54.93 prs=995.85 Log=219049 Err=0
id=601596 time=19.05.2019 23:35:30 Vmax=0 Vmin=0 Vmid=0 Napr=295 uakb=12.66 usb=0.02 temp=8.94 hum=54.67 prs=995.81 Log=219048 Err=0
id=601595 time=19.05.2019 23:34:20 Vmax=0 Vmin=0 Vmid=0 Napr=295 uakb=12.66 usb=0.02 temp=9.05 hum=54.46 prs=995.82 Log=219047 Err=0
id=601594 time=19.05.2019 23:33:10 Vmax=0 Vmin=0 Vmid=0 Napr=295 uakb=12.66 usb=0.02 temp=9.16 hum=54.29 prs=995.81 Log=219046 Err=0
id=601593 time=19.05.2019 23:31:59 Vmax=0 Vmin=0 Vmid=0 Napr=295 uakb=12.66 usb=0.02 temp=9.28 hum=54.06 prs=995.75 Log=219045 Err=0
id=601592 time=19.05.2019 23:30:49 Vmax=0 Vmin=0 Vmid=0 Napr=295 uakb=12.66 usb=0.02 temp=9.4 hum=53.82 prs=995.75 Log=219044 Err=0
id=601591 time=19.05.2019 23:29:39 Vmax=0 Vmin=0 Vmid=0 Napr=295 uakb=12.66 usb=0.02 temp=9.51 hum=53.51 prs=995.72 Log=219043 Err=0
id=601590 time=19.05.2019 23:28:29 Vmax=0 Vmin=0 Vmid=0 Napr=295 uakb=12.68 usb=0.02 temp=9.63 hum=53.34 prs=995.68 Log=219042 Err=0
id=601589 time=19.05.2019 23:27:19 Vmax=0 Vmin=0 Vmid=0 Napr=295 uakb=12.68 usb=0.02 temp=9.74 hum=53.05 prs=995.7 Log=219041 Err=0
id=601588 time=19.05.2019 23:26:10 Vmax=0 Vmin=0 Vmid=0 Napr=295 uakb=12.68 usb=0.02 temp=9.85 hum=52.93 prs=995.66 Log=219040 Err=0
id=601587 time=19.05.2019 23:24:59 Vmax=0 Vmin=0 Vmid=0 Napr=295 uakb=12.68 usb=0.02 temp=9.94 hum=52.78 prs=995.63 Log=219039 Err=0
id=601586 time=19.05.2019 23:23:49 Vmax=0 Vmin=0 Vmid=0 Napr=295 uakb=12.7 usb=0.02 temp=10.05 hum=52.62 prs=995.64 Log=219038 Err=0
id=601585 time=19.05.2019 23:22:38 Vmax=0.5 Vmin=0 Vmid=0.1 Napr=295 uakb=12.7 usb=0.02 temp=10.16 hum=52.45 prs=995.66 Log=219037 Err=0
id=601584 time=19.05.2019 23:21:28 Vmax=0.6 Vmin=0.2 Vmid=0.4 Napr=295 uakb=12.7 usb=0.02 temp=10.24 hum=52.22 prs=995.6 Log=219036 Err=0
id=601583 time=19.05.2019 23:20:18 Vmax=0.4 Vmin=0 Vmid=0 Napr=295 uakb=12.7 usb=0.02 temp=10.32 hum=51.92 prs=995.63 Log=219035 Err=0
id=601582 time=19.05.2019 23:19:08 Vmax=0 Vmin=0 Vmid=0 Napr=295 uakb=12.7 usb=0.02 temp=10.38 hum=51.86 prs=995.62 Log=219034 Err=0
id=601581 time=19.05.2019 23:17:58 Vmax=0 Vmin=0 Vmid=0 Napr=295 uakb=12.72 usb=0.02 temp=10.43 hum=51.82 prs=995.6 Log=219033 Err=0
id=601580 time=19.05.2019 23:16:48 Vmax=0 Vmin=0 Vmid=0 Napr=295 uakb=12.72 usb=0.02 temp=10.49 hum=51.83 prs=995.6 Log=219032 Err=0
id=601579 time=19.05.2019 23:15:37 Vmax=0 Vmin=0 Vmid=0 Napr=295 uakb=12.72 usb=0.02 temp=10.53 hum=51.7 prs=995.57 Log=219031 Err=0
id=601578 time=19.05.2019 23:14:28 Vmax=0.9 Vmin=0 Vmid=0.2 Napr=295 uakb=12.72 usb=0.02 temp=10.55 hum=51.65 prs=995.55 Log=219030 Err=0
id=601577 time=19.05.2019 23:13:17 Vmax=0.7 Vmin=0.2 Vmid=0.5 Napr=295 uakb=12.74 usb=0.02 temp=10.57 hum=51.65 prs=995.54 Log=219029 Err=0
id=601576 time=19.05.2019 23:12:08 Vmax=0.9 Vmin=0.2 Vmid=0.6 Napr=295 uakb=12.74 usb=0.02 temp=10.61 hum=51.56 prs=995.57 Log=219028 Err=0
id=601575 time=19.05.2019 23:10:57 Vmax=0.9 Vmin=0.6 Vmid=0.7 Napr=295 uakb=12.74 usb=0.02 temp=10.64 hum=51.58 prs=995.56 Log=219027 Err=0
id=601574 time=19.05.2019 23:09:47 Vmax=0.9 Vmin=0.2 Vmid=0.6 Napr=295 uakb=12.76 usb=0.02 temp=10.66 hum=51.53 prs=995.59 Log=219026 Err=0
id=601573 time=19.05.2019 23:08:37 Vmax=1.1 Vmin=0.6 Vmid=0.7 Napr=295 uakb=12.76 usb=0.02 temp=10.69 hum=51.62 prs=995.58 Log=219025 Err=0
id=601572 time=19.05.2019 23:07:26 Vmax=0.9 Vmin=0.6 Vmid=0.7 Napr=295 uakb=12.76 usb=0.02 temp=10.72 hum=51.71 prs=995.57 Log=219024 Err=0
id=601571 time=19.05.2019 23:06:16 Vmax=0.8 Vmin=0.7 Vmid=0.7 Napr=295 uakb=12.78 usb=0.02 temp=10.76 hum=51.82 prs=995.56 Log=219023 Err=0
id=601570 time=19.05.2019 23:05:06 Vmax=0.7 Vmin=0.4 Vmid=0.5 Napr=295 uakb=12.78 usb=0.02 temp=10.8 hum=52.07 prs=995.55 Log=219022 Err=0
id=601569 time=19.05.2019 23:03:56 Vmax=0.7 Vmin=0.5 Vmid=0.5 Napr=295 uakb=12.78 usb=0.02 temp=10.88 hum=52.4 prs=995.52 Log=219021 Err=0
id=601568 time=19.05.2019 23:02:46 Vmax=0.1 Vmin=0 Vmid=0 Napr=295 uakb=12.8 usb=0.02 temp=10.94 hum=52.6 prs=995.49 Log=219020 Err=0
id=601567 time=19.05.2019 23:01:36 Vmax=0.6 Vmin=0.2 Vmid=0.4 Napr=295 uakb=12.8 usb=0 temp=11.01 hum=53.04 prs=995.51 Log=219019 Err=0
id=601566 time=19.05.2019 23:00:25 Vmax=0.9 Vmin=0.6 Vmid=0.7 Napr=295 uakb=12.8 usb=0.02 temp=11.09 hum=53.98 prs=995.5 Log=219018 Err=0
id=601565 time=19.05.2019 22:59:15 Vmax=0.8 Vmin=0.5 Vmid=0.7 Napr=295 uakb=12.82 usb=0.02 temp=11.15 hum=54.45 prs=995.57 Log=219017 Err=0
id=601564 time=19.05.2019 22:58:05 Vmax=0.7 Vmin=0.4 Vmid=0.5 Napr=295 uakb=12.82 usb=0.02 temp=11.17 hum=53.02 prs=995.55 Log=219016 Err=0
id=601563 time=19.05.2019 22:56:55 Vmax=0.8 Vmin=0.7 Vmid=0.7 Napr=295 uakb=12.84 usb=0.02 temp=11.16 hum=51.77 prs=995.53 Log=219015 Err=0
id=601562 time=19.05.2019 22:55:45 Vmax=1.1 Vmin=0 Vmid=0.6 Napr=295 uakb=12.84 usb=0.02 temp=11.15 hum=51.27 prs=995.54 Log=219014 Err=0
id=601561 time=19.05.2019 22:54:35 Vmax=0 Vmin=0 Vmid=0 Napr=295 uakb=12.84 usb=0.02 temp=11.16 hum=50.56 prs=995.51 Log=219013 Err=0
id=601560 time=19.05.2019 22:53:24 Vmax=0 Vmin=0 Vmid=0 Napr=295 uakb=12.86 usb=0.02 temp=11.15 hum=49.63 prs=995.52 Log=219012 Err=0
id=601559 time=19.05.2019 22:52:14 Vmax=0 Vmin=0 Vmid=0 Napr=295 uakb=12.86 usb=0.02 temp=11.15 hum=49.28 prs=995.52 Log=219011 Err=0
id=601558 time=19.05.2019 22:51:04 Vmax=0 Vmin=0 Vmid=0 Napr=295 uakb=12.88 usb=0.02 temp=11.14 hum=49.16 prs=995.51 Log=219010 Err=0
id=601557 time=19.05.2019 22:49:54 Vmax=0 Vmin=0 Vmid=0 Napr=295 uakb=12.88 usb=0.02 temp=11.17 hum=48.92 prs=995.52 Log=219009 Err=0
id=601556 time=19.05.2019 22:48:44 Vmax=0 Vmin=0 Vmid=0 Napr=295 uakb=12.88 usb=0.02 temp=11.21 hum=48.93 prs=995.5 Log=219008 Err=0
id=601555 time=19.05.2019 22:47:34 Vmax=0.2 Vmin=0 Vmid=0 Napr=295 uakb=12.9 usb=0.02 temp=11.26 hum=49.02 prs=995.55 Log=219007 Err=0
id=601554 time=19.05.2019 22:46:24 Vmax=0.8 Vmin=0 Vmid=0.5 Napr=295 uakb=12.9 usb=0.02 temp=11.27 hum=49.24 prs=995.56 Log=219006 Err=0
id=601553 time=19.05.2019 22:45:13 Vmax=0 Vmin=0 Vmid=0 Napr=295 uakb=12.9 usb=0.02 temp=11.31 hum=49.09 prs=995.57 Log=219005 Err=0
id=601552 time=19.05.2019 22:44:04 Vmax=0 Vmin=0 Vmid=0 Napr=295 uakb=12.9 usb=0.02 temp=11.37 hum=49.1 prs=995.53 Log=219004 Err=0
id=601551 time=19.05.2019 22:42:53 Vmax=0.5 Vmin=0 Vmid=0.2 Napr=295 uakb=12.92 usb=0.02 temp=11.4 hum=49.26 prs=995.53 Log=219003 Err=0
id=601550 time=19.05.2019 22:41:44 Vmax=0 Vmin=0 Vmid=0 Napr=295 uakb=12.92 usb=0.02 temp=11.43 hum=49.44 prs=995.57 Log=219002 Err=0
id=601549 time=19.05.2019 22:40:33 Vmax=0 Vmin=0 Vmid=0 Napr=295 uakb=12.94 usb=0.04 temp=11.47 hum=49.61 prs=995.56 Log=219001 Err=0
id=601548 time=19.05.2019 22:39:22 Vmax=0 Vmin=0 Vmid=0 Napr=295 uakb=12.96 usb=0.02 temp=11.51 hum=49.81 prs=995.52 Log=219000 Err=0
id=601547 time=19.05.2019 22:38:13 Vmax=0 Vmin=0 Vmid=0 Napr=295 uakb=12.96 usb=0.02 temp=11.55 hum=50 prs=995.5 Log=218999 Err=0
id=601546 time=19.05.2019 22:37:02 Vmax=0 Vmin=0 Vmid=0 Napr=295 uakb=12.96 usb=0.02 temp=11.61 hum=50.29 prs=995.54 Log=218998 Err=0
id=601545 time=19.05.2019 22:35:53 Vmax=0 Vmin=0 Vmid=0 Napr=295 uakb=12.96 usb=0.02 temp=11.66 hum=50.6 prs=995.57 Log=218997 Err=0
id=601544 time=19.05.2019 22:34:42 Vmax=0 Vmin=0 Vmid=0 Napr=295 uakb=12.98 usb=0.04 temp=11.73 hum=50.9 prs=995.53 Log=218996 Err=0
id=601543 time=19.05.2019 22:33:32 Vmax=0.5 Vmin=0 Vmid=0.2 Napr=295 uakb=12.98 usb=0.02 temp=11.81 hum=51.08 prs=995.53 Log=218995 Err=0
id=601542 time=19.05.2019 22:32:22 Vmax=0.6 Vmin=0.4 Vmid=0.5 Napr=295 uakb=13 usb=0.02 temp=11.9 hum=51.13 prs=995.5 Log=218994 Err=0
id=601541 time=19.05.2019 22:30:03 Vmax=0.7 Vmin=0.4 Vmid=0.6 Napr=295 uakb=13.02 usb=0.04 temp=12.09 hum=50.68 prs=995.52 Log=218992 Err=0
id=601540 time=19.05.2019 22:28:51 Vmax=0.8 Vmin=0.7 Vmid=0.7 Napr=295 uakb=13.02 usb=0.02 temp=12.17 hum=50.4 prs=995.47 Log=218991 Err=0
id=601539 time=19.05.2019 22:27:40 Vmax=1.1 Vmin=0.7 Vmid=0.8 Napr=295 uakb=13.02 usb=0.04 temp=12.24 hum=50.2 prs=995.48 Log=218990 Err=0
id=601538 time=19.05.2019 22:26:30 Vmax=1.1 Vmin=0.5 Vmid=0.8 Napr=295 uakb=13.04 usb=0.04 temp=12.31 hum=49.75 prs=995.43 Log=218989 Err=0
id=601537 time=19.05.2019 22:25:21 Vmax=1.1 Vmin=0.9 Vmid=0.9 Napr=295 uakb=13.04 usb=0.04 temp=12.38 hum=49.63 prs=995.41 Log=218988 Err=0
id=601536 time=19.05.2019 22:24:10 Vmax=1.2 Vmin=0.9 Vmid=1.1 Napr=295 uakb=13.06 usb=0.04 temp=12.44 hum=49.13 prs=995.44 Log=218987 Err=0
id=601535 time=19.05.2019 22:23:00 Vmax=1.2 Vmin=1.1 Vmid=1.1 Napr=295 uakb=13.06 usb=0.04 temp=12.48 hum=47.84 prs=995.43 Log=218986 Err=0
id=601534 time=19.05.2019 22:21:51 Vmax=1.2 Vmin=1.1 Vmid=1.1 Napr=295 uakb=13.06 usb=0.04 temp=12.53 hum=47.85 prs=995.42 Log=218985 Err=0
id=601533 time=19.05.2019 22:20:40 Vmax=1.2 Vmin=0.8 Vmid=0.9 Napr=295 uakb=13.06 usb=0.04 temp=12.59 hum=47.61 prs=995.44 Log=218984 Err=0
id=601532 time=19.05.2019 22:19:29 Vmax=1.1 Vmin=0.8 Vmid=0.9 Napr=295 uakb=13.08 usb=0.02 temp=12.66 hum=47.81 prs=995.45 Log=218983 Err=0
id=601531 time=19.05.2019 22:18:21 Vmax=1.1 Vmin=0.8 Vmid=0.9 Napr=295 uakb=13.08 usb=0.02 temp=12.73 hum=47.5 prs=995.47 Log=218982 Err=0
id=601530 time=19.05.2019 22:17:09 Vmax=1.1 Vmin=0.7 Vmid=0.8 Napr=295 uakb=13.1 usb=0.04 temp=12.8 hum=46.8 prs=995.46 Log=218981 Err=0
id=601529 time=19.05.2019 22:15:59 Vmax=1.2 Vmin=0.8 Vmid=0.9 Napr=295 uakb=13.1 usb=0.04 temp=12.88 hum=46.66 prs=995.44 Log=218980 Err=0
id=601528 time=19.05.2019 22:14:48 Vmax=0.9 Vmin=0.8 Vmid=0.8 Napr=295 uakb=13.12 usb=0.04 temp=12.96 hum=46.68 prs=995.44 Log=218979 Err=0
id=601527 time=19.05.2019 22:13:38 Vmax=0.9 Vmin=0.8 Vmid=0.8 Napr=295 uakb=13.12 usb=0.04 temp=13.04 hum=46.82 prs=995.43 Log=218978 Err=0
id=601526 time=19.05.2019 22:12:27 Vmax=0.9 Vmin=0.7 Vmid=0.8 Napr=295 uakb=13.12 usb=0.04 temp=13.1 hum=46.48 prs=995.45 Log=218977 Err=0
id=601525 time=19.05.2019 22:11:18 Vmax=1.1 Vmin=0.9 Vmid=0.9 Napr=295 uakb=13.14 usb=0.04 temp=13.16 hum=45.8 prs=995.46 Log=218976 Err=0
id=601524 time=19.05.2019 22:10:07 Vmax=1.2 Vmin=0.6 Vmid=0.8 Napr=295 uakb=13.14 usb=0.04 temp=13.2 hum=45.5 prs=995.47 Log=218975 Err=0
id=601523 time=19.05.2019 22:08:58 Vmax=1.3 Vmin=1.1 Vmid=1.2 Napr=295 uakb=13.16 usb=0.04 temp=13.22 hum=45.22 prs=995.47 Log=218974 Err=0
id=601522 time=19.05.2019 22:07:47 Vmax=1.6 Vmin=1.2 Vmid=1.3 Napr=295 uakb=13.16 usb=0.04 temp=13.23 hum=44.97 prs=995.46 Log=218973 Err=0
id=601521 time=19.05.2019 22:06:36 Vmax=2 Vmin=1.2 Vmid=1.5 Napr=295 uakb=13.16 usb=0.04 temp=13.21 hum=44.93 prs=995.41 Log=218972 Err=0
id=601520 time=19.05.2019 22:05:27 Vmax=1.3 Vmin=0.9 Vmid=1.1 Napr=295 uakb=13.18 usb=0.04 temp=13.25 hum=45.87 prs=995.41 Log=218971 Err=0
id=601519 time=19.05.2019 22:04:18 Vmax=1.1 Vmin=0.7 Vmid=0.9 Napr=295 uakb=13.18 usb=1.37 temp=13.3 hum=45.62 prs=995.39 Log=218970 Err=0
id=601518 time=19.05.2019 22:03:06 Vmax=1.5 Vmin=0.5 Vmid=1.2 Napr=295 uakb=13.2 usb=2.22 temp=13.33 hum=45.44 prs=995.38 Log=218969 Err=0
id=601517 time=19.05.2019 22:01:55 Vmax=1.6 Vmin=1.2 Vmid=1.4 Napr=295 uakb=13.2 usb=2.28 temp=13.35 hum=45.65 prs=995.4 Log=218968 Err=0
id=601516 time=19.05.2019 22:00:46 Vmax=1.5 Vmin=1.3 Vmid=1.4 Napr=295 uakb=13.22 usb=2.18 temp=13.39 hum=45.95 prs=995.38 Log=218967 Err=0
id=601515 time=19.05.2019 21:59:36 Vmax=1.6 Vmin=1.3 Vmid=1.4 Napr=295 uakb=13.22 usb=1.35 temp=13.44 hum=46.48 prs=995.37 Log=218966 Err=0
id=601514 time=19.05.2019 21:58:25 Vmax=1.6 Vmin=1.3 Vmid=1.4 Napr=295 uakb=13.24 usb=2.74 temp=13.5 hum=45.92 prs=995.35 Log=218965 Err=0
id=601513 time=19.05.2019 21:57:16 Vmax=1.4 Vmin=0.9 Vmid=1.1 Napr=295 uakb=13.26 usb=2.18 temp=13.55 hum=45.25 prs=995.35 Log=218964 Err=0
id=601512 time=19.05.2019 21:56:04 Vmax=1.3 Vmin=1.1 Vmid=1.2 Napr=295 uakb=13.24 usb=1.94 temp=13.61 hum=45.36 prs=995.32 Log=218963 Err=0
id=601511 time=19.05.2019 21:54:54 Vmax=1.5 Vmin=1.1 Vmid=1.2 Napr=295 uakb=13.26 usb=2.28 temp=13.66 hum=45.31 prs=995.31 Log=218962 Err=0
id=601510 time=19.05.2019 21:53:44 Vmax=1.6 Vmin=1.3 Vmid=1.4 Napr=295 uakb=13.28 usb=2.97 temp=13.71 hum=44.7 prs=995.31 Log=218961 Err=0
id=601509 time=19.05.2019 21:52:34 Vmax=2 Vmin=1.4 Vmid=1.8 Napr=295 uakb=13.28 usb=4.96 temp=13.75 hum=44.21 prs=995.3 Log=218960 Err=0
id=601508 time=19.05.2019 21:51:23 Vmax=1.6 Vmin=0.7 Vmid=1.3 Napr=295 uakb=13.3 usb=5.33 temp=13.79 hum=43.81 prs=995.29 Log=218959 Err=0
id=601507 time=19.05.2019 21:50:14 Vmax=1.6 Vmin=1.4 Vmid=1.5 Napr=295 uakb=13.3 usb=5.63 temp=13.82 hum=43.53 prs=995.27 Log=218958 Err=0
id=601506 time=19.05.2019 21:49:04 Vmax=1.9 Vmin=1.6 Vmid=1.8 Napr=295 uakb=13.32 usb=6.84 temp=13.86 hum=43.6 prs=995.24 Log=218957 Err=0
id=601505 time=19.05.2019 21:47:53 Vmax=1.9 Vmin=0.8 Vmid=1.3 Napr=295 uakb=13.32 usb=7.67 temp=13.94 hum=44.38 prs=995.24 Log=218956 Err=0
id=601504 time=19.05.2019 21:45:33 Vmax=1.1 Vmin=0.7 Vmid=0.9 Napr=295 uakb=13.34 usb=9.1 temp=14.07 hum=42.74 prs=995.19 Log=218954 Err=0
id=601503 time=19.05.2019 21:44:22 Vmax=1.5 Vmin=0.9 Vmid=1.2 Napr=295 uakb=13.36 usb=9.52 temp=14.11 hum=42.2 prs=995.18 Log=218953 Err=0
id=601502 time=19.05.2019 21:43:12 Vmax=1.5 Vmin=1.1 Vmid=1.3 Napr=295 uakb=13.36 usb=10.25 temp=14.15 hum=41.96 prs=995.15 Log=218952 Err=0
id=601501 time=19.05.2019 21:42:02 Vmax=1.4 Vmin=0.6 Vmid=0.9 Napr=295 uakb=13.38 usb=10.43 temp=14.2 hum=42.59 prs=995.15 Log=218951 Err=0
id=601500 time=19.05.2019 21:40:51 Vmax=0.8 Vmin=0.5 Vmid=0.7 Napr=295 uakb=13.38 usb=11.1 temp=14.28 hum=42.75 prs=995.11 Log=218950 Err=0
id=601499 time=19.05.2019 21:39:42 Vmax=1.2 Vmin=0.1 Vmid=0.7 Napr=295 uakb=13.38 usb=11.64 temp=14.34 hum=42.66 prs=995.07 Log=218949 Err=0
id=601498 time=19.05.2019 21:37:21 Vmax=1.9 Vmin=1.4 Vmid=1.5 Napr=295 uakb=13.42 usb=12.14 temp=14.46 hum=42.7 prs=995.03 Log=218947 Err=0
id=601497 time=19.05.2019 21:36:10 Vmax=2.2 Vmin=1.4 Vmid=1.8 Napr=295 uakb=13.44 usb=12.37 temp=14.51 hum=41.75 prs=995.03 Log=218946 Err=0
id=601496 time=19.05.2019 21:35:00 Vmax=1.6 Vmin=1.2 Vmid=1.4 Napr=295 uakb=13.44 usb=12.45 temp=14.58 hum=42.71 prs=995.02 Log=218945 Err=0
id=601495 time=19.05.2019 21:33:50 Vmax=1.6 Vmin=1.1 Vmid=1.3 Napr=295 uakb=13.46 usb=12.85 temp=14.65 hum=41.99 prs=994.99 Log=218944 Err=0
id=601494 time=19.05.2019 21:32:39 Vmax=2.3 Vmin=2 Vmid=2.1 Napr=294 uakb=13.48 usb=12.69 temp=14.69 hum=41.94 prs=995.01 Log=218943 Err=0
id=601493 time=19.05.2019 21:31:29 Vmax=2.9 Vmin=1.6 Vmid=2.2 Napr=290 uakb=13.48 usb=12.65 temp=14.73 hum=41.23 prs=994.95 Log=218942 Err=0
id=601492 time=19.05.2019 21:30:19 Vmax=2.6 Vmin=1.5 Vmid=1.9 Napr=281 uakb=13.5 usb=12.85 temp=14.76 hum=41.01 prs=994.95 Log=218941 Err=0
id=601491 time=19.05.2019 21:29:08 Vmax=2.5 Vmin=2.1 Vmid=2.2 Napr=292 uakb=13.5 usb=12.89 temp=14.82 hum=41.91 prs=994.9 Log=218940 Err=0
id=601490 time=19.05.2019 21:27:58 Vmax=2.3 Vmin=1.8 Vmid=2 Napr=292 uakb=13.52 usb=12.91 temp=14.91 hum=42.55 prs=994.89 Log=218939 Err=0
id=601489 time=19.05.2019 21:26:48 Vmax=2.5 Vmin=2 Vmid=2.2 Napr=292 uakb=13.54 usb=12.73 temp=14.98 hum=41.54 prs=994.89 Log=218938 Err=0
id=601488 time=19.05.2019 21:25:37 Vmax=2.5 Vmin=1.9 Vmid=2.1 Napr=292 uakb=13.54 usb=12.93 temp=15.04 hum=41.03 prs=994.87 Log=218937 Err=0
id=601487 time=19.05.2019 21:24:27 Vmax=2.5 Vmin=1.9 Vmid=2.1 Napr=292 uakb=13.56 usb=13.09 temp=15.11 hum=41.04 prs=994.88 Log=218936 Err=0
id=601486 time=19.05.2019 21:23:17 Vmax=2.9 Vmin=2.2 Vmid=2.5 Napr=283 uakb=13.58 usb=13.11 temp=15.16 hum=40.35 prs=994.86 Log=218935 Err=0
id=601485 time=19.05.2019 21:22:09 Vmax=3.2 Vmin=2 Vmid=2.5 Napr=287 uakb=13.58 usb=13.05 temp=15.2 hum=40.1 prs=994.85 Log=218934 Err=0
id=601484 time=19.05.2019 21:20:56 Vmax=2.8 Vmin=2 Vmid=2.5 Napr=285 uakb=13.6 usb=12.77 temp=15.28 hum=40.75 prs=994.84 Log=218933 Err=0
id=601483 time=19.05.2019 21:18:36 Vmax=3.3 Vmin=1.6 Vmid=2.1 Napr=279 uakb=13.62 usb=12.87 temp=15.37 hum=40.79 prs=994.86 Log=218931 Err=0
id=601482 time=19.05.2019 21:16:15 Vmax=3 Vmin=2.5 Vmid=2.7 Napr=284 uakb=13.64 usb=13.03 temp=15.44 hum=40.29 prs=994.79 Log=218929 Err=0
id=601481 time=19.05.2019 21:15:05 Vmax=2.9 Vmin=2.1 Vmid=2.6 Napr=282 uakb=13.64 usb=13.07 temp=15.51 hum=40.61 prs=994.75 Log=218928 Err=0
id=601480 time=19.05.2019 21:13:54 Vmax=3 Vmin=2.6 Vmid=2.8 Napr=281 uakb=13.66 usb=13.35 temp=15.58 hum=39.93 prs=994.76 Log=218927 Err=0
id=601479 time=19.05.2019 21:12:44 Vmax=2 Vmin=1.6 Vmid=1.8 Napr=281 uakb=13.68 usb=13.33 temp=15.68 hum=41.46 prs=994.79 Log=218926 Err=0
id=601478 time=19.05.2019 21:11:33 Vmax=2.6 Vmin=2.2 Vmid=2.3 Napr=281 uakb=13.68 usb=13.09 temp=15.72 hum=39.33 prs=994.75 Log=218925 Err=0
id=601477 time=19.05.2019 21:10:24 Vmax=3 Vmin=2.3 Vmid=2.6 Napr=282 uakb=13.7 usb=13.35 temp=15.78 hum=40.5 prs=994.74 Log=218924 Err=0
id=601476 time=19.05.2019 21:09:13 Vmax=2.7 Vmin=2.2 Vmid=2.5 Napr=283 uakb=13.7 usb=13.35 temp=15.83 hum=39.16 prs=994.72 Log=218923 Err=0
id=601475 time=19.05.2019 21:08:03 Vmax=3.5 Vmin=2.5 Vmid=2.9 Napr=288 uakb=13.72 usb=13.44 temp=15.85 hum=38.74 prs=994.76 Log=218922 Err=0
id=601474 time=19.05.2019 21:06:52 Vmax=3.6 Vmin=2.8 Vmid=3 Napr=288 uakb=13.72 usb=13.39 temp=15.91 hum=37.93 prs=994.73 Log=218921 Err=0
id=601473 time=19.05.2019 21:05:43 Vmax=4.6 Vmin=1.9 Vmid=3.6 Napr=288 uakb=13.72 usb=13.29 temp=15.92 hum=37.25 prs=994.7 Log=218920 Err=0
id=601472 time=19.05.2019 21:04:32 Vmax=4.7 Vmin=2.9 Vmid=3.6 Napr=291 uakb=13.74 usb=13.39 temp=15.96 hum=38.52 prs=994.72 Log=218919 Err=0
id=601471 time=19.05.2019 21:03:22 Vmax=3.5 Vmin=2.2 Vmid=3.2 Napr=285 uakb=13.74 usb=13.33 temp=16 hum=39.16 prs=994.66 Log=218918 Err=0
id=601470 time=19.05.2019 21:02:11 Vmax=3.3 Vmin=2.3 Vmid=2.6 Napr=290 uakb=13.76 usb=13.35 temp=16.03 hum=39.32 prs=994.67 Log=218917 Err=0
id=601469 time=19.05.2019 21:01:01 Vmax=4.3 Vmin=2.7 Vmid=3.3 Napr=288 uakb=13.76 usb=13.54 temp=16.06 hum=38.73 prs=994.69 Log=218916 Err=0
id=601468 time=19.05.2019 20:59:50 Vmax=2.8 Vmin=2.5 Vmid=2.5 Napr=278 uakb=13.78 usb=13.41 temp=16.08 hum=38.63 prs=994.69 Log=218915 Err=0
id=601467 time=19.05.2019 20:58:40 Vmax=3.4 Vmin=2.6 Vmid=2.9 Napr=278 uakb=13.78 usb=13.48 temp=16.1 hum=38.56 prs=994.67 Log=218914 Err=0
id=601466 time=19.05.2019 20:57:29 Vmax=3.6 Vmin=2.6 Vmid=3.2 Napr=279 uakb=13.8 usb=13.62 temp=16.11 hum=39 prs=994.6 Log=218913 Err=0
id=601465 time=19.05.2019 20:56:19 Vmax=3.7 Vmin=3 Vmid=3.4 Napr=281 uakb=13.8 usb=13.54 temp=16.13 hum=39.21 prs=994.63 Log=218912 Err=0
id=601464 time=19.05.2019 20:55:08 Vmax=4.4 Vmin=3 Vmid=3.6 Napr=278 uakb=13.82 usb=13.64 temp=16.19 hum=39.08 prs=994.63 Log=218911 Err=0
id=601463 time=19.05.2019 20:53:58 Vmax=4.7 Vmin=3.6 Vmid=4.2 Napr=282 uakb=13.82 usb=13.46 temp=16.24 hum=39.03 prs=994.62 Log=218910 Err=0
id=601462 time=19.05.2019 20:52:48 Vmax=4 Vmin=3 Vmid=3.5 Napr=275 uakb=13.84 usb=13.46 temp=16.31 hum=39.24 prs=994.59 Log=218909 Err=0
id=601461 time=19.05.2019 20:51:38 Vmax=5.1 Vmin=4.2 Vmid=4.7 Napr=276 uakb=13.86 usb=13.7 temp=16.35 hum=37.33 prs=994.59 Log=218908 Err=0
id=601460 time=19.05.2019 20:50:27 Vmax=3.7 Vmin=2.8 Vmid=3.2 Napr=279 uakb=13.86 usb=13.62 temp=16.39 hum=38.95 prs=994.6 Log=218907 Err=0
id=601459 time=19.05.2019 20:49:17 Vmax=4.4 Vmin=3.6 Vmid=3.9 Napr=278 uakb=13.86 usb=13.58 temp=16.42 hum=38.45 prs=994.57 Log=218906 Err=0
id=601458 time=19.05.2019 20:48:06 Vmax=4.4 Vmin=3.2 Vmid=3.4 Napr=286 uakb=13.88 usb=13.8 temp=16.46 hum=39.18 prs=994.56 Log=218905 Err=0
id=601457 time=19.05.2019 20:46:56 Vmax=5.1 Vmin=3.9 Vmid=4.3 Napr=279 uakb=13.88 usb=13.7 temp=16.5 hum=38.51 prs=994.57 Log=218904 Err=0
id=601456 time=19.05.2019 20:45:45 Vmax=4.7 Vmin=3.9 Vmid=4.2 Napr=278 uakb=13.88 usb=13.72 temp=16.51 hum=38.76 prs=994.58 Log=218903 Err=0
id=601455 time=19.05.2019 20:44:35 Vmax=5.5 Vmin=3.7 Vmid=4.3 Napr=278 uakb=13.92 usb=13.82 temp=16.56 hum=38.59 prs=994.57 Log=218902 Err=0
id=601454 time=19.05.2019 20:43:25 Vmax=4.6 Vmin=3.6 Vmid=4.1 Napr=277 uakb=13.92 usb=13.74 temp=16.58 hum=38.76 prs=994.55 Log=218901 Err=0
id=601453 time=19.05.2019 20:42:15 Vmax=6.3 Vmin=5 Vmid=5.5 Napr=286 uakb=13.92 usb=13.82 temp=16.64 hum=38.14 prs=994.53 Log=218900 Err=0
id=601452 time=19.05.2019 20:41:04 Vmax=5.5 Vmin=4.8 Vmid=5 Napr=289 uakb=13.94 usb=13.92 temp=16.72 hum=37.8 prs=994.52 Log=218899 Err=0
id=601451 time=19.05.2019 20:39:53 Vmax=5.8 Vmin=4.1 Vmid=4.7 Napr=289 uakb=13.94 usb=13.8 temp=16.79 hum=37.86 prs=994.46 Log=218898 Err=0
id=601450 time=19.05.2019 20:38:44 Vmax=5 Vmin=4.2 Vmid=4.6 Napr=285 uakb=13.98 usb=13.94 temp=16.85 hum=37.64 prs=994.48 Log=218897 Err=0
id=601449 time=19.05.2019 20:37:33 Vmax=5.5 Vmin=4.6 Vmid=5 Napr=288 uakb=13.98 usb=14.02 temp=16.9 hum=37.54 prs=994.54 Log=218896 Err=0
id=601448 time=19.05.2019 20:36:23 Vmax=4.1 Vmin=3.5 Vmid=3.6 Napr=281 uakb=13.98 usb=13.88 temp=16.97 hum=38.46 prs=994.47 Log=218895 Err=0
id=601447 time=19.05.2019 20:35:12 Vmax=4 Vmin=3 Vmid=3.5 Napr=278 uakb=14 usb=14.02 temp=17.05 hum=38.21 prs=994.5 Log=218894 Err=0
id=601446 time=19.05.2019 20:34:02 Vmax=4.1 Vmin=3.5 Vmid=3.6 Napr=280 uakb=14 usb=14.06 temp=17.12 hum=38.28 prs=994.47 Log=218893 Err=0
id=601445 time=19.05.2019 20:32:51 Vmax=4.7 Vmin=3.7 Vmid=4 Napr=277 uakb=14.04 usb=14.22 temp=17.17 hum=38.26 prs=994.47 Log=218892 Err=0
id=601444 time=19.05.2019 20:31:41 Vmax=3.7 Vmin=2.6 Vmid=3.3 Napr=274 uakb=14.02 usb=14.04 temp=17.25 hum=38.88 prs=994.44 Log=218891 Err=0
id=601443 time=19.05.2019 20:30:30 Vmax=4.1 Vmin=3.6 Vmid=3.9 Napr=272 uakb=14.06 usb=14.3 temp=17.27 hum=36.75 prs=994.39 Log=218890 Err=0
id=601442 time=19.05.2019 20:29:20 Vmax=3.9 Vmin=2.8 Vmid=3.4 Napr=279 uakb=14.06 usb=14.38 temp=17.3 hum=36.81 prs=994.41 Log=218889 Err=0
id=601441 time=19.05.2019 20:28:10 Vmax=4.3 Vmin=3.5 Vmid=3.7 Napr=276 uakb=14.06 usb=14.38 temp=17.34 hum=36.6 prs=994.39 Log=218888 Err=0
id=601440 time=19.05.2019 20:26:59 Vmax=4.6 Vmin=3 Vmid=3.9 Napr=282 uakb=14.08 usb=14.4 temp=17.4 hum=36.44 prs=994.35 Log=218887 Err=0
id=601439 time=19.05.2019 20:25:48 Vmax=4.3 Vmin=3.3 Vmid=3.7 Napr=282 uakb=14.08 usb=14.38 temp=17.44 hum=37.04 prs=994.32 Log=218886 Err=0
id=601438 time=19.05.2019 20:24:38 Vmax=4.3 Vmin=3.3 Vmid=3.7 Napr=283 uakb=14.08 usb=14.4 temp=17.5 hum=36.85 prs=994.33 Log=218885 Err=0
id=601437 time=19.05.2019 20:23:27 Vmax=3.5 Vmin=3 Vmid=3.2 Napr=275 uakb=14.08 usb=14.4 temp=17.55 hum=37.02 prs=994.37 Log=218884 Err=0
id=601436 time=19.05.2019 20:22:17 Vmax=4.4 Vmin=3.6 Vmid=4 Napr=274 uakb=14.08 usb=14.4 temp=17.57 hum=36.8 prs=994.35 Log=218883 Err=0
id=601435 time=19.05.2019 20:21:07 Vmax=5 Vmin=4.3 Vmid=4.7 Napr=281 uakb=14.08 usb=14.4 temp=17.64 hum=36.89 prs=994.35 Log=218882 Err=0
id=601434 time=19.05.2019 20:19:56 Vmax=4.2 Vmin=2.5 Vmid=3.3 Napr=283 uakb=14.08 usb=14.4 temp=17.75 hum=37.21 prs=994.34 Log=218881 Err=0
id=601433 time=19.05.2019 20:18:46 Vmax=2.8 Vmin=1.5 Vmid=2.2 Napr=284 uakb=14.08 usb=14.4 temp=17.79 hum=37.63 prs=994.29 Log=218880 Err=0
id=601432 time=19.05.2019 20:17:36 Vmax=5.6 Vmin=2.9 Vmid=4.2 Napr=268 uakb=14.08 usb=14.4 temp=17.83 hum=35.95 prs=994.28 Log=218879 Err=0
id=601431 time=19.05.2019 20:16:25 Vmax=5 Vmin=3.6 Vmid=4.1 Napr=266 uakb=14.08 usb=14.4 temp=17.85 hum=36.28 prs=994.27 Log=218878 Err=0
id=601430 time=19.05.2019 20:15:15 Vmax=3.9 Vmin=3 Vmid=3.4 Napr=268 uakb=14.08 usb=14.4 temp=17.83 hum=36.33 prs=994.25 Log=218877 Err=0
id=601429 time=19.05.2019 20:14:04 Vmax=4.2 Vmin=2.8 Vmid=3.5 Napr=265 uakb=14.08 usb=14.4 temp=17.88 hum=37.01 prs=994.26 Log=218876 Err=0
id=601428 time=19.05.2019 20:12:54 Vmax=4 Vmin=3 Vmid=3.6 Napr=256 uakb=14.08 usb=14.4 temp=17.9 hum=36.06 prs=994.24 Log=218875 Err=0
id=601427 time=19.05.2019 20:11:44 Vmax=4.3 Vmin=3.2 Vmid=3.7 Napr=257 uakb=14.08 usb=14.42 temp=17.92 hum=36.2 prs=994.23 Log=218874 Err=0
id=601426 time=19.05.2019 20:10:32 Vmax=4.7 Vmin=3.9 Vmid=4.4 Napr=263 uakb=14.08 usb=14.4 temp=17.94 hum=35.45 prs=994.2 Log=218873 Err=0
id=601425 time=19.05.2019 20:09:22 Vmax=4.1 Vmin=2.6 Vmid=3.3 Napr=269 uakb=14.08 usb=14.4 temp=17.93 hum=35.8 prs=994.16 Log=218872 Err=0
id=601424 time=19.05.2019 20:08:12 Vmax=3.9 Vmin=2.6 Vmid=3.2 Napr=272 uakb=14.08 usb=14.4 temp=17.92 hum=35.96 prs=994.19 Log=218871 Err=0
id=601423 time=19.05.2019 20:07:01 Vmax=4.1 Vmin=3.2 Vmid=3.7 Napr=269 uakb=14.08 usb=14.4 temp=17.92 hum=36.08 prs=994.22 Log=218870 Err=0
id=601422 time=19.05.2019 20:05:52 Vmax=3.5 Vmin=2.8 Vmid=3 Napr=270 uakb=14.08 usb=14.4 temp=17.93 hum=36.68 prs=994.23 Log=218869 Err=0
id=601421 time=19.05.2019 20:04:40 Vmax=4.1 Vmin=3 Vmid=3.5 Napr=263 uakb=14.08 usb=14.4 temp=17.89 hum=36.69 prs=994.22 Log=218868 Err=0
id=601420 time=19.05.2019 20:03:30 Vmax=4.4 Vmin=3.6 Vmid=4 Napr=259 uakb=14.08 usb=14.4 temp=17.92 hum=35.92 prs=994.24 Log=218867 Err=0
id=601419 time=19.05.2019 20:02:19 Vmax=5.1 Vmin=3.7 Vmid=4.1 Napr=267 uakb=14.08 usb=14.4 temp=17.92 hum=35.43 prs=994.2 Log=218866 Err=0
id=601418 time=19.05.2019 20:01:09 Vmax=5.6 Vmin=4.2 Vmid=5 Napr=270 uakb=14.08 usb=14.4 temp=17.93 hum=34.93 prs=994.23 Log=218865 Err=0
id=601417 time=19.05.2019 20:00:00 Vmax=6.3 Vmin=5.4 Vmid=5.7 Napr=271 uakb=14.1 usb=14.4 temp=17.98 hum=34.97 prs=994.22 Log=218864 Err=0
id=601416 time=19.05.2019 19:58:48 Vmax=6.3 Vmin=4.8 Vmid=5.4 Napr=265 uakb=14.08 usb=14.4 temp=18.06 hum=35.55 prs=994.17 Log=218863 Err=0
id=601415 time=19.05.2019 19:57:38 Vmax=5.8 Vmin=4.8 Vmid=5.2 Napr=261 uakb=14.08 usb=14.4 temp=18.08 hum=35.34 prs=994.17 Log=218862 Err=0
id=601414 time=19.05.2019 19:56:27 Vmax=5.2 Vmin=4.3 Vmid=4.6 Napr=262 uakb=14.08 usb=14.38 temp=18.1 hum=35.87 prs=994.15 Log=218861 Err=0
id=601413 time=19.05.2019 19:55:17 Vmax=5.8 Vmin=3.9 Vmid=5 Napr=270 uakb=14.1 usb=14.4 temp=18.13 hum=35.97 prs=994.16 Log=218860 Err=0
id=601412 time=19.05.2019 19:54:06 Vmax=5.7 Vmin=4.1 Vmid=4.9 Napr=270 uakb=14.08 usb=14.4 temp=18.23 hum=35.8 prs=994.12 Log=218859 Err=0
id=601411 time=19.05.2019 19:52:58 Vmax=5.2 Vmin=4.2 Vmid=4.7 Napr=266 uakb=14.08 usb=14.4 temp=18.21 hum=35.77 prs=994.13 Log=218858 Err=0
id=601410 time=19.05.2019 19:51:46 Vmax=4.6 Vmin=3 Vmid=3.7 Napr=269 uakb=14.08 usb=14.4 temp=18.2 hum=36.46 prs=994.12 Log=218857 Err=0
id=601409 time=19.05.2019 19:50:35 Vmax=5.9 Vmin=4.4 Vmid=4.9 Napr=272 uakb=14.08 usb=14.4 temp=18.19 hum=36.04 prs=994.1 Log=218856 Err=0
id=601408 time=19.05.2019 19:49:25 Vmax=7.8 Vmin=6.1 Vmid=6.9 Napr=278 uakb=14.08 usb=14.4 temp=18.22 hum=35.12 prs=994.06 Log=218855 Err=0
id=601407 time=19.05.2019 19:48:14 Vmax=5.8 Vmin=3.5 Vmid=4.6 Napr=273 uakb=14.08 usb=14.4 temp=18.31 hum=36.3 prs=994.11 Log=218854 Err=0
id=601406 time=19.05.2019 19:47:03 Vmax=5.1 Vmin=4.3 Vmid=4.8 Napr=276 uakb=14.08 usb=14.4 temp=18.36 hum=36.21 prs=994.07 Log=218853 Err=0
id=601405 time=19.05.2019 19:45:53 Vmax=6.9 Vmin=5.4 Vmid=5.9 Napr=277 uakb=14.08 usb=14.4 temp=18.39 hum=35.8 prs=994.06 Log=218852 Err=0
id=601404 time=19.05.2019 19:44:43 Vmax=5.5 Vmin=4.7 Vmid=4.9 Napr=277 uakb=14.08 usb=14.4 temp=18.55 hum=37.03 prs=994.04 Log=218851 Err=0
id=601403 time=19.05.2019 19:43:32 Vmax=6.2 Vmin=3.5 Vmid=4.7 Napr=270 uakb=14.08 usb=14.4 temp=18.6 hum=37.49 prs=994.04 Log=218850 Err=0
id=601402 time=19.05.2019 19:42:21 Vmax=3.9 Vmin=3 Vmid=3.4 Napr=266 uakb=14.08 usb=14.4 temp=18.64 hum=37.64 prs=994.01 Log=218849 Err=0
id=601401 time=19.05.2019 19:41:11 Vmax=4 Vmin=2.7 Vmid=3.2 Napr=264 uakb=14.08 usb=14.38 temp=18.61 hum=38.16 prs=994.02 Log=218848 Err=0
id=601400 time=19.05.2019 19:40:00 Vmax=4 Vmin=2.7 Vmid=3.4 Napr=261 uakb=14.08 usb=14.4 temp=18.57 hum=37.35 prs=994.06 Log=218847 Err=0
id=601399 time=19.05.2019 19:38:50 Vmax=4.8 Vmin=4.3 Vmid=4.4 Napr=264 uakb=14.08 usb=14.4 temp=18.55 hum=37.12 prs=994.07 Log=218846 Err=0
id=601398 time=19.05.2019 19:37:39 Vmax=4.7 Vmin=3.5 Vmid=4.2 Napr=269 uakb=14.08 usb=14.4 temp=18.63 hum=37.3 prs=994.04 Log=218845 Err=0
id=601397 time=19.05.2019 19:36:29 Vmax=5.8 Vmin=4.3 Vmid=5 Napr=263 uakb=14.08 usb=14.4 temp=18.67 hum=37.5 prs=994.03 Log=218844 Err=0
id=601396 time=19.05.2019 19:35:19 Vmax=6.3 Vmin=5.2 Vmid=5.6 Napr=257 uakb=14.08 usb=14.38 temp=18.74 hum=36.65 prs=994.02 Log=218843 Err=0
id=601395 time=19.05.2019 19:34:08 Vmax=6.1 Vmin=4.4 Vmid=5.2 Napr=257 uakb=14.08 usb=14.4 temp=18.83 hum=36.78 prs=994 Log=218842 Err=0
id=601394 time=19.05.2019 19:32:57 Vmax=7 Vmin=5.4 Vmid=5.9 Napr=264 uakb=14.08 usb=14.4 temp=18.98 hum=36.54 prs=994 Log=218841 Err=0
id=601393 time=19.05.2019 19:31:46 Vmax=5.8 Vmin=5.1 Vmid=5.5 Napr=256 uakb=14.08 usb=14.4 temp=19.11 hum=36.75 prs=993.97 Log=218840 Err=0
id=601392 time=19.05.2019 19:30:37 Vmax=5.6 Vmin=4 Vmid=5 Napr=258 uakb=14.08 usb=14.38 temp=19.23 hum=36.89 prs=993.95 Log=218839 Err=0
id=601391 time=19.05.2019 19:29:25 Vmax=4.7 Vmin=3 Vmid=3.9 Napr=270 uakb=14.08 usb=14.4 temp=19.33 hum=36.92 prs=993.99 Log=218838 Err=0
id=601390 time=19.05.2019 19:28:15 Vmax=4.8 Vmin=3.9 Vmid=4.4 Napr=272 uakb=14.08 usb=14.4 temp=19.41 hum=36.42 prs=993.93 Log=218837 Err=0
id=601389 time=19.05.2019 19:27:05 Vmax=4.1 Vmin=3.4 Vmid=3.7 Napr=264 uakb=14.08 usb=14.38 temp=19.44 hum=36.82 prs=993.89 Log=218836 Err=0
id=601388 time=19.05.2019 19:25:54 Vmax=4.9 Vmin=3.5 Vmid=4.2 Napr=250 uakb=14.08 usb=14.4 temp=19.44 hum=36.8 prs=993.86 Log=218835 Err=0
id=601387 time=19.05.2019 19:24:43 Vmax=5.1 Vmin=2.9 Vmid=4.1 Napr=255 uakb=14.08 usb=14.4 temp=19.45 hum=36.84 prs=993.86 Log=218834 Err=0
id=601386 time=19.05.2019 19:23:33 Vmax=4.6 Vmin=3.5 Vmid=4.1 Napr=256 uakb=14.08 usb=14.4 temp=19.46 hum=37.07 prs=993.87 Log=218833 Err=0
id=601385 time=19.05.2019 19:22:23 Vmax=5.6 Vmin=3.9 Vmid=4.4 Napr=256 uakb=14.08 usb=14.4 temp=19.53 hum=36.65 prs=993.88 Log=218832 Err=0
id=601384 time=19.05.2019 19:21:12 Vmax=4.6 Vmin=3.2 Vmid=3.9 Napr=253 uakb=14.08 usb=14.4 temp=19.56 hum=37.12 prs=993.89 Log=218831 Err=0
id=601383 time=19.05.2019 19:20:02 Vmax=4.7 Vmin=3.3 Vmid=4 Napr=256 uakb=14.08 usb=14.4 temp=19.55 hum=36.25 prs=993.89 Log=218830 Err=0
id=601382 time=19.05.2019 19:18:51 Vmax=5 Vmin=3.2 Vmid=4 Napr=261 uakb=14.08 usb=14.38 temp=19.56 hum=36 prs=993.88 Log=218829 Err=0
id=601381 time=19.05.2019 19:17:40 Vmax=4.7 Vmin=3.6 Vmid=4.2 Napr=261 uakb=14.08 usb=14.4 temp=19.6 hum=35.89 prs=993.87 Log=218828 Err=0
id=601380 time=19.05.2019 19:16:31 Vmax=5.6 Vmin=4.2 Vmid=5.1 Napr=257 uakb=14.08 usb=14.38 temp=19.74 hum=35.81 prs=993.84 Log=218827 Err=0
id=601379 time=19.05.2019 19:15:19 Vmax=4.9 Vmin=4 Vmid=4.3 Napr=252 uakb=14.08 usb=14.4 temp=19.88 hum=36.89 prs=993.85 Log=218826 Err=0
id=601378 time=19.05.2019 19:14:08 Vmax=4.7 Vmin=3.7 Vmid=4.2 Napr=243 uakb=14.08 usb=14.4 temp=20 hum=36.06 prs=993.84 Log=218825 Err=0
id=601377 time=19.05.2019 19:12:58 Vmax=5.6 Vmin=3.9 Vmid=4.3 Napr=241 uakb=14.08 usb=14.38 temp=20.02 hum=37 prs=993.8 Log=218824 Err=0
id=601376 time=19.05.2019 19:11:48 Vmax=4.9 Vmin=3.3 Vmid=4 Napr=244 uakb=14.08 usb=14.4 temp=20.02 hum=37.27 prs=993.84 Log=218823 Err=0
id=601375 time=19.05.2019 19:10:37 Vmax=4.7 Vmin=3.2 Vmid=3.7 Napr=242 uakb=14.08 usb=14.4 temp=20.03 hum=37.67 prs=993.81 Log=218822 Err=0
id=601374 time=19.05.2019 19:09:26 Vmax=4.1 Vmin=2.8 Vmid=3.4 Napr=239 uakb=14.08 usb=14.4 temp=19.98 hum=37.88 prs=993.81 Log=218821 Err=0
id=601373 time=19.05.2019 19:08:15 Vmax=3.6 Vmin=2.5 Vmid=3.2 Napr=234 uakb=14.08 usb=14.4 temp=19.94 hum=37.99 prs=993.81 Log=218820 Err=0
id=601372 time=19.05.2019 19:07:05 Vmax=3.6 Vmin=2.7 Vmid=3.2 Napr=236 uakb=14.08 usb=14.4 temp=19.84 hum=38.51 prs=993.81 Log=218819 Err=0
id=601371 time=19.05.2019 19:05:54 Vmax=3.7 Vmin=2.6 Vmid=3 Napr=235 uakb=14.08 usb=14.38 temp=19.7 hum=38.18 prs=993.76 Log=218818 Err=0
id=601370 time=19.05.2019 19:04:45 Vmax=3.5 Vmin=2.8 Vmid=3 Napr=235 uakb=14.08 usb=14.4 temp=19.54 hum=38 prs=993.73 Log=218817 Err=0
id=601369 time=19.05.2019 19:03:33 Vmax=4.8 Vmin=3.5 Vmid=4.1 Napr=244 uakb=14.08 usb=14.4 temp=19.41 hum=37.98 prs=993.7 Log=218816 Err=0
id=601368 time=19.05.2019 19:02:24 Vmax=4.9 Vmin=3.5 Vmid=4.1 Napr=260 uakb=14.08 usb=14.4 temp=19.34 hum=38.31 prs=993.72 Log=218815 Err=0
id=601367 time=19.05.2019 19:01:13 Vmax=5.6 Vmin=3.5 Vmid=4.6 Napr=269 uakb=14.08 usb=14.38 temp=19.32 hum=38.07 prs=993.7 Log=218814 Err=0
id=601366 time=19.05.2019 19:00:02 Vmax=5.8 Vmin=4.8 Vmid=5.4 Napr=268 uakb=14.08 usb=14.4 temp=19.37 hum=38.28 prs=993.69 Log=218813 Err=0
id=601365 time=19.05.2019 18:58:53 Vmax=5.7 Vmin=4 Vmid=4.8 Napr=270 uakb=14.08 usb=14.4 temp=19.51 hum=38.14 prs=993.69 Log=218812 Err=0
id=601364 time=19.05.2019 18:57:41 Vmax=4.9 Vmin=3.5 Vmid=4.2 Napr=264 uakb=14.08 usb=14.4 temp=19.67 hum=37.49 prs=993.73 Log=218811 Err=0
id=601363 time=19.05.2019 18:56:30 Vmax=6.5 Vmin=5.1 Vmid=5.8 Napr=263 uakb=14.08 usb=14.38 temp=19.87 hum=37.69 prs=993.7 Log=218810 Err=0
id=601362 time=19.05.2019 18:55:20 Vmax=5.7 Vmin=3.7 Vmid=4.8 Napr=259 uakb=14.08 usb=14.4 temp=20.09 hum=38.37 prs=993.65 Log=218809 Err=0
id=601361 time=19.05.2019 18:54:09 Vmax=4.6 Vmin=3.2 Vmid=3.9 Napr=244 uakb=14.08 usb=14.4 temp=20.17 hum=38.98 prs=993.66 Log=218808 Err=0
id=601360 time=19.05.2019 18:52:59 Vmax=3.6 Vmin=2.3 Vmid=2.9 Napr=245 uakb=14.08 usb=14.4 temp=20.15 hum=39.62 prs=993.64 Log=218807 Err=0
id=601359 time=19.05.2019 18:51:49 Vmax=3.5 Vmin=2.6 Vmid=3 Napr=238 uakb=14.08 usb=14.4 temp=20.06 hum=39.6 prs=993.59 Log=218806 Err=0
id=601358 time=19.05.2019 18:50:38 Vmax=3.4 Vmin=1.9 Vmid=2.8 Napr=231 uakb=14.08 usb=14.4 temp=19.96 hum=39.61 prs=993.58 Log=218805 Err=0
id=601357 time=19.05.2019 18:48:17 Vmax=4.4 Vmin=2.3 Vmid=3 Napr=239 uakb=14.08 usb=14.38 temp=19.92 hum=39.96 prs=993.62 Log=218803 Err=0
id=601356 time=19.05.2019 18:47:06 Vmax=4.8 Vmin=2.1 Vmid=3.2 Napr=233 uakb=14.08 usb=14.4 temp=19.95 hum=39.81 prs=993.63 Log=218802 Err=0
id=601355 time=19.05.2019 18:45:56 Vmax=3.2 Vmin=2.6 Vmid=2.7 Napr=231 uakb=14.08 usb=14.4 temp=19.95 hum=39.83 prs=993.6 Log=218801 Err=0
id=601354 time=19.05.2019 18:44:45 Vmax=4.1 Vmin=3.3 Vmid=3.6 Napr=235 uakb=14.08 usb=14.38 temp=19.91 hum=39.74 prs=993.61 Log=218800 Err=0
id=601353 time=19.05.2019 18:43:34 Vmax=5 Vmin=3.6 Vmid=4.4 Napr=243 uakb=14.08 usb=14.38 temp=19.92 hum=39.29 prs=993.61 Log=218799 Err=0
id=601352 time=19.05.2019 18:42:25 Vmax=5.5 Vmin=4.4 Vmid=4.9 Napr=246 uakb=14.08 usb=14.38 temp=19.99 hum=39.97 prs=993.6 Log=218798 Err=0
id=601351 time=19.05.2019 18:41:15 Vmax=5.6 Vmin=2.8 Vmid=3.9 Napr=251 uakb=14.08 usb=14.4 temp=20.05 hum=40.19 prs=993.6 Log=218797 Err=0
id=601350 time=19.05.2019 18:40:03 Vmax=3.2 Vmin=2.8 Vmid=2.8 Napr=249 uakb=14.08 usb=14.4 temp=19.99 hum=40.12 prs=993.58 Log=218796 Err=0
id=601349 time=19.05.2019 18:38:52 Vmax=4 Vmin=2.6 Vmid=3.3 Napr=250 uakb=14.08 usb=14.38 temp=19.93 hum=40 prs=993.54 Log=218795 Err=0
id=601348 time=19.05.2019 18:37:42 Vmax=4.6 Vmin=3.3 Vmid=4 Napr=255 uakb=14.08 usb=14.4 temp=19.88 hum=40.17 prs=993.59 Log=218794 Err=0
id=601347 time=19.05.2019 18:36:31 Vmax=5.2 Vmin=4.1 Vmid=4.6 Napr=257 uakb=14.08 usb=14.4 temp=19.95 hum=39.61 prs=993.56 Log=218793 Err=0
id=601346 time=19.05.2019 18:35:21 Vmax=5.8 Vmin=3.2 Vmid=4.3 Napr=255 uakb=14.08 usb=14.4 temp=20.03 hum=39.96 prs=993.54 Log=218792 Err=0
id=601345 time=19.05.2019 18:34:10 Vmax=4.6 Vmin=3.6 Vmid=4 Napr=252 uakb=14.08 usb=14.4 temp=20.04 hum=40 prs=993.56 Log=218791 Err=0
id=601344 time=19.05.2019 18:33:00 Vmax=4.2 Vmin=3.3 Vmid=3.6 Napr=250 uakb=14.08 usb=14.38 temp=20.08 hum=40.05 prs=993.59 Log=218790 Err=0
id=601343 time=19.05.2019 18:31:49 Vmax=5.2 Vmin=3.9 Vmid=4.7 Napr=251 uakb=14.06 usb=14.4 temp=20.09 hum=39.9 prs=993.57 Log=218789 Err=0
id=601342 time=19.05.2019 18:30:38 Vmax=4.7 Vmin=3.7 Vmid=4.1 Napr=244 uakb=14.08 usb=14.4 temp=20.15 hum=39.82 prs=993.57 Log=218788 Err=0
id=601341 time=19.05.2019 18:29:28 Vmax=5.2 Vmin=4 Vmid=4.4 Napr=240 uakb=14.08 usb=14.4 temp=20.09 hum=40.03 prs=993.55 Log=218787 Err=0
id=601340 time=19.05.2019 18:28:17 Vmax=5.1 Vmin=4 Vmid=4.3 Napr=238 uakb=14.08 usb=14.4 temp=20.04 hum=40.24 prs=993.54 Log=218786 Err=0
id=601339 time=19.05.2019 18:27:07 Vmax=5.8 Vmin=4.6 Vmid=5.2 Napr=242 uakb=14.08 usb=14.4 temp=19.97 hum=40.18 prs=993.57 Log=218785 Err=0
id=601338 time=19.05.2019 18:25:56 Vmax=4 Vmin=3 Vmid=3.4 Napr=240 uakb=14.08 usb=14.4 temp=19.86 hum=40.56 prs=993.55 Log=218784 Err=0
id=601337 time=19.05.2019 18:24:46 Vmax=4.6 Vmin=3.6 Vmid=4 Napr=248 uakb=14.08 usb=14.38 temp=19.74 hum=40.54 prs=993.52 Log=218783 Err=0
id=601336 time=19.05.2019 18:23:35 Vmax=4.6 Vmin=3.7 Vmid=4.1 Napr=248 uakb=14.08 usb=14.4 temp=19.73 hum=40.66 prs=993.57 Log=218782 Err=0
id=601335 time=19.05.2019 18:22:25 Vmax=5.1 Vmin=3.7 Vmid=4.3 Napr=249 uakb=14.08 usb=14.4 temp=19.72 hum=41.15 prs=993.53 Log=218781 Err=0
id=601334 time=19.05.2019 18:21:14 Vmax=4.7 Vmin=3.5 Vmid=3.7 Napr=243 uakb=14.08 usb=14.38 temp=19.7 hum=41.26 prs=993.55 Log=218780 Err=0
id=601333 time=19.05.2019 18:20:04 Vmax=5.8 Vmin=4.6 Vmid=5 Napr=247 uakb=14.08 usb=14.4 temp=19.6 hum=41.08 prs=993.53 Log=218779 Err=0
id=601332 time=19.05.2019 18:18:53 Vmax=5.7 Vmin=4.7 Vmid=5 Napr=249 uakb=14.08 usb=14.4 temp=19.57 hum=41.45 prs=993.47 Log=218778 Err=0
id=601331 time=19.05.2019 18:17:43 Vmax=5 Vmin=4.1 Vmid=4.7 Napr=247 uakb=14.08 usb=14.4 temp=19.59 hum=41.59 prs=993.47 Log=218777 Err=0
id=601330 time=19.05.2019 18:16:32 Vmax=5 Vmin=3.6 Vmid=4.3 Napr=250 uakb=14.08 usb=14.4 temp=19.61 hum=41.51 prs=993.46 Log=218776 Err=0
id=601329 time=19.05.2019 18:15:21 Vmax=5.6 Vmin=4.7 Vmid=5.1 Napr=247 uakb=14.06 usb=14.4 temp=19.67 hum=40.99 prs=993.49 Log=218775 Err=0
id=601328 time=19.05.2019 18:14:11 Vmax=4.6 Vmin=3.7 Vmid=4.1 Napr=244 uakb=14.08 usb=14.4 temp=19.88 hum=41.1 prs=993.48 Log=218774 Err=0
id=601327 time=19.05.2019 18:11:52 Vmax=5.1 Vmin=3.5 Vmid=4.4 Napr=229 uakb=14.06 usb=14.4 temp=20.06 hum=40.81 prs=993.47 Log=218772 Err=0
id=601326 time=19.05.2019 18:10:40 Vmax=4.8 Vmin=3.7 Vmid=4.2 Napr=226 uakb=14.08 usb=14.4 temp=20.08 hum=40.74 prs=993.47 Log=218771 Err=0
id=601325 time=19.05.2019 18:09:29 Vmax=4.8 Vmin=3.6 Vmid=4.1 Napr=224 uakb=14.08 usb=14.4 temp=20.11 hum=40.97 prs=993.46 Log=218770 Err=0
id=601324 time=19.05.2019 18:08:20 Vmax=5.7 Vmin=3.4 Vmid=4.3 Napr=224 uakb=14.08 usb=14.4 temp=20.16 hum=40.99 prs=993.5 Log=218769 Err=0
id=601323 time=19.05.2019 18:07:07 Vmax=4.9 Vmin=3.7 Vmid=4.2 Napr=224 uakb=14.08 usb=14.4 temp=20.16 hum=41.06 prs=993.47 Log=218768 Err=0
id=601322 time=19.05.2019 18:05:58 Vmax=5 Vmin=3.6 Vmid=4.2 Napr=228 uakb=14.08 usb=14.38 temp=20.12 hum=41.33 prs=993.43 Log=218767 Err=0
id=601321 time=19.05.2019 18:04:47 Vmax=5 Vmin=4.2 Vmid=4.7 Napr=224 uakb=14.08 usb=14.38 temp=20.12 hum=41.3 prs=993.43 Log=218766 Err=0
id=601320 time=19.05.2019 18:03:36 Vmax=5.5 Vmin=4.1 Vmid=4.6 Napr=230 uakb=14.08 usb=14.4 temp=20.17 hum=41.15 prs=993.44 Log=218765 Err=0
id=601319 time=19.05.2019 18:02:26 Vmax=5.1 Vmin=3.7 Vmid=4.6 Napr=234 uakb=14.08 usb=14.38 temp=20.19 hum=40.96 prs=993.43 Log=218764 Err=0
id=601318 time=19.05.2019 18:01:15 Vmax=5.5 Vmin=4.4 Vmid=4.9 Napr=233 uakb=14.08 usb=14.38 temp=20.24 hum=40.67 prs=993.45 Log=218763 Err=0
id=601317 time=19.05.2019 18:00:04 Vmax=5.5 Vmin=4.4 Vmid=4.8 Napr=236 uakb=14.08 usb=14.4 temp=20.27 hum=40.64 prs=993.44 Log=218762 Err=0
id=601316 time=19.05.2019 17:58:54 Vmax=5.6 Vmin=3.7 Vmid=4.9 Napr=244 uakb=14.08 usb=14.4 temp=20.33 hum=40.49 prs=993.42 Log=218761 Err=0
id=601315 time=19.05.2019 17:57:44 Vmax=6.9 Vmin=4.9 Vmid=5.9 Napr=245 uakb=14.08 usb=14.4 temp=20.4 hum=40.46 prs=993.41 Log=218760 Err=0
id=601314 time=19.05.2019 17:56:33 Vmax=7.9 Vmin=5.7 Vmid=6.9 Napr=235 uakb=14.08 usb=14.38 temp=20.49 hum=40.82 prs=993.4 Log=218759 Err=0
id=601313 time=19.05.2019 17:55:23 Vmax=5.1 Vmin=2 Vmid=3.2 Napr=226 uakb=14.08 usb=14.4 temp=20.5 hum=42.36 prs=993.39 Log=218758 Err=0
id=601312 time=19.05.2019 17:54:12 Vmax=3.4 Vmin=2.2 Vmid=2.8 Napr=219 uakb=14.08 usb=14.4 temp=20.42 hum=42.49 prs=993.36 Log=218757 Err=0
id=601311 time=19.05.2019 17:53:02 Vmax=3 Vmin=2.2 Vmid=2.7 Napr=228 uakb=14.08 usb=14.4 temp=20.28 hum=42.7 prs=993.34 Log=218756 Err=0
id=601310 time=19.05.2019 17:51:52 Vmax=5.1 Vmin=3 Vmid=4 Napr=226 uakb=14.08 usb=14.4 temp=20.16 hum=42.38 prs=993.31 Log=218755 Err=0
id=601309 time=19.05.2019 17:48:21 Vmax=4.2 Vmin=2.7 Vmid=3.5 Napr=232 uakb=14.08 usb=14.4 temp=19.65 hum=43.63 prs=993.26 Log=218752 Err=0
id=601308 time=19.05.2019 17:47:10 Vmax=4.8 Vmin=3.7 Vmid=4.2 Napr=237 uakb=14.08 usb=14.4 temp=19.48 hum=44.04 prs=993.21 Log=218751 Err=0
id=601307 time=19.05.2019 17:46:00 Vmax=5.1 Vmin=4.1 Vmid=4.4 Napr=225 uakb=14.08 usb=14.4 temp=19.31 hum=44.87 prs=993.24 Log=218750 Err=0
id=601306 time=19.05.2019 17:44:49 Vmax=3.7 Vmin=3.2 Vmid=3.4 Napr=234 uakb=14.08 usb=14.4 temp=19.14 hum=44.97 prs=993.21 Log=218749 Err=0
id=601305 time=19.05.2019 17:43:38 Vmax=4.8 Vmin=2.6 Vmid=3.6 Napr=243 uakb=14.08 usb=14.4 temp=19.01 hum=44.84 prs=993.2 Log=218748 Err=0
id=601304 time=19.05.2019 17:41:17 Vmax=5.5 Vmin=3.5 Vmid=4.6 Napr=251 uakb=14.08 usb=14.4 temp=18.86 hum=45.01 prs=993.14 Log=218746 Err=0
id=601303 time=19.05.2019 17:40:06 Vmax=6.5 Vmin=5.7 Vmid=6.1 Napr=250 uakb=14.06 usb=14.4 temp=18.99 hum=44.68 prs=993.15 Log=218745 Err=0
id=601302 time=19.05.2019 17:38:58 Vmax=6.6 Vmin=5.6 Vmid=6.3 Napr=243 uakb=14.08 usb=14.4 temp=19.19 hum=44.25 prs=993.09 Log=218744 Err=0
id=601301 time=19.05.2019 17:37:46 Vmax=7.2 Vmin=4.4 Vmid=5.4 Napr=245 uakb=14.08 usb=14.4 temp=19.38 hum=44.44 prs=993.07 Log=218743 Err=0
id=601300 time=19.05.2019 17:36:35 Vmax=5.5 Vmin=4.3 Vmid=4.8 Napr=241 uakb=14.08 usb=14.38 temp=19.51 hum=44.46 prs=993.12 Log=218742 Err=0
id=601299 time=19.05.2019 17:35:25 Vmax=6.5 Vmin=5 Vmid=5.6 Napr=242 uakb=14.08 usb=14.4 temp=19.51 hum=44.63 prs=993.11 Log=218741 Err=0
id=601298 time=19.05.2019 17:34:14 Vmax=5.6 Vmin=3.7 Vmid=4.7 Napr=245 uakb=14.08 usb=14.4 temp=19.44 hum=44.96 prs=993.08 Log=218740 Err=0
id=601297 time=19.05.2019 17:33:04 Vmax=5.7 Vmin=4.2 Vmid=5 Napr=237 uakb=14.08 usb=14.4 temp=19.41 hum=45.27 prs=993.05 Log=218739 Err=0
id=601296 time=19.05.2019 17:30:43 Vmax=4.7 Vmin=2.5 Vmid=3.5 Napr=226 uakb=14.08 usb=14.4 temp=19.32 hum=46.55 prs=993.05 Log=218737 Err=0
id=601295 time=19.05.2019 17:29:33 Vmax=3.6 Vmin=2.7 Vmid=3 Napr=228 uakb=14.08 usb=14.38 temp=19.12 hum=46.98 prs=993.01 Log=218736 Err=0
id=601294 time=19.05.2019 17:28:22 Vmax=3.3 Vmin=2.5 Vmid=2.8 Napr=228 uakb=14.06 usb=14.4 temp=18.92 hum=47.64 prs=992.96 Log=218735 Err=0
id=601293 time=19.05.2019 17:27:12 Vmax=3.4 Vmin=2.3 Vmid=2.7 Napr=231 uakb=14.08 usb=14.4 temp=18.71 hum=47.83 prs=992.97 Log=218734 Err=0
id=601292 time=19.05.2019 17:26:02 Vmax=4.4 Vmin=2 Vmid=3.3 Napr=241 uakb=14.08 usb=14.4 temp=18.52 hum=48.02 prs=992.96 Log=218733 Err=0
id=601291 time=19.05.2019 17:24:51 Vmax=4.3 Vmin=3.2 Vmid=3.5 Napr=242 uakb=14.08 usb=14.4 temp=18.34 hum=48.26 prs=992.94 Log=218732 Err=0
id=601290 time=19.05.2019 17:23:40 Vmax=4.7 Vmin=2.8 Vmid=3.9 Napr=243 uakb=14.08 usb=14.4 temp=18.23 hum=48.18 prs=992.92 Log=218731 Err=0
id=601289 time=19.05.2019 17:22:30 Vmax=4.1 Vmin=3.3 Vmid=3.6 Napr=241 uakb=14.06 usb=14.4 temp=18.12 hum=48.39 prs=992.87 Log=218730 Err=0
id=601288 time=19.05.2019 17:21:19 Vmax=4.9 Vmin=3.9 Vmid=4.3 Napr=242 uakb=14.08 usb=14.4 temp=18.01 hum=48.17 prs=992.93 Log=218729 Err=0
id=601287 time=19.05.2019 17:20:09 Vmax=5.9 Vmin=4.4 Vmid=5.4 Napr=250 uakb=14.06 usb=14.4 temp=17.96 hum=48.1 prs=992.8 Log=218728 Err=0
id=601286 time=19.05.2019 17:18:58 Vmax=7.6 Vmin=4.6 Vmid=6.1 Napr=270 uakb=14.08 usb=14.4 temp=17.97 hum=48.34 prs=992.77 Log=218727 Err=0
id=601285 time=19.05.2019 17:17:48 Vmax=5.9 Vmin=5 Vmid=5.6 Napr=268 uakb=14.08 usb=14.4 temp=18 hum=48.62 prs=992.81 Log=218726 Err=0
id=601284 time=19.05.2019 17:16:38 Vmax=6.5 Vmin=4.4 Vmid=5.6 Napr=264 uakb=14.06 usb=14.4 temp=18.03 hum=48.58 prs=992.87 Log=218725 Err=0
id=601283 time=19.05.2019 17:15:26 Vmax=6.4 Vmin=4.1 Vmid=5.1 Napr=265 uakb=14.08 usb=14.4 temp=18.04 hum=48.29 prs=992.83 Log=218724 Err=0
id=601282 time=19.05.2019 17:14:16 Vmax=6.9 Vmin=5 Vmid=5.8 Napr=254 uakb=14.08 usb=14.4 temp=18.06 hum=48.65 prs=992.81 Log=218723 Err=0
id=601281 time=19.05.2019 17:13:06 Vmax=6.9 Vmin=5 Vmid=5.7 Napr=255 uakb=14.08 usb=14.4 temp=18.06 hum=48.4 prs=992.86 Log=218722 Err=0
id=601280 time=19.05.2019 17:11:56 Vmax=5.8 Vmin=4.1 Vmid=5 Napr=248 uakb=14.08 usb=14.4 temp=18.06 hum=48.5 prs=992.79 Log=218721 Err=0
id=601279 time=19.05.2019 17:10:46 Vmax=6.8 Vmin=4.4 Vmid=5.7 Napr=256 uakb=14.06 usb=14.4 temp=18.05 hum=48.67 prs=992.86 Log=218720 Err=0
id=601278 time=19.05.2019 17:09:35 Vmax=6.2 Vmin=4.9 Vmid=5.6 Napr=272 uakb=14.08 usb=14.4 temp=18.05 hum=48.58 prs=992.76 Log=218719 Err=0
id=601277 time=19.05.2019 17:08:24 Vmax=6.2 Vmin=5.2 Vmid=5.7 Napr=276 uakb=14.06 usb=14.4 temp=18.1 hum=48.53 prs=992.68 Log=218718 Err=0
id=601276 time=19.05.2019 17:07:13 Vmax=7.3 Vmin=5.8 Vmid=6.3 Napr=274 uakb=14.08 usb=14.4 temp=18.16 hum=48.39 prs=992.62 Log=218717 Err=0
id=601275 time=19.05.2019 17:06:04 Vmax=8.3 Vmin=4.9 Vmid=6.4 Napr=271 uakb=14.06 usb=14.4 temp=18.26 hum=48.14 prs=992.57 Log=218716 Err=0
id=601274 time=19.05.2019 17:04:53 Vmax=8.4 Vmin=7 Vmid=7.6 Napr=272 uakb=14.08 usb=14.4 temp=18.32 hum=47.57 prs=992.5 Log=218715 Err=0
id=601273 time=19.05.2019 17:03:42 Vmax=7.6 Vmin=5.2 Vmid=6.3 Napr=271 uakb=14.08 usb=14.38 temp=18.42 hum=47.87 prs=992.51 Log=218714 Err=0
id=601272 time=19.05.2019 17:02:32 Vmax=7.6 Vmin=5.1 Vmid=6.4 Napr=272 uakb=14.08 usb=14.4 temp=18.5 hum=47.72 prs=992.51 Log=218713 Err=0
id=601271 time=19.05.2019 17:01:21 Vmax=7.5 Vmin=4.9 Vmid=6.1 Napr=267 uakb=14.06 usb=14.4 temp=18.59 hum=47.64 prs=992.49 Log=218712 Err=0
id=601270 time=19.05.2019 17:00:11 Vmax=7.3 Vmin=5.5 Vmid=6.3 Napr=267 uakb=14.06 usb=14.4 temp=18.62 hum=47.31 prs=992.42 Log=218711 Err=0
id=601269 time=19.05.2019 16:59:01 Vmax=7.7 Vmin=5.6 Vmid=6.6 Napr=274 uakb=14.08 usb=14.4 temp=18.63 hum=47.37 prs=992.41 Log=218710 Err=0
id=601268 time=19.05.2019 16:57:50 Vmax=5.9 Vmin=4.3 Vmid=5 Napr=275 uakb=14.06 usb=14.4 temp=18.66 hum=47.78 prs=992.35 Log=218709 Err=0
id=601267 time=19.05.2019 16:56:39 Vmax=7.1 Vmin=4.9 Vmid=6.2 Napr=263 uakb=14.06 usb=14.4 temp=18.66 hum=47.5 prs=992.31 Log=218708 Err=0
id=601266 time=19.05.2019 16:55:29 Vmax=8 Vmin=5.2 Vmid=6.8 Napr=258 uakb=14.08 usb=14.4 temp=18.68 hum=47.52 prs=992.31 Log=218707 Err=0
id=601265 time=19.05.2019 16:54:18 Vmax=6.5 Vmin=5 Vmid=5.8 Napr=261 uakb=14.06 usb=14.4 temp=18.7 hum=47.71 prs=992.31 Log=218706 Err=0
id=601264 time=19.05.2019 16:53:07 Vmax=5.8 Vmin=4.6 Vmid=5.2 Napr=258 uakb=14.06 usb=14.4 temp=18.72 hum=47.5 prs=992.27 Log=218705 Err=0
id=601263 time=19.05.2019 16:51:58 Vmax=6.8 Vmin=5 Vmid=5.7 Napr=263 uakb=14.08 usb=14.38 temp=18.75 hum=47.27 prs=992.22 Log=218704 Err=0
id=601262 time=19.05.2019 16:50:47 Vmax=5.2 Vmin=4.1 Vmid=4.8 Napr=263 uakb=14.06 usb=14.38 temp=18.78 hum=47.33 prs=992.12 Log=218703 Err=0
id=601261 time=19.05.2019 16:49:36 Vmax=5.9 Vmin=4.3 Vmid=4.9 Napr=259 uakb=14.06 usb=14.4 temp=18.81 hum=47.06 prs=992.12 Log=218702 Err=0
id=601260 time=19.05.2019 16:48:25 Vmax=6.4 Vmin=4.9 Vmid=5.4 Napr=253 uakb=14.06 usb=14.4 temp=18.83 hum=47.07 prs=992.13 Log=218701 Err=0
id=601259 time=19.05.2019 16:47:15 Vmax=6.5 Vmin=5.2 Vmid=5.8 Napr=252 uakb=14.06 usb=14.38 temp=18.86 hum=46.46 prs=992.12 Log=218700 Err=0
id=601258 time=19.05.2019 16:46:05 Vmax=7 Vmin=6.3 Vmid=6.5 Napr=255 uakb=14.08 usb=14.4 temp=18.87 hum=46.38 prs=992.11 Log=218699 Err=0
id=601257 time=19.05.2019 16:44:54 Vmax=7.5 Vmin=4.8 Vmid=6.5 Napr=255 uakb=14.06 usb=14.38 temp=18.9 hum=46.36 prs=992.06 Log=218698 Err=0
id=601256 time=19.05.2019 16:43:45 Vmax=6.6 Vmin=5.6 Vmid=5.9 Napr=257 uakb=14.06 usb=14.38 temp=18.97 hum=46.11 prs=992.03 Log=218697 Err=0
id=601255 time=19.05.2019 16:42:33 Vmax=7.9 Vmin=5.7 Vmid=7.1 Napr=253 uakb=14.06 usb=14.4 temp=19.01 hum=45.68 prs=992 Log=218696 Err=0
id=601254 time=19.05.2019 16:41:23 Vmax=9.4 Vmin=7.1 Vmid=7.9 Napr=251 uakb=14.06 usb=14.4 temp=19.11 hum=45.64 prs=991.96 Log=218695 Err=0
id=601253 time=19.05.2019 16:40:13 Vmax=8.3 Vmin=6.4 Vmid=7.3 Napr=249 uakb=14.08 usb=14.4 temp=19.16 hum=45.38 prs=991.95 Log=218694 Err=0
id=601252 time=19.05.2019 16:39:02 Vmax=7.9 Vmin=5.8 Vmid=6.6 Napr=253 uakb=14.06 usb=14.38 temp=19.22 hum=45.17 prs=991.9 Log=218693 Err=0
id=601251 time=19.05.2019 16:37:51 Vmax=7.1 Vmin=5.6 Vmid=6.5 Napr=260 uakb=14.06 usb=14.4 temp=19.3 hum=44.94 prs=991.84 Log=218692 Err=0
id=601250 time=19.05.2019 16:36:40 Vmax=7.7 Vmin=7 Vmid=7.2 Napr=263 uakb=14.06 usb=14.38 temp=19.4 hum=44.81 prs=991.71 Log=218691 Err=0
id=601249 time=19.05.2019 16:35:30 Vmax=8.5 Vmin=7 Vmid=7.7 Napr=255 uakb=14.08 usb=14.38 temp=19.54 hum=44.34 prs=991.73 Log=218690 Err=0
id=601248 time=19.05.2019 16:34:19 Vmax=8.3 Vmin=5.6 Vmid=6.5 Napr=250 uakb=14.06 usb=14.4 temp=19.63 hum=44.21 prs=991.66 Log=218689 Err=0
id=601247 time=19.05.2019 16:33:09 Vmax=6.9 Vmin=5.6 Vmid=6.2 Napr=249 uakb=14.08 usb=14.38 temp=19.66 hum=44.11 prs=991.69 Log=218688 Err=0
id=601246 time=19.05.2019 16:31:58 Vmax=7.5 Vmin=6.1 Vmid=6.9 Napr=254 uakb=14.08 usb=14.4 temp=19.72 hum=44.26 prs=991.63 Log=218687 Err=0
id=601245 time=19.05.2019 16:30:47 Vmax=6.3 Vmin=5.6 Vmid=5.9 Napr=257 uakb=14.06 usb=14.38 temp=19.76 hum=44.08 prs=991.63 Log=218686 Err=0
id=601244 time=19.05.2019 16:29:36 Vmax=5.7 Vmin=5.4 Vmid=5.6 Napr=256 uakb=14.06 usb=14.4 temp=19.84 hum=44.24 prs=991.62 Log=218685 Err=0
id=601243 time=19.05.2019 16:28:27 Vmax=7.6 Vmin=5.2 Vmid=6.1 Napr=256 uakb=14.06 usb=14.4 temp=19.85 hum=43.97 prs=991.63 Log=218684 Err=0
id=601242 time=19.05.2019 16:27:16 Vmax=8.7 Vmin=6.4 Vmid=7.2 Napr=259 uakb=14.06 usb=14.38 temp=19.85 hum=43.92 prs=991.62 Log=218683 Err=0
id=601241 time=19.05.2019 16:26:05 Vmax=6.4 Vmin=5.6 Vmid=6.1 Napr=251 uakb=14.06 usb=14.38 temp=19.85 hum=44.15 prs=991.61 Log=218682 Err=0
id=601240 time=19.05.2019 16:24:56 Vmax=7.1 Vmin=4.9 Vmid=6.2 Napr=252 uakb=14.08 usb=14.4 temp=19.79 hum=44.21 prs=991.56 Log=218681 Err=0
id=601239 time=19.05.2019 16:23:45 Vmax=6.2 Vmin=5.4 Vmid=5.6 Napr=250 uakb=14.06 usb=14.38 temp=19.76 hum=44.4 prs=991.58 Log=218680 Err=0
id=601238 time=19.05.2019 16:22:34 Vmax=6.1 Vmin=4 Vmid=5.1 Napr=250 uakb=14.06 usb=14.4 temp=19.76 hum=44.3 prs=991.59 Log=218679 Err=0
id=601237 time=19.05.2019 16:21:23 Vmax=5.4 Vmin=4.3 Vmid=5 Napr=243 uakb=14.08 usb=14.38 temp=19.8 hum=44.05 prs=991.65 Log=218678 Err=0
id=601236 time=19.05.2019 16:20:12 Vmax=6.4 Vmin=4.9 Vmid=5.5 Napr=245 uakb=14.06 usb=14.38 temp=19.84 hum=43.92 prs=991.62 Log=218677 Err=0
id=601235 time=19.05.2019 16:19:02 Vmax=5.9 Vmin=3.6 Vmid=5.1 Napr=244 uakb=14.06 usb=14.4 temp=19.91 hum=43.36 prs=991.53 Log=218676 Err=0
id=601234 time=19.05.2019 16:17:52 Vmax=5.6 Vmin=4 Vmid=4.7 Napr=246 uakb=14.06 usb=14.38 temp=19.98 hum=42.78 prs=991.46 Log=218675 Err=0
id=601233 time=19.05.2019 16:16:41 Vmax=4.8 Vmin=3.7 Vmid=4.2 Napr=243 uakb=14.06 usb=14.4 temp=20.02 hum=42.22 prs=991.41 Log=218674 Err=0
id=601232 time=19.05.2019 16:15:31 Vmax=4.3 Vmin=3.6 Vmid=3.9 Napr=250 uakb=14.06 usb=14.38 temp=20.01 hum=41.93 prs=991.4 Log=218673 Err=0
id=601231 time=19.05.2019 16:13:09 Vmax=6.4 Vmin=4 Vmid=5.2 Napr=254 uakb=14.06 usb=14.4 temp=20.09 hum=41.15 prs=991.29 Log=218671 Err=0
id=601230 time=19.05.2019 16:11:59 Vmax=4.8 Vmin=3.6 Vmid=4.4 Napr=248 uakb=14.06 usb=14.38 temp=20.17 hum=40.59 prs=991.27 Log=218670 Err=0
id=601229 time=19.05.2019 16:10:48 Vmax=4.7 Vmin=3.6 Vmid=4 Napr=243 uakb=14.06 usb=14.38 temp=20.32 hum=40.64 prs=991.25 Log=218669 Err=0
id=601228 time=19.05.2019 16:09:37 Vmax=4.1 Vmin=3.4 Vmid=3.7 Napr=230 uakb=14.06 usb=14.38 temp=20.42 hum=39.81 prs=991.23 Log=218668 Err=0
id=601227 time=19.05.2019 16:08:27 Vmax=5 Vmin=3.5 Vmid=4.3 Napr=223 uakb=14.06 usb=14.38 temp=20.41 hum=39.43 prs=991.22 Log=218667 Err=0
id=601226 time=19.05.2019 16:07:17 Vmax=5.2 Vmin=4.6 Vmid=4.8 Napr=220 uakb=14.06 usb=14.38 temp=20.38 hum=39.25 prs=991.17 Log=218666 Err=0
id=601225 time=19.05.2019 16:06:05 Vmax=6.1 Vmin=4.7 Vmid=5.4 Napr=217 uakb=14.06 usb=14.4 temp=20.33 hum=39.25 prs=991.12 Log=218665 Err=0
id=601224 time=19.05.2019 16:04:55 Vmax=6.6 Vmin=5.4 Vmid=5.8 Napr=216 uakb=14.06 usb=14.4 temp=20.24 hum=39.43 prs=991.1 Log=218664 Err=0
id=601223 time=19.05.2019 16:03:45 Vmax=6.2 Vmin=4.6 Vmid=5.1 Napr=223 uakb=14.06 usb=14.38 temp=20.08 hum=39.37 prs=991.09 Log=218663 Err=0
id=601222 time=19.05.2019 16:02:34 Vmax=5.7 Vmin=4.7 Vmid=5.2 Napr=223 uakb=14.06 usb=14.38 temp=19.94 hum=39.18 prs=991.08 Log=218662 Err=0
id=601221 time=19.05.2019 16:01:23 Vmax=5.8 Vmin=4.9 Vmid=5.5 Napr=219 uakb=14.06 usb=14.38 temp=19.76 hum=39.33 prs=991.09 Log=218661 Err=0
id=601220 time=19.05.2019 15:59:03 Vmax=8 Vmin=6.5 Vmid=7.2 Napr=205 uakb=14.06 usb=14.38 temp=19.56 hum=39.53 prs=991.1 Log=218659 Err=0
id=601219 time=19.05.2019 15:57:52 Vmax=8.3 Vmin=5.8 Vmid=6.6 Napr=202 uakb=14.06 usb=14.38 temp=19.65 hum=38.92 prs=991.07 Log=218658 Err=0
id=601218 time=19.05.2019 15:56:42 Vmax=6.9 Vmin=5.2 Vmid=6.1 Napr=197 uakb=14.06 usb=14.38 temp=19.84 hum=38.55 prs=991.07 Log=218657 Err=0
id=601217 time=19.05.2019 15:55:31 Vmax=7.6 Vmin=5.8 Vmid=6.8 Napr=191 uakb=14.06 usb=14.38 temp=20.03 hum=38.15 prs=991.08 Log=218656 Err=0
id=601216 time=19.05.2019 15:54:20 Vmax=8 Vmin=7 Vmid=7.2 Napr=182 uakb=14.06 usb=14.38 temp=20.24 hum=37.84 prs=990.95 Log=218655 Err=0
id=601215 time=19.05.2019 15:53:09 Vmax=7.2 Vmin=6.1 Vmid=6.5 Napr=182 uakb=14.06 usb=14.38 temp=20.43 hum=37.74 prs=990.83 Log=218654 Err=0
id=601214 time=19.05.2019 15:51:59 Vmax=7.2 Vmin=6.3 Vmid=6.8 Napr=181 uakb=14.06 usb=14.38 temp=20.61 hum=36.97 prs=990.75 Log=218653 Err=0
id=601213 time=19.05.2019 15:50:49 Vmax=7.6 Vmin=7.1 Vmid=7.2 Napr=182 uakb=14.06 usb=14.38 temp=20.83 hum=36.73 prs=990.76 Log=218652 Err=0
id=601212 time=19.05.2019 15:49:37 Vmax=7.8 Vmin=7 Vmid=7.3 Napr=181 uakb=14.06 usb=14.38 temp=21.05 hum=36.51 prs=990.71 Log=218651 Err=0
id=601211 time=19.05.2019 15:48:27 Vmax=7.7 Vmin=7.1 Vmid=7.3 Napr=179 uakb=14.06 usb=14.38 temp=21.26 hum=36.5 prs=990.73 Log=218650 Err=0
id=601210 time=19.05.2019 15:47:16 Vmax=7.6 Vmin=6.2 Vmid=6.8 Napr=180 uakb=14.06 usb=14.38 temp=21.39 hum=37.22 prs=990.68 Log=218649 Err=0
id=601209 time=19.05.2019 15:46:06 Vmax=6.9 Vmin=5.9 Vmid=6.5 Napr=177 uakb=14.06 usb=14.38 temp=21.51 hum=37.75 prs=990.72 Log=218648 Err=0
id=601208 time=19.05.2019 15:44:55 Vmax=6.3 Vmin=5.2 Vmid=5.7 Napr=174 uakb=14.06 usb=14.38 temp=21.54 hum=38.41 prs=990.72 Log=218647 Err=0
id=601207 time=19.05.2019 15:43:44 Vmax=6.1 Vmin=5.4 Vmid=5.7 Napr=173 uakb=14.06 usb=14.4 temp=21.56 hum=38.43 prs=990.7 Log=218646 Err=0
id=601206 time=19.05.2019 15:42:34 Vmax=5.5 Vmin=4.9 Vmid=5.2 Napr=172 uakb=14.06 usb=14.4 temp=21.59 hum=38.69 prs=990.72 Log=218645 Err=0
id=601205 time=19.05.2019 15:41:23 Vmax=5.7 Vmin=4.9 Vmid=5.1 Napr=171 uakb=14.06 usb=14.38 temp=21.6 hum=38.82 prs=990.67 Log=218644 Err=0
id=601204 time=19.05.2019 15:40:13 Vmax=5.2 Vmin=4.9 Vmid=5 Napr=173 uakb=14.06 usb=14.4 temp=21.6 hum=38.96 prs=990.68 Log=218643 Err=0
id=601203 time=19.05.2019 15:39:04 Vmax=5.2 Vmin=4.4 Vmid=4.8 Napr=171 uakb=14.06 usb=14.38 temp=21.57 hum=38.96 prs=990.69 Log=218642 Err=0
id=601202 time=19.05.2019 15:37:51 Vmax=5 Vmin=4.3 Vmid=4.6 Napr=169 uakb=14.06 usb=14.38 temp=21.55 hum=39.1 prs=990.7 Log=218641 Err=0
id=601201 time=19.05.2019 15:36:41 Vmax=4.7 Vmin=4.3 Vmid=4.4 Napr=170 uakb=14.06 usb=14.38 temp=21.51 hum=39.16 prs=990.7 Log=218640 Err=0
id=601200 time=19.05.2019 15:35:30 Vmax=5 Vmin=4.4 Vmid=4.7 Napr=171 uakb=14.06 usb=14.38 temp=21.47 hum=39.27 prs=990.69 Log=218639 Err=0
id=601199 time=19.05.2019 15:34:19 Vmax=4.6 Vmin=4.2 Vmid=4.3 Napr=169 uakb=14.06 usb=14.38 temp=21.44 hum=39.47 prs=990.66 Log=218638 Err=0
id=601198 time=19.05.2019 15:33:09 Vmax=4.7 Vmin=4.2 Vmid=4.4 Napr=169 uakb=14.06 usb=14.38 temp=21.4 hum=39.59 prs=990.66 Log=218637 Err=0
id=601197 time=19.05.2019 15:31:58 Vmax=4.7 Vmin=3.9 Vmid=4.2 Napr=169 uakb=14.06 usb=14.38 temp=21.4 hum=40.01 prs=990.68 Log=218636 Err=0
id=601196 time=19.05.2019 15:30:48 Vmax=4.3 Vmin=3.9 Vmid=4.1 Napr=170 uakb=14.06 usb=14.38 temp=21.4 hum=40.17 prs=990.68 Log=218635 Err=0
id=601195 time=19.05.2019 15:29:37 Vmax=4.4 Vmin=4 Vmid=4.1 Napr=169 uakb=14.06 usb=14.4 temp=21.4 hum=40.28 prs=990.69 Log=218634 Err=0
id=601194 time=19.05.2019 15:28:26 Vmax=4.8 Vmin=4.1 Vmid=4.3 Napr=171 uakb=14.06 usb=14.38 temp=21.39 hum=40.01 prs=990.69 Log=218633 Err=0
id=601193 time=19.05.2019 15:27:16 Vmax=4.6 Vmin=4.2 Vmid=4.3 Napr=172 uakb=14.06 usb=14.4 temp=21.38 hum=40.14 prs=990.68 Log=218632 Err=0
id=601192 time=19.05.2019 15:26:05 Vmax=4.8 Vmin=4 Vmid=4.2 Napr=168 uakb=14.06 usb=14.4 temp=21.4 hum=40.13 prs=990.67 Log=218631 Err=0
id=601191 time=19.05.2019 15:24:54 Vmax=4.4 Vmin=4 Vmid=4.1 Napr=164 uakb=14.06 usb=14.38 temp=21.45 hum=40.19 prs=990.65 Log=218630 Err=0
id=601190 time=19.05.2019 15:23:44 Vmax=4.8 Vmin=4.3 Vmid=4.4 Napr=164 uakb=14.06 usb=14.4 temp=21.53 hum=39.91 prs=990.66 Log=218629 Err=0
id=601189 time=19.05.2019 15:21:23 Vmax=4.6 Vmin=3.9 Vmid=4.1 Napr=161 uakb=14.06 usb=14.38 temp=21.56 hum=40.12 prs=990.61 Log=218627 Err=0
id=601188 time=19.05.2019 15:20:12 Vmax=4.8 Vmin=4.1 Vmid=4.3 Napr=160 uakb=14.06 usb=14.38 temp=21.54 hum=40.01 prs=990.59 Log=218626 Err=0
id=601187 time=19.05.2019 15:19:01 Vmax=4.7 Vmin=4.1 Vmid=4.3 Napr=161 uakb=14.06 usb=14.38 temp=21.54 hum=40.02 prs=990.58 Log=218625 Err=0
id=601186 time=19.05.2019 15:17:51 Vmax=5.5 Vmin=4.6 Vmid=4.9 Napr=162 uakb=14.06 usb=14.38 temp=21.56 hum=39.69 prs=990.56 Log=218624 Err=0
id=601185 time=19.05.2019 15:16:39 Vmax=5 Vmin=4.1 Vmid=4.4 Napr=164 uakb=14.06 usb=14.38 temp=21.61 hum=39.53 prs=990.55 Log=218623 Err=0
id=601184 time=19.05.2019 15:15:29 Vmax=4.2 Vmin=3.7 Vmid=4 Napr=160 uakb=14.06 usb=14.38 temp=21.61 hum=39.83 prs=990.54 Log=218622 Err=0
id=601183 time=19.05.2019 15:14:19 Vmax=4.2 Vmin=3.9 Vmid=4 Napr=155 uakb=14.06 usb=14.38 temp=21.57 hum=39.95 prs=990.55 Log=218621 Err=0
id=601182 time=19.05.2019 15:13:08 Vmax=4.3 Vmin=3.7 Vmid=4 Napr=154 uakb=14.06 usb=14.4 temp=21.56 hum=39.79 prs=990.55 Log=218620 Err=0
id=601181 time=19.05.2019 15:11:57 Vmax=4.8 Vmin=4.2 Vmid=4.4 Napr=156 uakb=14.06 usb=14.38 temp=21.6 hum=39.2 prs=990.53 Log=218619 Err=0
id=601180 time=19.05.2019 15:10:47 Vmax=5.1 Vmin=4.4 Vmid=4.7 Napr=154 uakb=14.06 usb=14.4 temp=21.64 hum=39.01 prs=990.5 Log=218618 Err=0
id=601179 time=19.05.2019 15:09:36 Vmax=5 Vmin=4.4 Vmid=4.7 Napr=151 uakb=14.06 usb=14.38 temp=21.64 hum=39.16 prs=990.53 Log=218617 Err=0
id=601178 time=19.05.2019 15:08:27 Vmax=4.9 Vmin=4.2 Vmid=4.3 Napr=145 uakb=14.06 usb=14.38 temp=21.62 hum=39.71 prs=990.47 Log=218616 Err=0
id=601177 time=19.05.2019 15:07:15 Vmax=4.7 Vmin=4.6 Vmid=4.6 Napr=143 uakb=14.06 usb=14.38 temp=21.62 hum=40 prs=990.46 Log=218615 Err=0
id=601176 time=19.05.2019 15:06:04 Vmax=4.3 Vmin=4.1 Vmid=4.2 Napr=141 uakb=14.06 usb=14.38 temp=21.57 hum=40.74 prs=990.42 Log=218614 Err=0
id=601175 time=19.05.2019 15:04:53 Vmax=4.2 Vmin=3.9 Vmid=4.1 Napr=142 uakb=14.06 usb=14.38 temp=21.54 hum=40.66 prs=990.39 Log=218613 Err=0
id=601174 time=19.05.2019 15:03:43 Vmax=4.2 Vmin=4 Vmid=4 Napr=141 uakb=14.06 usb=14.38 temp=21.54 hum=40.71 prs=990.37 Log=218612 Err=0
id=601173 time=19.05.2019 15:02:32 Vmax=4.2 Vmin=3.9 Vmid=4 Napr=141 uakb=14.06 usb=14.38 temp=21.55 hum=40.44 prs=990.37 Log=218611 Err=0
id=601172 time=19.05.2019 15:01:22 Vmax=4.3 Vmin=3.7 Vmid=4 Napr=143 uakb=14.06 usb=14.38 temp=21.6 hum=40.25 prs=990.33 Log=218610 Err=0
id=601171 time=19.05.2019 15:00:11 Vmax=4.3 Vmin=3.9 Vmid=4 Napr=144 uakb=14.06 usb=14.38 temp=21.7 hum=39.81 prs=990.35 Log=218609 Err=0
id=601170 time=19.05.2019 14:59:00 Vmax=4.6 Vmin=4.3 Vmid=4.3 Napr=147 uakb=14.06 usb=14.38 temp=21.81 hum=38.86 prs=990.35 Log=218608 Err=0
id=601169 time=19.05.2019 14:57:49 Vmax=4.6 Vmin=4 Vmid=4.2 Napr=147 uakb=14.06 usb=14.38 temp=21.9 hum=38.71 prs=990.3 Log=218607 Err=0
id=601168 time=19.05.2019 14:56:39 Vmax=4.1 Vmin=3.5 Vmid=3.9 Napr=145 uakb=14.06 usb=14.38 temp=22.01 hum=38.44 prs=990.36 Log=218606 Err=0
id=601167 time=19.05.2019 14:55:28 Vmax=4.1 Vmin=3.7 Vmid=3.9 Napr=144 uakb=14.06 usb=14.38 temp=22.09 hum=37.97 prs=990.33 Log=218605 Err=0
id=601166 time=19.05.2019 14:54:17 Vmax=4.1 Vmin=3.9 Vmid=4 Napr=144 uakb=14.06 usb=14.38 temp=22.16 hum=37.85 prs=990.35 Log=218604 Err=0
id=601165 time=19.05.2019 14:53:07 Vmax=4.3 Vmin=4 Vmid=4 Napr=144 uakb=14.06 usb=14.38 temp=22.23 hum=37.32 prs=990.32 Log=218603 Err=0
id=601164 time=19.05.2019 14:51:56 Vmax=4.2 Vmin=4 Vmid=4 Napr=143 uakb=14.06 usb=14.38 temp=22.29 hum=36.91 prs=990.29 Log=218602 Err=0
id=601163 time=19.05.2019 14:49:35 Vmax=4.3 Vmin=4 Vmid=4.1 Napr=143 uakb=14.06 usb=14.38 temp=22.48 hum=35.9 prs=990.26 Log=218600 Err=0
id=601162 time=19.05.2019 14:48:24 Vmax=4.3 Vmin=4 Vmid=4.1 Napr=143 uakb=14.08 usb=14.38 temp=22.61 hum=35.11 prs=990.24 Log=218599 Err=0
id=601161 time=19.05.2019 14:47:14 Vmax=4.2 Vmin=3.9 Vmid=4.1 Napr=144 uakb=14.06 usb=14.38 temp=22.73 hum=34.4 prs=990.25 Log=218598 Err=0
id=601160 time=19.05.2019 14:46:03 Vmax=4.6 Vmin=4 Vmid=4.2 Napr=144 uakb=14.06 usb=14.38 temp=22.89 hum=33.77 prs=990.25 Log=218597 Err=0
id=601159 time=19.05.2019 14:44:53 Vmax=4.9 Vmin=4.4 Vmid=4.6 Napr=144 uakb=14.08 usb=14.38 temp=23.04 hum=33.27 prs=990.22 Log=218596 Err=0
id=601158 time=19.05.2019 14:43:43 Vmax=4.7 Vmin=4.2 Vmid=4.3 Napr=143 uakb=14.06 usb=14.38 temp=23.19 hum=32.52 prs=990.23 Log=218595 Err=0
id=601157 time=19.05.2019 14:42:31 Vmax=4.7 Vmin=4.4 Vmid=4.6 Napr=143 uakb=14.06 usb=14.38 temp=23.32 hum=32.07 prs=990.26 Log=218594 Err=0
id=601156 time=19.05.2019 14:41:21 Vmax=4.4 Vmin=3.9 Vmid=4.1 Napr=141 uakb=14.06 usb=14.38 temp=23.37 hum=31.96 prs=990.23 Log=218593 Err=0
id=601155 time=19.05.2019 14:40:09 Vmax=4.1 Vmin=3.6 Vmid=3.9 Napr=142 uakb=14.06 usb=14.38 temp=23.34 hum=32.23 prs=990.24 Log=218592 Err=0
id=601154 time=19.05.2019 14:38:59 Vmax=4 Vmin=3.6 Vmid=3.7 Napr=142 uakb=14.06 usb=14.38 temp=23.23 hum=31.53 prs=990.2 Log=218591 Err=0
id=601153 time=19.05.2019 14:37:48 Vmax=4 Vmin=3.7 Vmid=3.9 Napr=142 uakb=14.08 usb=14.38 temp=23.15 hum=30.89 prs=990.21 Log=218590 Err=0
id=601152 time=19.05.2019 14:36:38 Vmax=3.9 Vmin=3.3 Vmid=3.6 Napr=138 uakb=14.06 usb=14.38 temp=23.08 hum=30.71 prs=990.19 Log=218589 Err=0
id=601151 time=19.05.2019 14:35:28 Vmax=4 Vmin=3.4 Vmid=3.6 Napr=137 uakb=14.08 usb=14.4 temp=23.01 hum=30.44 prs=990.18 Log=218588 Err=0
id=601150 time=19.05.2019 14:34:16 Vmax=3.6 Vmin=3 Vmid=3.3 Napr=134 uakb=14.06 usb=14.38 temp=22.97 hum=30.09 prs=990.11 Log=218587 Err=0
id=601149 time=19.05.2019 14:33:06 Vmax=3.3 Vmin=2.9 Vmid=3 Napr=135 uakb=14.06 usb=14.38 temp=22.95 hum=29.57 prs=990.13 Log=218586 Err=0
id=601148 time=19.05.2019 14:31:56 Vmax=3.4 Vmin=2.2 Vmid=2.6 Napr=135 uakb=14.08 usb=14.38 temp=22.93 hum=30.15 prs=990.15 Log=218585 Err=0
id=601147 time=19.05.2019 14:30:45 Vmax=2.8 Vmin=2.5 Vmid=2.6 Napr=138 uakb=14.06 usb=14.4 temp=22.95 hum=29.63 prs=990.11 Log=218584 Err=0
id=601146 time=19.05.2019 14:29:34 Vmax=3.2 Vmin=2.5 Vmid=2.7 Napr=138 uakb=14.08 usb=14.38 temp=23.01 hum=29.04 prs=990.12 Log=218583 Err=0
id=601145 time=19.05.2019 14:28:25 Vmax=3 Vmin=2.7 Vmid=2.8 Napr=138 uakb=14.06 usb=14.38 temp=23.08 hum=28.43 prs=990.08 Log=218582 Err=0
id=601144 time=19.05.2019 14:27:13 Vmax=3.2 Vmin=2.3 Vmid=2.8 Napr=138 uakb=14.08 usb=14.38 temp=23.14 hum=28.2 prs=990.05 Log=218581 Err=0
id=601143 time=19.05.2019 14:26:02 Vmax=2.7 Vmin=2 Vmid=2.3 Napr=138 uakb=14.06 usb=14.38 temp=23.18 hum=27.87 prs=990.08 Log=218580 Err=0
id=601142 time=19.05.2019 14:24:51 Vmax=2.6 Vmin=1.9 Vmid=2.1 Napr=138 uakb=14.06 usb=14.38 temp=23.2 hum=27.45 prs=990.05 Log=218579 Err=0
id=601141 time=19.05.2019 14:23:41 Vmax=2.5 Vmin=1.9 Vmid=2.1 Napr=137 uakb=14.06 usb=14.38 temp=23.21 hum=27.68 prs=990.05 Log=218578 Err=0
id=601140 time=19.05.2019 14:22:31 Vmax=2.2 Vmin=1.5 Vmid=1.9 Napr=137 uakb=14.06 usb=14.38 temp=23.2 hum=27.78 prs=990.01 Log=218577 Err=0
id=601139 time=19.05.2019 14:21:19 Vmax=2.9 Vmin=1.8 Vmid=2.1 Napr=133 uakb=14.08 usb=14.38 temp=23.19 hum=28.02 prs=990.01 Log=218576 Err=0
id=601138 time=19.05.2019 14:20:10 Vmax=2.2 Vmin=1.6 Vmid=1.9 Napr=130 uakb=14.06 usb=14.38 temp=23.16 hum=28.11 prs=989.98 Log=218575 Err=0
id=601137 time=19.05.2019 14:18:59 Vmax=2.5 Vmin=1.9 Vmid=2.1 Napr=123 uakb=14.08 usb=14.4 temp=23.13 hum=28.7 prs=989.98 Log=218574 Err=0
id=601136 time=19.05.2019 14:17:48 Vmax=2.6 Vmin=1.9 Vmid=2.1 Napr=123 uakb=14.08 usb=14.38 temp=23.1 hum=28.7 prs=989.96 Log=218573 Err=0
id=601135 time=19.05.2019 14:16:36 Vmax=2.7 Vmin=2.1 Vmid=2.3 Napr=122 uakb=14.08 usb=14.38 temp=23.07 hum=29.09 prs=989.97 Log=218572 Err=0
id=601134 time=19.05.2019 14:15:26 Vmax=2.8 Vmin=2.2 Vmid=2.5 Napr=125 uakb=14.08 usb=14.38 temp=23.06 hum=29.02 prs=989.98 Log=218571 Err=0
id=601133 time=19.05.2019 14:14:15 Vmax=2.8 Vmin=2.1 Vmid=2.5 Napr=131 uakb=14.08 usb=14.38 temp=23.06 hum=29.32 prs=989.99 Log=218570 Err=0
id=601132 time=19.05.2019 14:11:53 Vmax=2.1 Vmin=1.9 Vmid=1.9 Napr=140 uakb=14.08 usb=14.38 temp=23.1 hum=29.76 prs=989.98 Log=218568 Err=0
id=601131 time=19.05.2019 14:09:34 Vmax=2.2 Vmin=1.4 Vmid=1.6 Napr=140 uakb=14.08 usb=14.38 temp=23.09 hum=29.97 prs=989.99 Log=218566 Err=0
id=601130 time=19.05.2019 14:08:23 Vmax=2 Vmin=1.2 Vmid=1.4 Napr=140 uakb=14.06 usb=14.38 temp=23.09 hum=29.88 prs=990 Log=218565 Err=0
id=601129 time=19.05.2019 14:07:11 Vmax=2.3 Vmin=1.3 Vmid=1.6 Napr=140 uakb=14.08 usb=14.38 temp=23.08 hum=30.28 prs=990.02 Log=218564 Err=0
id=601128 time=19.05.2019 14:06:02 Vmax=2.7 Vmin=1.5 Vmid=2 Napr=141 uakb=14.06 usb=14.38 temp=23.06 hum=31.53 prs=989.98 Log=218563 Err=0
id=601127 time=19.05.2019 14:04:50 Vmax=2.2 Vmin=1.3 Vmid=1.5 Napr=154 uakb=14.06 usb=14.38 temp=23.04 hum=32.98 prs=989.99 Log=218562 Err=0
id=601126 time=19.05.2019 14:03:40 Vmax=1.5 Vmin=1.1 Vmid=1.3 Napr=154 uakb=14.08 usb=14.38 temp=23.03 hum=33.32 prs=990 Log=218561 Err=0
id=601125 time=19.05.2019 14:02:29 Vmax=1.8 Vmin=1.4 Vmid=1.5 Napr=154 uakb=14.06 usb=14.38 temp=23.04 hum=33.17 prs=989.99 Log=218560 Err=0
id=601124 time=19.05.2019 14:01:17 Vmax=1.8 Vmin=1.5 Vmid=1.6 Napr=154 uakb=14.08 usb=14.38 temp=23.09 hum=32.1 prs=990.01 Log=218559 Err=0
id=601123 time=19.05.2019 13:58:57 Vmax=1.9 Vmin=1.6 Vmid=1.8 Napr=157 uakb=14.08 usb=14.38 temp=23.13 hum=31.85 prs=990.03 Log=218557 Err=0
id=601122 time=19.05.2019 13:57:46 Vmax=2 Vmin=1.8 Vmid=1.8 Napr=157 uakb=14.08 usb=14.38 temp=23.17 hum=32.03 prs=990.08 Log=218556 Err=0